<?xml version="1.0" encoding="UTF-8" standalone="no" ?>
<gpx xmlns="http://www.topografix.com/GPX/1/1" xmlns:xsi="http://www.w3.org/2001/XMLSchema-instance" xsi:schemaLocation="http://www.topografix.com/GPX/1/1 http://www.topografix.com/GPX/1/1/gpx.xsd" version="1.1" creator="VisuGPX - https://www.visugpx.com">
  <metadata>
    <name>Bray-Dunes - Qinquibus étape 1</name>
    <desc><![CDATA[Bray-Dunes - Qinquibus étape 1]]></desc>
  </metadata>
  <trk>
    <name><![CDATA[Section 1 - De Bray-Dunes à Quinquibus (Lille)]]></name>
    <trkseg>
      <trkpt lat="51.08251" lon="2.52493">
        <ele>6</ele>
        <time>2018-10-16T10:36:16.378Z</time>
      </trkpt>
      <trkpt lat="51.08086" lon="2.51908">
        <ele>5</ele>
        <time>2018-10-16T10:36:17.378Z</time>
      </trkpt>
      <trkpt lat="51.07987" lon="2.51583">
        <ele>4</ele>
        <time>2018-10-16T10:36:18.378Z</time>
      </trkpt>
      <trkpt lat="51.07909" lon="2.51628">
        <ele>8</ele>
        <time>2018-10-16T10:36:19.378Z</time>
      </trkpt>
      <trkpt lat="51.079" lon="2.51621">
        <ele>8</ele>
        <time>2018-10-16T10:36:20.378Z</time>
      </trkpt>
      <trkpt lat="51.07824" lon="2.51316">
        <ele>9</ele>
        <time>2018-10-16T10:36:21.378Z</time>
      </trkpt>
      <trkpt lat="51.06998" lon="2.51625">
        <ele>5</ele>
        <time>2018-10-16T10:36:22.378Z</time>
      </trkpt>
      <trkpt lat="51.06987" lon="2.51638">
        <ele>5</ele>
        <time>2018-10-16T10:36:23.378Z</time>
      </trkpt>
      <trkpt lat="51.07101" lon="2.52572">
        <ele>5</ele>
        <time>2018-10-16T10:36:24.378Z</time>
      </trkpt>
      <trkpt lat="51.07176" lon="2.52986">
        <ele>4</ele>
        <time>2018-10-16T10:36:25.378Z</time>
      </trkpt>
      <trkpt lat="51.07226" lon="2.5315">
        <ele>4</ele>
        <time>2018-10-16T10:36:26.378Z</time>
      </trkpt>
      <trkpt lat="51.07276" lon="2.53358">
        <ele>5</ele>
        <time>2018-10-16T10:36:27.378Z</time>
      </trkpt>
      <trkpt lat="51.07293" lon="2.53462">
        <ele>5</ele>
        <time>2018-10-16T10:36:28.378Z</time>
      </trkpt>
      <trkpt lat="51.07306" lon="2.53677">
        <ele>4</ele>
        <time>2018-10-16T10:36:29.378Z</time>
      </trkpt>
      <trkpt lat="51.07338" lon="2.53891">
        <ele>3</ele>
        <time>2018-10-16T10:36:30.378Z</time>
      </trkpt>
      <trkpt lat="51.07351" lon="2.54055">
        <ele>4</ele>
        <time>2018-10-16T10:36:31.378Z</time>
      </trkpt>
      <trkpt lat="51.07428" lon="2.54577">
        <ele>2</ele>
        <time>2018-10-16T10:36:32.378Z</time>
      </trkpt>
      <trkpt lat="51.07464" lon="2.54933">
        <ele>3</ele>
        <time>2018-10-16T10:36:33.378Z</time>
      </trkpt>
      <trkpt lat="51.07539" lon="2.55361">
        <ele>2</ele>
        <time>2018-10-16T10:36:34.378Z</time>
      </trkpt>
      <trkpt lat="51.07579" lon="2.55538">
        <ele>3</ele>
        <time>2018-10-16T10:36:35.378Z</time>
      </trkpt>
      <trkpt lat="51.07577" lon="2.55553">
        <ele>3</ele>
        <time>2018-10-16T10:36:36.378Z</time>
      </trkpt>
      <trkpt lat="51.07022" lon="2.55986">
        <ele>1</ele>
        <time>2018-10-16T10:36:37.378Z</time>
      </trkpt>
      <trkpt lat="51.06992" lon="2.55994">
        <ele>1</ele>
        <time>2018-10-16T10:36:38.378Z</time>
      </trkpt>
      <trkpt lat="51.06982" lon="2.5593">
        <ele>3.8</ele>
        <time>2018-10-16T10:36:39.378Z</time>
      </trkpt>
      <trkpt lat="51.06946" lon="2.55944">
        <ele>4</ele>
        <time>2018-10-16T10:36:40.378Z</time>
      </trkpt>
      <trkpt lat="51.06825" lon="2.56046">
        <ele>1</ele>
        <time>2018-10-16T10:36:41.378Z</time>
      </trkpt>
      <trkpt lat="51.06477" lon="2.56298">
        <ele>1</ele>
        <time>2018-10-16T10:36:42.378Z</time>
      </trkpt>
      <trkpt lat="51.06027" lon="2.56277">
        <ele>6</ele>
        <time>2018-10-16T10:36:43.378Z</time>
      </trkpt>
      <trkpt lat="51.05901" lon="2.56232">
        <ele>3</ele>
        <time>2018-10-16T10:36:44.378Z</time>
      </trkpt>
      <trkpt lat="51.05894" lon="2.56238">
        <ele>2</ele>
        <time>2018-10-16T10:36:45.378Z</time>
      </trkpt>
      <trkpt lat="51.05973" lon="2.56504">
        <ele>4</ele>
        <time>2018-10-16T10:36:46.378Z</time>
      </trkpt>
      <trkpt lat="51.05999" lon="2.56633">
        <ele>2</ele>
        <time>2018-10-16T10:36:47.378Z</time>
      </trkpt>
      <trkpt lat="51.06034" lon="2.56706">
        <ele>3</ele>
        <time>2018-10-16T10:36:48.378Z</time>
      </trkpt>
      <trkpt lat="51.06071" lon="2.56809">
        <ele>4</ele>
        <time>2018-10-16T10:36:49.378Z</time>
      </trkpt>
      <trkpt lat="51.061" lon="2.57047">
        <ele>3</ele>
        <time>2018-10-16T10:36:50.378Z</time>
      </trkpt>
      <trkpt lat="51.06119" lon="2.57316">
        <ele>5</ele>
        <time>2018-10-16T10:36:51.378Z</time>
      </trkpt>
      <trkpt lat="51.06164" lon="2.57409">
        <ele>5</ele>
        <time>2018-10-16T10:36:52.378Z</time>
      </trkpt>
      <trkpt lat="51.06194" lon="2.57553">
        <ele>5</ele>
        <time>2018-10-16T10:36:53.378Z</time>
      </trkpt>
      <trkpt lat="51.06204" lon="2.57641">
        <ele>2</ele>
        <time>2018-10-16T10:36:54.378Z</time>
      </trkpt>
      <trkpt lat="51.06267" lon="2.57824">
        <ele>1</ele>
        <time>2018-10-16T10:36:55.378Z</time>
      </trkpt>
      <trkpt lat="51.06288" lon="2.57838">
        <ele>2</ele>
        <time>2018-10-16T10:36:56.378Z</time>
      </trkpt>
      <trkpt lat="51.0631" lon="2.57874">
        <ele>2</ele>
        <time>2018-10-16T10:36:57.378Z</time>
      </trkpt>
      <trkpt lat="51.06346" lon="2.57996">
        <ele>1</ele>
        <time>2018-10-16T10:36:58.378Z</time>
      </trkpt>
      <trkpt lat="51.06377" lon="2.58054">
        <ele>2</ele>
        <time>2018-10-16T10:36:59.378Z</time>
      </trkpt>
      <trkpt lat="51.06439" lon="2.58132">
        <ele>3</ele>
        <time>2018-10-16T10:37:00.378Z</time>
      </trkpt>
      <trkpt lat="51.06517" lon="2.58302">
        <ele>1</ele>
        <time>2018-10-16T10:37:01.378Z</time>
      </trkpt>
      <trkpt lat="51.06564" lon="2.58426">
        <ele>2</ele>
        <time>2018-10-16T10:37:02.378Z</time>
      </trkpt>
      <trkpt lat="51.06618" lon="2.585">
        <ele>2</ele>
        <time>2018-10-16T10:37:03.378Z</time>
      </trkpt>
      <trkpt lat="51.06634" lon="2.58577">
        <ele>4.8</ele>
        <time>2018-10-16T10:37:04.378Z</time>
      </trkpt>
      <trkpt lat="51.06666" lon="2.58631">
        <ele>4.3</ele>
        <time>2018-10-16T10:37:05.378Z</time>
      </trkpt>
      <trkpt lat="51.06673" lon="2.58666">
        <ele>5</ele>
        <time>2018-10-16T10:37:06.378Z</time>
      </trkpt>
      <trkpt lat="51.06669" lon="2.58674">
        <ele>4.8</ele>
        <time>2018-10-16T10:37:07.378Z</time>
      </trkpt>
      <trkpt lat="51.06604" lon="2.58609">
        <ele>5.1</ele>
        <time>2018-10-16T10:37:08.378Z</time>
      </trkpt>
      <trkpt lat="51.06575" lon="2.58595">
        <ele>4.7</ele>
        <time>2018-10-16T10:37:09.378Z</time>
      </trkpt>
      <trkpt lat="51.0652" lon="2.58598">
        <ele>1</ele>
        <time>2018-10-16T10:37:10.378Z</time>
      </trkpt>
      <trkpt lat="51.06266" lon="2.58764">
        <ele>-2</ele>
        <time>2018-10-16T10:37:11.378Z</time>
      </trkpt>
      <trkpt lat="51.06248" lon="2.58786">
        <ele>-2</ele>
        <time>2018-10-16T10:37:12.378Z</time>
      </trkpt>
      <trkpt lat="51.06247" lon="2.58804">
        <ele>-2</ele>
        <time>2018-10-16T10:37:13.378Z</time>
      </trkpt>
      <trkpt lat="51.06256" lon="2.58815">
        <ele>-2</ele>
        <time>2018-10-16T10:37:14.378Z</time>
      </trkpt>
      <trkpt lat="51.06451" lon="2.58703">
        <ele>-1</ele>
        <time>2018-10-16T10:37:15.378Z</time>
      </trkpt>
      <trkpt lat="51.06464" lon="2.58711">
        <ele>-1</ele>
        <time>2018-10-16T10:37:16.378Z</time>
      </trkpt>
      <trkpt lat="51.06548" lon="2.58986">
        <ele>-1</ele>
        <time>2018-10-16T10:37:17.378Z</time>
      </trkpt>
      <trkpt lat="51.06571" lon="2.59112">
        <ele>2.4</ele>
        <time>2018-10-16T10:37:18.378Z</time>
      </trkpt>
      <trkpt lat="51.06567" lon="2.59152">
        <ele>-1</ele>
        <time>2018-10-16T10:37:19.378Z</time>
      </trkpt>
      <trkpt lat="51.06463" lon="2.5943">
        <ele>-1</ele>
        <time>2018-10-16T10:37:20.378Z</time>
      </trkpt>
      <trkpt lat="51.05896" lon="2.60134">
        <ele>-2</ele>
        <time>2018-10-16T10:37:21.378Z</time>
      </trkpt>
      <trkpt lat="51.05156" lon="2.61006">
        <ele>-2</ele>
        <time>2018-10-16T10:37:22.378Z</time>
      </trkpt>
      <trkpt lat="51.04978" lon="2.61243">
        <ele>-1</ele>
        <time>2018-10-16T10:37:23.378Z</time>
      </trkpt>
      <trkpt lat="51.04749" lon="2.61529">
        <ele>-1</ele>
        <time>2018-10-16T10:37:24.378Z</time>
      </trkpt>
      <trkpt lat="51.04576" lon="2.61716">
        <ele>-1</ele>
        <time>2018-10-16T10:37:25.378Z</time>
      </trkpt>
      <trkpt lat="51.04829" lon="2.62445">
        <ele>-1</ele>
        <time>2018-10-16T10:37:26.378Z</time>
      </trkpt>
      <trkpt lat="51.04853" lon="2.62532">
        <ele>-1</ele>
        <time>2018-10-16T10:37:27.378Z</time>
      </trkpt>
      <trkpt lat="51.04868" lon="2.62637">
        <ele>-1</ele>
        <time>2018-10-16T10:37:28.378Z</time>
      </trkpt>
      <trkpt lat="51.0487" lon="2.62721">
        <ele>-1</ele>
        <time>2018-10-16T10:37:29.378Z</time>
      </trkpt>
      <trkpt lat="51.04768" lon="2.63665">
        <ele>2</ele>
        <time>2018-10-16T10:37:30.378Z</time>
      </trkpt>
      <trkpt lat="51.04759" lon="2.64022">
        <ele>3.3</ele>
        <time>2018-10-16T10:37:31.378Z</time>
      </trkpt>
      <trkpt lat="51.0473" lon="2.64195">
        <ele>3.3</ele>
        <time>2018-10-16T10:37:32.378Z</time>
      </trkpt>
      <trkpt lat="51.04646" lon="2.64417">
        <ele>1</ele>
        <time>2018-10-16T10:37:33.378Z</time>
      </trkpt>
      <trkpt lat="51.04633" lon="2.64483">
        <ele>2</ele>
        <time>2018-10-16T10:37:34.378Z</time>
      </trkpt>
      <trkpt lat="51.04551" lon="2.64603">
        <ele>2</ele>
        <time>2018-10-16T10:37:35.378Z</time>
      </trkpt>
      <trkpt lat="51.04417" lon="2.64956">
        <ele>2</ele>
        <time>2018-10-16T10:37:36.378Z</time>
      </trkpt>
      <trkpt lat="51.04381" lon="2.64993">
        <ele>3</ele>
        <time>2018-10-16T10:37:37.378Z</time>
      </trkpt>
      <trkpt lat="51.04334" lon="2.65013">
        <ele>4</ele>
        <time>2018-10-16T10:37:38.378Z</time>
      </trkpt>
      <trkpt lat="51.04303" lon="2.65008">
        <ele>4</ele>
        <time>2018-10-16T10:37:39.378Z</time>
      </trkpt>
      <trkpt lat="51.0422" lon="2.64962">
        <ele>3</ele>
        <time>2018-10-16T10:37:40.378Z</time>
      </trkpt>
      <trkpt lat="51.04133" lon="2.65005">
        <ele>4</ele>
        <time>2018-10-16T10:37:41.378Z</time>
      </trkpt>
      <trkpt lat="51.04076" lon="2.65072">
        <ele>2</ele>
        <time>2018-10-16T10:37:42.378Z</time>
      </trkpt>
      <trkpt lat="51.0399" lon="2.65256">
        <ele>1</ele>
        <time>2018-10-16T10:37:43.378Z</time>
      </trkpt>
      <trkpt lat="51.03963" lon="2.65292">
        <ele>1</ele>
        <time>2018-10-16T10:37:44.378Z</time>
      </trkpt>
      <trkpt lat="51.03955" lon="2.65317">
        <ele>1</ele>
        <time>2018-10-16T10:37:45.378Z</time>
      </trkpt>
      <trkpt lat="51.03976" lon="2.65485">
        <ele>-1</ele>
        <time>2018-10-16T10:37:46.378Z</time>
      </trkpt>
      <trkpt lat="51.04041" lon="2.65735">
        <ele>4</ele>
        <time>2018-10-16T10:37:47.378Z</time>
      </trkpt>
      <trkpt lat="51.04291" lon="2.66309">
        <ele>1</ele>
        <time>2018-10-16T10:37:48.378Z</time>
      </trkpt>
      <trkpt lat="51.043" lon="2.66427">
        <ele>4</ele>
        <time>2018-10-16T10:37:49.378Z</time>
      </trkpt>
      <trkpt lat="51.04269" lon="2.66562">
        <ele>4</ele>
        <time>2018-10-16T10:37:50.378Z</time>
      </trkpt>
      <trkpt lat="51.04269" lon="2.66647">
        <ele>1</ele>
        <time>2018-10-16T10:37:51.378Z</time>
      </trkpt>
      <trkpt lat="51.04242" lon="2.66801">
        <ele>4</ele>
        <time>2018-10-16T10:37:52.378Z</time>
      </trkpt>
      <trkpt lat="51.04151" lon="2.67165">
        <ele>1</ele>
        <time>2018-10-16T10:37:53.378Z</time>
      </trkpt>
      <trkpt lat="51.04132" lon="2.67271">
        <ele>4</ele>
        <time>2018-10-16T10:37:54.378Z</time>
      </trkpt>
      <trkpt lat="51.04137" lon="2.67306">
        <ele>4</ele>
        <time>2018-10-16T10:37:55.378Z</time>
      </trkpt>
      <trkpt lat="51.0416" lon="2.67328">
        <ele>4</ele>
        <time>2018-10-16T10:37:56.378Z</time>
      </trkpt>
      <trkpt lat="51.0417" lon="2.67364">
        <ele>3.2</ele>
        <time>2018-10-16T10:37:57.378Z</time>
      </trkpt>
      <trkpt lat="51.04166" lon="2.67551">
        <ele>4</ele>
        <time>2018-10-16T10:37:58.378Z</time>
      </trkpt>
      <trkpt lat="51.04152" lon="2.67585">
        <ele>4</ele>
        <time>2018-10-16T10:37:59.378Z</time>
      </trkpt>
      <trkpt lat="51.04104" lon="2.67615">
        <ele>1</ele>
        <time>2018-10-16T10:38:00.378Z</time>
      </trkpt>
      <trkpt lat="51.04018" lon="2.67597">
        <ele>1</ele>
        <time>2018-10-16T10:38:01.378Z</time>
      </trkpt>
      <trkpt lat="51.04" lon="2.67609">
        <ele>1</ele>
        <time>2018-10-16T10:38:02.378Z</time>
      </trkpt>
      <trkpt lat="51.03915" lon="2.67802">
        <ele>1</ele>
        <time>2018-10-16T10:38:03.378Z</time>
      </trkpt>
      <trkpt lat="51.03897" lon="2.67955">
        <ele>4</ele>
        <time>2018-10-16T10:38:04.378Z</time>
      </trkpt>
      <trkpt lat="51.03844" lon="2.68243">
        <ele>4</ele>
        <time>2018-10-16T10:38:05.378Z</time>
      </trkpt>
      <trkpt lat="51.03826" lon="2.68254">
        <ele>4</ele>
        <time>2018-10-16T10:38:06.378Z</time>
      </trkpt>
      <trkpt lat="51.03786" lon="2.68253">
        <ele>4</ele>
        <time>2018-10-16T10:38:07.378Z</time>
      </trkpt>
      <trkpt lat="51.03767" lon="2.68264">
        <ele>4</ele>
        <time>2018-10-16T10:38:08.378Z</time>
      </trkpt>
      <trkpt lat="51.03721" lon="2.68357">
        <ele>1</ele>
        <time>2018-10-16T10:38:09.378Z</time>
      </trkpt>
      <trkpt lat="51.03553" lon="2.68538">
        <ele>4</ele>
        <time>2018-10-16T10:38:10.378Z</time>
      </trkpt>
      <trkpt lat="51.03424" lon="2.68635">
        <ele>3.3</ele>
        <time>2018-10-16T10:38:11.378Z</time>
      </trkpt>
      <trkpt lat="51.03382" lon="2.6865">
        <ele>3.1</ele>
        <time>2018-10-16T10:38:12.378Z</time>
      </trkpt>
      <trkpt lat="51.03186" lon="2.68806">
        <ele>2.7</ele>
        <time>2018-10-16T10:38:13.378Z</time>
      </trkpt>
      <trkpt lat="51.03132" lon="2.68874">
        <ele>2.9</ele>
        <time>2018-10-16T10:38:14.378Z</time>
      </trkpt>
      <trkpt lat="51.02829" lon="2.69118">
        <ele>-1</ele>
        <time>2018-10-16T10:38:15.378Z</time>
      </trkpt>
      <trkpt lat="51.028" lon="2.69183">
        <ele>3</ele>
        <time>2018-10-16T10:38:16.378Z</time>
      </trkpt>
      <trkpt lat="51.02612" lon="2.69881">
        <ele>2</ele>
        <time>2018-10-16T10:38:17.378Z</time>
      </trkpt>
      <trkpt lat="51.02537" lon="2.70111">
        <ele>1</ele>
        <time>2018-10-16T10:38:18.378Z</time>
      </trkpt>
      <trkpt lat="51.02462" lon="2.70245">
        <ele>2</ele>
        <time>2018-10-16T10:38:19.378Z</time>
      </trkpt>
      <trkpt lat="51.02417" lon="2.70384">
        <ele>2</ele>
        <time>2018-10-16T10:38:20.378Z</time>
      </trkpt>
      <trkpt lat="51.02308" lon="2.70524">
        <ele>3</ele>
        <time>2018-10-16T10:38:21.378Z</time>
      </trkpt>
      <trkpt lat="51.02305" lon="2.7054">
        <ele>3</ele>
        <time>2018-10-16T10:38:22.378Z</time>
      </trkpt>
      <trkpt lat="51.02326" lon="2.70651">
        <ele>3</ele>
        <time>2018-10-16T10:38:23.378Z</time>
      </trkpt>
      <trkpt lat="51.02345" lon="2.70692">
        <ele>3</ele>
        <time>2018-10-16T10:38:24.378Z</time>
      </trkpt>
      <trkpt lat="51.02418" lon="2.70792">
        <ele>1</ele>
        <time>2018-10-16T10:38:25.378Z</time>
      </trkpt>
      <trkpt lat="51.02421" lon="2.70821">
        <ele>1</ele>
        <time>2018-10-16T10:38:26.378Z</time>
      </trkpt>
      <trkpt lat="51.0241" lon="2.70869">
        <ele>1</ele>
        <time>2018-10-16T10:38:27.378Z</time>
      </trkpt>
      <trkpt lat="51.0241" lon="2.7091">
        <ele>2</ele>
        <time>2018-10-16T10:38:28.378Z</time>
      </trkpt>
      <trkpt lat="51.02423" lon="2.70957">
        <ele>2</ele>
        <time>2018-10-16T10:38:29.378Z</time>
      </trkpt>
      <trkpt lat="51.0247" lon="2.71037">
        <ele>2</ele>
        <time>2018-10-16T10:38:30.378Z</time>
      </trkpt>
      <trkpt lat="51.02493" lon="2.71104">
        <ele>2</ele>
        <time>2018-10-16T10:38:31.378Z</time>
      </trkpt>
      <trkpt lat="51.02501" lon="2.71156">
        <ele>1</ele>
        <time>2018-10-16T10:38:32.378Z</time>
      </trkpt>
      <trkpt lat="51.02493" lon="2.71184">
        <ele>1</ele>
        <time>2018-10-16T10:38:33.378Z</time>
      </trkpt>
      <trkpt lat="51.02382" lon="2.71266">
        <ele>2</ele>
        <time>2018-10-16T10:38:34.378Z</time>
      </trkpt>
      <trkpt lat="51.02359" lon="2.71301">
        <ele>2</ele>
        <time>2018-10-16T10:38:35.378Z</time>
      </trkpt>
      <trkpt lat="51.02352" lon="2.71327">
        <ele>1</ele>
        <time>2018-10-16T10:38:36.378Z</time>
      </trkpt>
      <trkpt lat="51.02424" lon="2.71516">
        <ele>3</ele>
        <time>2018-10-16T10:38:37.378Z</time>
      </trkpt>
      <trkpt lat="51.02445" lon="2.71609">
        <ele>1</ele>
        <time>2018-10-16T10:38:38.378Z</time>
      </trkpt>
      <trkpt lat="51.02194" lon="2.7191">
        <ele>1</ele>
        <time>2018-10-16T10:38:39.378Z</time>
      </trkpt>
      <trkpt lat="51.01982" lon="2.72112">
        <ele>2</ele>
        <time>2018-10-16T10:38:40.378Z</time>
      </trkpt>
      <trkpt lat="51.01953" lon="2.72159">
        <ele>2</ele>
        <time>2018-10-16T10:38:41.378Z</time>
      </trkpt>
      <trkpt lat="51.01832" lon="2.72511">
        <ele>3</ele>
        <time>2018-10-16T10:38:42.378Z</time>
      </trkpt>
      <trkpt lat="51.01769" lon="2.72593">
        <ele>4</ele>
        <time>2018-10-16T10:38:43.378Z</time>
      </trkpt>
      <trkpt lat="51.01613" lon="2.72746">
        <ele>3</ele>
        <time>2018-10-16T10:38:44.378Z</time>
      </trkpt>
      <trkpt lat="51.0159" lon="2.72785">
        <ele>2</ele>
        <time>2018-10-16T10:38:45.378Z</time>
      </trkpt>
      <trkpt lat="51.0155" lon="2.72799">
        <ele>2</ele>
        <time>2018-10-16T10:38:46.378Z</time>
      </trkpt>
      <trkpt lat="51.0142" lon="2.72897">
        <ele>2</ele>
        <time>2018-10-16T10:38:47.378Z</time>
      </trkpt>
      <trkpt lat="51.01131" lon="2.73047">
        <ele>1</ele>
        <time>2018-10-16T10:38:48.378Z</time>
      </trkpt>
      <trkpt lat="51.00864" lon="2.73214">
        <ele>1</ele>
        <time>2018-10-16T10:38:49.378Z</time>
      </trkpt>
      <trkpt lat="51.00195" lon="2.73572">
        <ele>1</ele>
        <time>2018-10-16T10:38:50.378Z</time>
      </trkpt>
      <trkpt lat="50.9979" lon="2.73649">
        <ele>1</ele>
        <time>2018-10-16T10:38:51.378Z</time>
      </trkpt>
      <trkpt lat="50.99402" lon="2.73791">
        <ele>1</ele>
        <time>2018-10-16T10:38:52.378Z</time>
      </trkpt>
      <trkpt lat="50.98427" lon="2.74177">
        <ele>1</ele>
        <time>2018-10-16T10:38:53.378Z</time>
      </trkpt>
      <trkpt lat="50.98371" lon="2.74187">
        <ele>1</ele>
        <time>2018-10-16T10:38:54.378Z</time>
      </trkpt>
      <trkpt lat="50.98049" lon="2.74169">
        <ele>1</ele>
        <time>2018-10-16T10:38:55.378Z</time>
      </trkpt>
      <trkpt lat="50.98024" lon="2.74158">
        <ele>2</ele>
        <time>2018-10-16T10:38:56.378Z</time>
      </trkpt>
      <trkpt lat="50.98005" lon="2.74161">
        <ele>2</ele>
        <time>2018-10-16T10:38:57.378Z</time>
      </trkpt>
      <trkpt lat="50.97943" lon="2.7414">
        <ele>2</ele>
        <time>2018-10-16T10:38:58.378Z</time>
      </trkpt>
      <trkpt lat="50.97604" lon="2.73942">
        <ele>-1</ele>
        <time>2018-10-16T10:38:59.378Z</time>
      </trkpt>
      <trkpt lat="50.97413" lon="2.73788">
        <ele>4.6</ele>
        <time>2018-10-16T10:39:00.378Z</time>
      </trkpt>
      <trkpt lat="50.97306" lon="2.73742">
        <ele>1</ele>
        <time>2018-10-16T10:39:01.378Z</time>
      </trkpt>
      <trkpt lat="50.97189" lon="2.73738">
        <ele>2</ele>
        <time>2018-10-16T10:39:02.378Z</time>
      </trkpt>
      <trkpt lat="50.96967" lon="2.73873">
        <ele>2</ele>
        <time>2018-10-16T10:39:03.378Z</time>
      </trkpt>
      <trkpt lat="50.96931" lon="2.73884">
        <ele>2</ele>
        <time>2018-10-16T10:39:04.378Z</time>
      </trkpt>
      <trkpt lat="50.96865" lon="2.73883">
        <ele>2</ele>
        <time>2018-10-16T10:39:05.378Z</time>
      </trkpt>
      <trkpt lat="50.96819" lon="2.73867">
        <ele>2</ele>
        <time>2018-10-16T10:39:06.378Z</time>
      </trkpt>
      <trkpt lat="50.96763" lon="2.73831">
        <ele>2</ele>
        <time>2018-10-16T10:39:07.378Z</time>
      </trkpt>
      <trkpt lat="50.96594" lon="2.73618">
        <ele>2</ele>
        <time>2018-10-16T10:39:08.378Z</time>
      </trkpt>
      <trkpt lat="50.96499" lon="2.73558">
        <ele>1</ele>
        <time>2018-10-16T10:39:09.378Z</time>
      </trkpt>
      <trkpt lat="50.9631" lon="2.73508">
        <ele>-1</ele>
        <time>2018-10-16T10:39:10.378Z</time>
      </trkpt>
      <trkpt lat="50.96201" lon="2.73506">
        <ele>4.8</ele>
        <time>2018-10-16T10:39:11.378Z</time>
      </trkpt>
      <trkpt lat="50.95984" lon="2.73547">
        <ele>4.4</ele>
        <time>2018-10-16T10:39:12.378Z</time>
      </trkpt>
      <trkpt lat="50.95889" lon="2.73553">
        <ele>1</ele>
        <time>2018-10-16T10:39:13.378Z</time>
      </trkpt>
      <trkpt lat="50.95729" lon="2.73545">
        <ele>2</ele>
        <time>2018-10-16T10:39:14.378Z</time>
      </trkpt>
      <trkpt lat="50.95724" lon="2.73543">
        <ele>2</ele>
        <time>2018-10-16T10:39:15.378Z</time>
      </trkpt>
      <trkpt lat="50.9565" lon="2.73535">
        <ele>1</ele>
        <time>2018-10-16T10:39:16.378Z</time>
      </trkpt>
      <trkpt lat="50.9564" lon="2.73515">
        <ele>1</ele>
        <time>2018-10-16T10:39:17.378Z</time>
      </trkpt>
      <trkpt lat="50.95596" lon="2.73186">
        <ele>1</ele>
        <time>2018-10-16T10:39:18.378Z</time>
      </trkpt>
      <trkpt lat="50.9551" lon="2.72893">
        <ele>4</ele>
        <time>2018-10-16T10:39:19.378Z</time>
      </trkpt>
      <trkpt lat="50.9549" lon="2.72784">
        <ele>-1</ele>
        <time>2018-10-16T10:39:20.378Z</time>
      </trkpt>
      <trkpt lat="50.95409" lon="2.72542">
        <ele>4.4</ele>
        <time>2018-10-16T10:39:21.378Z</time>
      </trkpt>
      <trkpt lat="50.95374" lon="2.72388">
        <ele>1</ele>
        <time>2018-10-16T10:39:22.378Z</time>
      </trkpt>
      <trkpt lat="50.95351" lon="2.72318">
        <ele>1</ele>
        <time>2018-10-16T10:39:23.378Z</time>
      </trkpt>
      <trkpt lat="50.95327" lon="2.7227">
        <ele>2</ele>
        <time>2018-10-16T10:39:24.378Z</time>
      </trkpt>
      <trkpt lat="50.95204" lon="2.72133">
        <ele>1</ele>
        <time>2018-10-16T10:39:25.378Z</time>
      </trkpt>
      <trkpt lat="50.95185" lon="2.72123">
        <ele>1</ele>
        <time>2018-10-16T10:39:26.378Z</time>
      </trkpt>
      <trkpt lat="50.9512" lon="2.72144">
        <ele>1</ele>
        <time>2018-10-16T10:39:27.378Z</time>
      </trkpt>
      <trkpt lat="50.95091" lon="2.7214">
        <ele>2</ele>
        <time>2018-10-16T10:39:28.378Z</time>
      </trkpt>
      <trkpt lat="50.95029" lon="2.72068">
        <ele>3</ele>
        <time>2018-10-16T10:39:29.378Z</time>
      </trkpt>
      <trkpt lat="50.94977" lon="2.7198">
        <ele>2</ele>
        <time>2018-10-16T10:39:30.378Z</time>
      </trkpt>
      <trkpt lat="50.94951" lon="2.71901">
        <ele>2</ele>
        <time>2018-10-16T10:39:31.378Z</time>
      </trkpt>
      <trkpt lat="50.94934" lon="2.71809">
        <ele>1</ele>
        <time>2018-10-16T10:39:32.378Z</time>
      </trkpt>
      <trkpt lat="50.94933" lon="2.71751">
        <ele>4</ele>
        <time>2018-10-16T10:39:33.378Z</time>
      </trkpt>
      <trkpt lat="50.94949" lon="2.71584">
        <ele>1</ele>
        <time>2018-10-16T10:39:34.378Z</time>
      </trkpt>
      <trkpt lat="50.94982" lon="2.71414">
        <ele>1</ele>
        <time>2018-10-16T10:39:35.378Z</time>
      </trkpt>
      <trkpt lat="50.95003" lon="2.71366">
        <ele>4.9</ele>
        <time>2018-10-16T10:39:36.378Z</time>
      </trkpt>
      <trkpt lat="50.95098" lon="2.71249">
        <ele>1</ele>
        <time>2018-10-16T10:39:37.378Z</time>
      </trkpt>
      <trkpt lat="50.95097" lon="2.71167">
        <ele>4</ele>
        <time>2018-10-16T10:39:38.378Z</time>
      </trkpt>
      <trkpt lat="50.95065" lon="2.70987">
        <ele>-1</ele>
        <time>2018-10-16T10:39:39.378Z</time>
      </trkpt>
      <trkpt lat="50.95037" lon="2.70894">
        <ele>4</ele>
        <time>2018-10-16T10:39:40.378Z</time>
      </trkpt>
      <trkpt lat="50.94977" lon="2.70784">
        <ele>4.8</ele>
        <time>2018-10-16T10:39:41.378Z</time>
      </trkpt>
      <trkpt lat="50.95026" lon="2.70341">
        <ele>4.3</ele>
        <time>2018-10-16T10:39:42.378Z</time>
      </trkpt>
      <trkpt lat="50.9504" lon="2.70271">
        <ele>4</ele>
        <time>2018-10-16T10:39:43.378Z</time>
      </trkpt>
      <trkpt lat="50.9508" lon="2.70176">
        <ele>1</ele>
        <time>2018-10-16T10:39:44.378Z</time>
      </trkpt>
      <trkpt lat="50.95135" lon="2.70106">
        <ele>1</ele>
        <time>2018-10-16T10:39:45.378Z</time>
      </trkpt>
      <trkpt lat="50.95143" lon="2.70082">
        <ele>1</ele>
        <time>2018-10-16T10:39:46.378Z</time>
      </trkpt>
      <trkpt lat="50.9515" lon="2.69974">
        <ele>4</ele>
        <time>2018-10-16T10:39:47.378Z</time>
      </trkpt>
      <trkpt lat="50.95118" lon="2.69763">
        <ele>3.9</ele>
        <time>2018-10-16T10:39:48.378Z</time>
      </trkpt>
      <trkpt lat="50.95096" lon="2.69679">
        <ele>1</ele>
        <time>2018-10-16T10:39:49.378Z</time>
      </trkpt>
      <trkpt lat="50.9502" lon="2.69516">
        <ele>4</ele>
        <time>2018-10-16T10:39:50.378Z</time>
      </trkpt>
      <trkpt lat="50.94872" lon="2.69296">
        <ele>1</ele>
        <time>2018-10-16T10:39:51.378Z</time>
      </trkpt>
      <trkpt lat="50.94818" lon="2.69156">
        <ele>4</ele>
        <time>2018-10-16T10:39:52.378Z</time>
      </trkpt>
      <trkpt lat="50.94754" lon="2.6878">
        <ele>4</ele>
        <time>2018-10-16T10:39:53.378Z</time>
      </trkpt>
      <trkpt lat="50.94718" lon="2.68348">
        <ele>-1</ele>
        <time>2018-10-16T10:39:54.378Z</time>
      </trkpt>
      <trkpt lat="50.94615" lon="2.68078">
        <ele>1</ele>
        <time>2018-10-16T10:39:55.378Z</time>
      </trkpt>
      <trkpt lat="50.94555" lon="2.67865">
        <ele>4.8</ele>
        <time>2018-10-16T10:39:56.378Z</time>
      </trkpt>
      <trkpt lat="50.94495" lon="2.67731">
        <ele>4.3</ele>
        <time>2018-10-16T10:39:57.378Z</time>
      </trkpt>
      <trkpt lat="50.94454" lon="2.67587">
        <ele>4.6</ele>
        <time>2018-10-16T10:39:58.378Z</time>
      </trkpt>
      <trkpt lat="50.94369" lon="2.67438">
        <ele>-1</ele>
        <time>2018-10-16T10:39:59.378Z</time>
      </trkpt>
      <trkpt lat="50.94349" lon="2.67377">
        <ele>4.8</ele>
        <time>2018-10-16T10:40:00.378Z</time>
      </trkpt>
      <trkpt lat="50.94341" lon="2.6732">
        <ele>2</ele>
        <time>2018-10-16T10:40:01.378Z</time>
      </trkpt>
      <trkpt lat="50.94347" lon="2.67213">
        <ele>2</ele>
        <time>2018-10-16T10:40:02.378Z</time>
      </trkpt>
      <trkpt lat="50.94337" lon="2.67136">
        <ele>2</ele>
        <time>2018-10-16T10:40:03.378Z</time>
      </trkpt>
      <trkpt lat="50.94307" lon="2.67004">
        <ele>4</ele>
        <time>2018-10-16T10:40:04.378Z</time>
      </trkpt>
      <trkpt lat="50.94269" lon="2.66782">
        <ele>1</ele>
        <time>2018-10-16T10:40:05.378Z</time>
      </trkpt>
      <trkpt lat="50.94246" lon="2.66524">
        <ele>5</ele>
        <time>2018-10-16T10:40:06.378Z</time>
      </trkpt>
      <trkpt lat="50.9426" lon="2.66207">
        <ele>4.4</ele>
        <time>2018-10-16T10:40:07.378Z</time>
      </trkpt>
      <trkpt lat="50.9428" lon="2.66107">
        <ele>4.9</ele>
        <time>2018-10-16T10:40:08.378Z</time>
      </trkpt>
      <trkpt lat="50.94327" lon="2.66">
        <ele>1</ele>
        <time>2018-10-16T10:40:09.378Z</time>
      </trkpt>
      <trkpt lat="50.94331" lon="2.65875">
        <ele>1</ele>
        <time>2018-10-16T10:40:10.378Z</time>
      </trkpt>
      <trkpt lat="50.94313" lon="2.65735">
        <ele>1</ele>
        <time>2018-10-16T10:40:11.378Z</time>
      </trkpt>
      <trkpt lat="50.9431" lon="2.65662">
        <ele>-1</ele>
        <time>2018-10-16T10:40:12.378Z</time>
      </trkpt>
      <trkpt lat="50.9429" lon="2.65593">
        <ele>-1</ele>
        <time>2018-10-16T10:40:13.378Z</time>
      </trkpt>
      <trkpt lat="50.94262" lon="2.65536">
        <ele>-1</ele>
        <time>2018-10-16T10:40:14.378Z</time>
      </trkpt>
      <trkpt lat="50.94216" lon="2.65465">
        <ele>-1</ele>
        <time>2018-10-16T10:40:15.378Z</time>
      </trkpt>
      <trkpt lat="50.94068" lon="2.65304">
        <ele>1</ele>
        <time>2018-10-16T10:40:16.378Z</time>
      </trkpt>
      <trkpt lat="50.9403" lon="2.65284">
        <ele>4.7</ele>
        <time>2018-10-16T10:40:17.378Z</time>
      </trkpt>
      <trkpt lat="50.93908" lon="2.65251">
        <ele>1</ele>
        <time>2018-10-16T10:40:18.378Z</time>
      </trkpt>
      <trkpt lat="50.93882" lon="2.65223">
        <ele>1</ele>
        <time>2018-10-16T10:40:19.378Z</time>
      </trkpt>
      <trkpt lat="50.93642" lon="2.64825">
        <ele>1</ele>
        <time>2018-10-16T10:40:20.378Z</time>
      </trkpt>
      <trkpt lat="50.93594" lon="2.6462">
        <ele>3.8</ele>
        <time>2018-10-16T10:40:21.378Z</time>
      </trkpt>
      <trkpt lat="50.93493" lon="2.64503">
        <ele>1</ele>
        <time>2018-10-16T10:40:22.378Z</time>
      </trkpt>
      <trkpt lat="50.93316" lon="2.64422">
        <ele>4.4</ele>
        <time>2018-10-16T10:40:23.378Z</time>
      </trkpt>
      <trkpt lat="50.93263" lon="2.64343">
        <ele>-1</ele>
        <time>2018-10-16T10:40:24.378Z</time>
      </trkpt>
      <trkpt lat="50.93232" lon="2.6427">
        <ele>4.4</ele>
        <time>2018-10-16T10:40:25.378Z</time>
      </trkpt>
      <trkpt lat="50.93214" lon="2.64187">
        <ele>1</ele>
        <time>2018-10-16T10:40:26.378Z</time>
      </trkpt>
      <trkpt lat="50.93207" lon="2.64083">
        <ele>2</ele>
        <time>2018-10-16T10:40:27.378Z</time>
      </trkpt>
      <trkpt lat="50.93195" lon="2.64041">
        <ele>1</ele>
        <time>2018-10-16T10:40:28.378Z</time>
      </trkpt>
      <trkpt lat="50.93171" lon="2.64">
        <ele>1</ele>
        <time>2018-10-16T10:40:29.378Z</time>
      </trkpt>
      <trkpt lat="50.93149" lon="2.63982">
        <ele>1</ele>
        <time>2018-10-16T10:40:30.378Z</time>
      </trkpt>
      <trkpt lat="50.93033" lon="2.63943">
        <ele>1</ele>
        <time>2018-10-16T10:40:31.378Z</time>
      </trkpt>
      <trkpt lat="50.93006" lon="2.63907">
        <ele>1</ele>
        <time>2018-10-16T10:40:32.378Z</time>
      </trkpt>
      <trkpt lat="50.92916" lon="2.63641">
        <ele>1</ele>
        <time>2018-10-16T10:40:33.378Z</time>
      </trkpt>
      <trkpt lat="50.929" lon="2.6351">
        <ele>1</ele>
        <time>2018-10-16T10:40:34.378Z</time>
      </trkpt>
      <trkpt lat="50.9275" lon="2.63063">
        <ele>1</ele>
        <time>2018-10-16T10:40:35.378Z</time>
      </trkpt>
      <trkpt lat="50.92695" lon="2.62963">
        <ele>1</ele>
        <time>2018-10-16T10:40:36.378Z</time>
      </trkpt>
      <trkpt lat="50.92665" lon="2.62925">
        <ele>1</ele>
        <time>2018-10-16T10:40:37.378Z</time>
      </trkpt>
      <trkpt lat="50.92616" lon="2.629">
        <ele>1</ele>
        <time>2018-10-16T10:40:38.378Z</time>
      </trkpt>
      <trkpt lat="50.92509" lon="2.62684">
        <ele>2</ele>
        <time>2018-10-16T10:40:39.378Z</time>
      </trkpt>
      <trkpt lat="50.92486" lon="2.62589">
        <ele>3</ele>
        <time>2018-10-16T10:40:40.378Z</time>
      </trkpt>
      <trkpt lat="50.92446" lon="2.62523">
        <ele>3</ele>
        <time>2018-10-16T10:40:41.378Z</time>
      </trkpt>
      <trkpt lat="50.92424" lon="2.62502">
        <ele>2</ele>
        <time>2018-10-16T10:40:42.378Z</time>
      </trkpt>
      <trkpt lat="50.92091" lon="2.62317">
        <ele>3</ele>
        <time>2018-10-16T10:40:43.378Z</time>
      </trkpt>
      <trkpt lat="50.9209" lon="2.62317">
        <ele>3</ele>
        <time>2018-10-16T10:40:44.378Z</time>
      </trkpt>
      <trkpt lat="50.92066" lon="2.62302">
        <ele>3</ele>
        <time>2018-10-16T10:40:45.378Z</time>
      </trkpt>
      <trkpt lat="50.9205" lon="2.62288">
        <ele>3</ele>
        <time>2018-10-16T10:40:46.378Z</time>
      </trkpt>
      <trkpt lat="50.9203" lon="2.62263">
        <ele>3</ele>
        <time>2018-10-16T10:40:47.378Z</time>
      </trkpt>
      <trkpt lat="50.91983" lon="2.62342">
        <ele>4</ele>
        <time>2018-10-16T10:40:48.378Z</time>
      </trkpt>
      <trkpt lat="50.9195" lon="2.62387">
        <ele>6</ele>
        <time>2018-10-16T10:40:49.378Z</time>
      </trkpt>
      <trkpt lat="50.91891" lon="2.62475">
        <ele>6</ele>
        <time>2018-10-16T10:40:50.378Z</time>
      </trkpt>
      <trkpt lat="50.9188" lon="2.62471">
        <ele>5</ele>
        <time>2018-10-16T10:40:51.378Z</time>
      </trkpt>
      <trkpt lat="50.91868" lon="2.62468">
        <ele>5</ele>
        <time>2018-10-16T10:40:52.378Z</time>
      </trkpt>
      <trkpt lat="50.91795" lon="2.62491">
        <ele>4</ele>
        <time>2018-10-16T10:40:53.378Z</time>
      </trkpt>
      <trkpt lat="50.91738" lon="2.62512">
        <ele>4</ele>
        <time>2018-10-16T10:40:54.378Z</time>
      </trkpt>
      <trkpt lat="50.9173" lon="2.62519">
        <ele>4</ele>
        <time>2018-10-16T10:40:55.378Z</time>
      </trkpt>
      <trkpt lat="50.9164" lon="2.62553">
        <ele>4</ele>
        <time>2018-10-16T10:40:56.378Z</time>
      </trkpt>
      <trkpt lat="50.91358" lon="2.62658">
        <ele>4</ele>
        <time>2018-10-16T10:40:57.378Z</time>
      </trkpt>
      <trkpt lat="50.91331" lon="2.62665">
        <ele>4</ele>
        <time>2018-10-16T10:40:58.378Z</time>
      </trkpt>
      <trkpt lat="50.9131" lon="2.62661">
        <ele>5</ele>
        <time>2018-10-16T10:40:59.378Z</time>
      </trkpt>
      <trkpt lat="50.91296" lon="2.62654">
        <ele>5</ele>
        <time>2018-10-16T10:41:00.378Z</time>
      </trkpt>
      <trkpt lat="50.91283" lon="2.62642">
        <ele>5</ele>
        <time>2018-10-16T10:41:01.378Z</time>
      </trkpt>
      <trkpt lat="50.91185" lon="2.62526">
        <ele>7</ele>
        <time>2018-10-16T10:41:02.378Z</time>
      </trkpt>
      <trkpt lat="50.91179" lon="2.6254">
        <ele>7</ele>
        <time>2018-10-16T10:41:03.378Z</time>
      </trkpt>
      <trkpt lat="50.91137" lon="2.6258">
        <ele>7</ele>
        <time>2018-10-16T10:41:04.378Z</time>
      </trkpt>
      <trkpt lat="50.91119" lon="2.62573">
        <ele>8</ele>
        <time>2018-10-16T10:41:05.378Z</time>
      </trkpt>
      <trkpt lat="50.91015" lon="2.62552">
        <ele>6</ele>
        <time>2018-10-16T10:41:06.378Z</time>
      </trkpt>
      <trkpt lat="50.90812" lon="2.62524">
        <ele>6</ele>
        <time>2018-10-16T10:41:07.378Z</time>
      </trkpt>
      <trkpt lat="50.9079" lon="2.62519">
        <ele>6</ele>
        <time>2018-10-16T10:41:08.378Z</time>
      </trkpt>
      <trkpt lat="50.90726" lon="2.6249">
        <ele>7</ele>
        <time>2018-10-16T10:41:09.378Z</time>
      </trkpt>
      <trkpt lat="50.9071" lon="2.62485">
        <ele>7</ele>
        <time>2018-10-16T10:41:10.378Z</time>
      </trkpt>
      <trkpt lat="50.90673" lon="2.62491">
        <ele>8</ele>
        <time>2018-10-16T10:41:11.378Z</time>
      </trkpt>
      <trkpt lat="50.90638" lon="2.6249">
        <ele>8</ele>
        <time>2018-10-16T10:41:12.378Z</time>
      </trkpt>
      <trkpt lat="50.90606" lon="2.62487">
        <ele>8</ele>
        <time>2018-10-16T10:41:13.378Z</time>
      </trkpt>
      <trkpt lat="50.90556" lon="2.62476">
        <ele>8</ele>
        <time>2018-10-16T10:41:14.378Z</time>
      </trkpt>
      <trkpt lat="50.90545" lon="2.62471">
        <ele>8</ele>
        <time>2018-10-16T10:41:15.378Z</time>
      </trkpt>
      <trkpt lat="50.90483" lon="2.62422">
        <ele>8</ele>
        <time>2018-10-16T10:41:16.378Z</time>
      </trkpt>
      <trkpt lat="50.90473" lon="2.62416">
        <ele>8</ele>
        <time>2018-10-16T10:41:17.378Z</time>
      </trkpt>
      <trkpt lat="50.90463" lon="2.62414">
        <ele>8</ele>
        <time>2018-10-16T10:41:18.378Z</time>
      </trkpt>
      <trkpt lat="50.90393" lon="2.62415">
        <ele>7</ele>
        <time>2018-10-16T10:41:19.378Z</time>
      </trkpt>
      <trkpt lat="50.90328" lon="2.62424">
        <ele>8</ele>
        <time>2018-10-16T10:41:20.378Z</time>
      </trkpt>
      <trkpt lat="50.90231" lon="2.62447">
        <ele>6</ele>
        <time>2018-10-16T10:41:21.378Z</time>
      </trkpt>
      <trkpt lat="50.90166" lon="2.62453">
        <ele>6</ele>
        <time>2018-10-16T10:41:22.378Z</time>
      </trkpt>
      <trkpt lat="50.90145" lon="2.6245">
        <ele>6</ele>
        <time>2018-10-16T10:41:23.378Z</time>
      </trkpt>
      <trkpt lat="50.90114" lon="2.62442">
        <ele>6</ele>
        <time>2018-10-16T10:41:24.378Z</time>
      </trkpt>
      <trkpt lat="50.9009" lon="2.62432">
        <ele>6</ele>
        <time>2018-10-16T10:41:25.378Z</time>
      </trkpt>
      <trkpt lat="50.90045" lon="2.62403">
        <ele>6</ele>
        <time>2018-10-16T10:41:26.378Z</time>
      </trkpt>
      <trkpt lat="50.8998" lon="2.62371">
        <ele>7</ele>
        <time>2018-10-16T10:41:27.378Z</time>
      </trkpt>
      <trkpt lat="50.89968" lon="2.62371">
        <ele>7</ele>
        <time>2018-10-16T10:41:28.378Z</time>
      </trkpt>
      <trkpt lat="50.89926" lon="2.62387">
        <ele>6</ele>
        <time>2018-10-16T10:41:29.378Z</time>
      </trkpt>
      <trkpt lat="50.89906" lon="2.62389">
        <ele>6</ele>
        <time>2018-10-16T10:41:30.378Z</time>
      </trkpt>
      <trkpt lat="50.89865" lon="2.62376">
        <ele>7</ele>
        <time>2018-10-16T10:41:31.378Z</time>
      </trkpt>
      <trkpt lat="50.89798" lon="2.6236">
        <ele>7</ele>
        <time>2018-10-16T10:41:32.378Z</time>
      </trkpt>
      <trkpt lat="50.89776" lon="2.62353">
        <ele>8</ele>
        <time>2018-10-16T10:41:33.378Z</time>
      </trkpt>
      <trkpt lat="50.89699" lon="2.62308">
        <ele>9</ele>
        <time>2018-10-16T10:41:34.378Z</time>
      </trkpt>
      <trkpt lat="50.89664" lon="2.62283">
        <ele>9</ele>
        <time>2018-10-16T10:41:35.378Z</time>
      </trkpt>
      <trkpt lat="50.89635" lon="2.62289">
        <ele>9</ele>
        <time>2018-10-16T10:41:36.378Z</time>
      </trkpt>
      <trkpt lat="50.89623" lon="2.6229">
        <ele>9</ele>
        <time>2018-10-16T10:41:37.378Z</time>
      </trkpt>
      <trkpt lat="50.89616" lon="2.62307">
        <ele>9</ele>
        <time>2018-10-16T10:41:38.378Z</time>
      </trkpt>
      <trkpt lat="50.89608" lon="2.62317">
        <ele>10</ele>
        <time>2018-10-16T10:41:39.378Z</time>
      </trkpt>
      <trkpt lat="50.89556" lon="2.62356">
        <ele>9</ele>
        <time>2018-10-16T10:41:40.378Z</time>
      </trkpt>
      <trkpt lat="50.89497" lon="2.62393">
        <ele>8</ele>
        <time>2018-10-16T10:41:41.378Z</time>
      </trkpt>
      <trkpt lat="50.89477" lon="2.62409">
        <ele>8</ele>
        <time>2018-10-16T10:41:42.378Z</time>
      </trkpt>
      <trkpt lat="50.89453" lon="2.62431">
        <ele>9</ele>
        <time>2018-10-16T10:41:43.378Z</time>
      </trkpt>
      <trkpt lat="50.89407" lon="2.62482">
        <ele>9</ele>
        <time>2018-10-16T10:41:44.378Z</time>
      </trkpt>
      <trkpt lat="50.89349" lon="2.62525">
        <ele>9</ele>
        <time>2018-10-16T10:41:45.378Z</time>
      </trkpt>
      <trkpt lat="50.89301" lon="2.62562">
        <ele>11</ele>
        <time>2018-10-16T10:41:46.378Z</time>
      </trkpt>
      <trkpt lat="50.8921" lon="2.62648">
        <ele>11</ele>
        <time>2018-10-16T10:41:47.378Z</time>
      </trkpt>
      <trkpt lat="50.89194" lon="2.62659">
        <ele>12</ele>
        <time>2018-10-16T10:41:48.378Z</time>
      </trkpt>
      <trkpt lat="50.89179" lon="2.62665">
        <ele>12</ele>
        <time>2018-10-16T10:41:49.378Z</time>
      </trkpt>
      <trkpt lat="50.89138" lon="2.62667">
        <ele>12</ele>
        <time>2018-10-16T10:41:50.378Z</time>
      </trkpt>
      <trkpt lat="50.89139" lon="2.62668">
        <ele>12</ele>
        <time>2018-10-16T10:41:51.378Z</time>
      </trkpt>
      <trkpt lat="50.8913" lon="2.62669">
        <ele>12</ele>
        <time>2018-10-16T10:41:52.378Z</time>
      </trkpt>
      <trkpt lat="50.89116" lon="2.62673">
        <ele>13</ele>
        <time>2018-10-16T10:41:53.378Z</time>
      </trkpt>
      <trkpt lat="50.89105" lon="2.62681">
        <ele>13</ele>
        <time>2018-10-16T10:41:54.378Z</time>
      </trkpt>
      <trkpt lat="50.89092" lon="2.62696">
        <ele>13</ele>
        <time>2018-10-16T10:41:55.378Z</time>
      </trkpt>
      <trkpt lat="50.89066" lon="2.62736">
        <ele>12</ele>
        <time>2018-10-16T10:41:56.378Z</time>
      </trkpt>
      <trkpt lat="50.89053" lon="2.62761">
        <ele>12</ele>
        <time>2018-10-16T10:41:57.378Z</time>
      </trkpt>
      <trkpt lat="50.89041" lon="2.62793">
        <ele>11</ele>
        <time>2018-10-16T10:41:58.378Z</time>
      </trkpt>
      <trkpt lat="50.8904" lon="2.62825">
        <ele>11</ele>
        <time>2018-10-16T10:41:59.378Z</time>
      </trkpt>
      <trkpt lat="50.89036" lon="2.62836">
        <ele>11</ele>
        <time>2018-10-16T10:42:00.378Z</time>
      </trkpt>
      <trkpt lat="50.88965" lon="2.62927">
        <ele>12</ele>
        <time>2018-10-16T10:42:01.378Z</time>
      </trkpt>
      <trkpt lat="50.88963" lon="2.62938">
        <ele>12</ele>
        <time>2018-10-16T10:42:02.378Z</time>
      </trkpt>
      <trkpt lat="50.88965" lon="2.62956">
        <ele>12</ele>
        <time>2018-10-16T10:42:03.378Z</time>
      </trkpt>
      <trkpt lat="50.89001" lon="2.63045">
        <ele>13</ele>
        <time>2018-10-16T10:42:04.378Z</time>
      </trkpt>
      <trkpt lat="50.89029" lon="2.63123">
        <ele>12</ele>
        <time>2018-10-16T10:42:05.378Z</time>
      </trkpt>
      <trkpt lat="50.89072" lon="2.63291">
        <ele>12</ele>
        <time>2018-10-16T10:42:06.378Z</time>
      </trkpt>
      <trkpt lat="50.89072" lon="2.63308">
        <ele>13</ele>
        <time>2018-10-16T10:42:07.378Z</time>
      </trkpt>
      <trkpt lat="50.89065" lon="2.63324">
        <ele>13</ele>
        <time>2018-10-16T10:42:08.378Z</time>
      </trkpt>
      <trkpt lat="50.89037" lon="2.63343">
        <ele>12</ele>
        <time>2018-10-16T10:42:09.378Z</time>
      </trkpt>
      <trkpt lat="50.89009" lon="2.63355">
        <ele>12</ele>
        <time>2018-10-16T10:42:10.378Z</time>
      </trkpt>
      <trkpt lat="50.88886" lon="2.63392">
        <ele>13</ele>
        <time>2018-10-16T10:42:11.378Z</time>
      </trkpt>
      <trkpt lat="50.88886" lon="2.63393">
        <ele>13</ele>
        <time>2018-10-16T10:42:12.378Z</time>
      </trkpt>
      <trkpt lat="50.88768" lon="2.63428">
        <ele>12</ele>
        <time>2018-10-16T10:42:13.378Z</time>
      </trkpt>
      <trkpt lat="50.88742" lon="2.63438">
        <ele>12</ele>
        <time>2018-10-16T10:42:14.378Z</time>
      </trkpt>
      <trkpt lat="50.88598" lon="2.63518">
        <ele>13</ele>
        <time>2018-10-16T10:42:15.378Z</time>
      </trkpt>
      <trkpt lat="50.88492" lon="2.6358">
        <ele>14</ele>
        <time>2018-10-16T10:42:16.378Z</time>
      </trkpt>
      <trkpt lat="50.88488" lon="2.63584">
        <ele>14</ele>
        <time>2018-10-16T10:42:17.378Z</time>
      </trkpt>
      <trkpt lat="50.88419" lon="2.63603">
        <ele>15</ele>
        <time>2018-10-16T10:42:18.378Z</time>
      </trkpt>
      <trkpt lat="50.88224" lon="2.63701">
        <ele>18</ele>
        <time>2018-10-16T10:42:19.378Z</time>
      </trkpt>
      <trkpt lat="50.88146" lon="2.63753">
        <ele>19</ele>
        <time>2018-10-16T10:42:20.378Z</time>
      </trkpt>
      <trkpt lat="50.88146" lon="2.63754">
        <ele>19</ele>
        <time>2018-10-16T10:42:21.378Z</time>
      </trkpt>
      <trkpt lat="50.88115" lon="2.6377">
        <ele>19</ele>
        <time>2018-10-16T10:42:22.378Z</time>
      </trkpt>
      <trkpt lat="50.88027" lon="2.63812">
        <ele>18</ele>
        <time>2018-10-16T10:42:23.378Z</time>
      </trkpt>
      <trkpt lat="50.87946" lon="2.63871">
        <ele>18</ele>
        <time>2018-10-16T10:42:24.378Z</time>
      </trkpt>
      <trkpt lat="50.87928" lon="2.63887">
        <ele>19</ele>
        <time>2018-10-16T10:42:25.378Z</time>
      </trkpt>
      <trkpt lat="50.88029" lon="2.6414">
        <ele>17</ele>
        <time>2018-10-16T10:42:26.378Z</time>
      </trkpt>
      <trkpt lat="50.88063" lon="2.64247">
        <ele>19</ele>
        <time>2018-10-16T10:42:27.378Z</time>
      </trkpt>
      <trkpt lat="50.88115" lon="2.64449">
        <ele>22</ele>
        <time>2018-10-16T10:42:28.378Z</time>
      </trkpt>
      <trkpt lat="50.88157" lon="2.6458">
        <ele>20</ele>
        <time>2018-10-16T10:42:29.378Z</time>
      </trkpt>
      <trkpt lat="50.88073" lon="2.64645">
        <ele>20</ele>
        <time>2018-10-16T10:42:30.378Z</time>
      </trkpt>
      <trkpt lat="50.88028" lon="2.64677">
        <ele>20</ele>
        <time>2018-10-16T10:42:31.378Z</time>
      </trkpt>
      <trkpt lat="50.87936" lon="2.64763">
        <ele>20</ele>
        <time>2018-10-16T10:42:32.378Z</time>
      </trkpt>
      <trkpt lat="50.87883" lon="2.64799">
        <ele>21</ele>
        <time>2018-10-16T10:42:33.378Z</time>
      </trkpt>
      <trkpt lat="50.87844" lon="2.64822">
        <ele>21</ele>
        <time>2018-10-16T10:42:34.378Z</time>
      </trkpt>
      <trkpt lat="50.87804" lon="2.6484">
        <ele>22</ele>
        <time>2018-10-16T10:42:35.378Z</time>
      </trkpt>
      <trkpt lat="50.87759" lon="2.64865">
        <ele>22</ele>
        <time>2018-10-16T10:42:36.378Z</time>
      </trkpt>
      <trkpt lat="50.87708" lon="2.64905">
        <ele>22</ele>
        <time>2018-10-16T10:42:37.378Z</time>
      </trkpt>
      <trkpt lat="50.8765" lon="2.64955">
        <ele>22</ele>
        <time>2018-10-16T10:42:38.378Z</time>
      </trkpt>
      <trkpt lat="50.87562" lon="2.65046">
        <ele>24</ele>
        <time>2018-10-16T10:42:39.378Z</time>
      </trkpt>
      <trkpt lat="50.87506" lon="2.65088">
        <ele>24</ele>
        <time>2018-10-16T10:42:40.378Z</time>
      </trkpt>
      <trkpt lat="50.87392" lon="2.65156">
        <ele>25</ele>
        <time>2018-10-16T10:42:41.378Z</time>
      </trkpt>
      <trkpt lat="50.87313" lon="2.65198">
        <ele>25</ele>
        <time>2018-10-16T10:42:42.378Z</time>
      </trkpt>
      <trkpt lat="50.87227" lon="2.65228">
        <ele>26</ele>
        <time>2018-10-16T10:42:43.378Z</time>
      </trkpt>
      <trkpt lat="50.8722" lon="2.65226">
        <ele>26</ele>
        <time>2018-10-16T10:42:44.378Z</time>
      </trkpt>
      <trkpt lat="50.87209" lon="2.65217">
        <ele>26</ele>
        <time>2018-10-16T10:42:45.378Z</time>
      </trkpt>
      <trkpt lat="50.87191" lon="2.65207">
        <ele>27</ele>
        <time>2018-10-16T10:42:46.378Z</time>
      </trkpt>
      <trkpt lat="50.87165" lon="2.65203">
        <ele>27</ele>
        <time>2018-10-16T10:42:47.378Z</time>
      </trkpt>
      <trkpt lat="50.86945" lon="2.65198">
        <ele>29</ele>
        <time>2018-10-16T10:42:48.378Z</time>
      </trkpt>
      <trkpt lat="50.86946" lon="2.65198">
        <ele>29</ele>
        <time>2018-10-16T10:42:49.378Z</time>
      </trkpt>
      <trkpt lat="50.86929" lon="2.65197">
        <ele>29</ele>
        <time>2018-10-16T10:42:50.378Z</time>
      </trkpt>
      <trkpt lat="50.86872" lon="2.65222">
        <ele>28</ele>
        <time>2018-10-16T10:42:51.378Z</time>
      </trkpt>
      <trkpt lat="50.86863" lon="2.65226">
        <ele>28</ele>
        <time>2018-10-16T10:42:52.378Z</time>
      </trkpt>
      <trkpt lat="50.8684" lon="2.6521">
        <ele>29</ele>
        <time>2018-10-16T10:42:53.378Z</time>
      </trkpt>
      <trkpt lat="50.86834" lon="2.65218">
        <ele>28</ele>
        <time>2018-10-16T10:42:54.378Z</time>
      </trkpt>
      <trkpt lat="50.86797" lon="2.65236">
        <ele>28</ele>
        <time>2018-10-16T10:42:55.378Z</time>
      </trkpt>
      <trkpt lat="50.86756" lon="2.6526">
        <ele>29</ele>
        <time>2018-10-16T10:42:56.378Z</time>
      </trkpt>
      <trkpt lat="50.86644" lon="2.65347">
        <ele>29</ele>
        <time>2018-10-16T10:42:57.378Z</time>
      </trkpt>
      <trkpt lat="50.86627" lon="2.65352">
        <ele>28</ele>
        <time>2018-10-16T10:42:58.378Z</time>
      </trkpt>
      <trkpt lat="50.86617" lon="2.65353">
        <ele>28</ele>
        <time>2018-10-16T10:42:59.378Z</time>
      </trkpt>
      <trkpt lat="50.86577" lon="2.65347">
        <ele>26</ele>
        <time>2018-10-16T10:43:00.378Z</time>
      </trkpt>
      <trkpt lat="50.86514" lon="2.65332">
        <ele>25</ele>
        <time>2018-10-16T10:43:01.378Z</time>
      </trkpt>
      <trkpt lat="50.8649" lon="2.65324">
        <ele>25</ele>
        <time>2018-10-16T10:43:02.378Z</time>
      </trkpt>
      <trkpt lat="50.86477" lon="2.65314">
        <ele>25</ele>
        <time>2018-10-16T10:43:03.378Z</time>
      </trkpt>
      <trkpt lat="50.86421" lon="2.65242">
        <ele>23</ele>
        <time>2018-10-16T10:43:04.378Z</time>
      </trkpt>
      <trkpt lat="50.86407" lon="2.65228">
        <ele>23</ele>
        <time>2018-10-16T10:43:05.378Z</time>
      </trkpt>
      <trkpt lat="50.86392" lon="2.65223">
        <ele>22</ele>
        <time>2018-10-16T10:43:06.378Z</time>
      </trkpt>
      <trkpt lat="50.86381" lon="2.65225">
        <ele>22</ele>
        <time>2018-10-16T10:43:07.378Z</time>
      </trkpt>
      <trkpt lat="50.8632" lon="2.65248">
        <ele>21</ele>
        <time>2018-10-16T10:43:08.378Z</time>
      </trkpt>
      <trkpt lat="50.86251" lon="2.65259">
        <ele>21</ele>
        <time>2018-10-16T10:43:09.378Z</time>
      </trkpt>
      <trkpt lat="50.86183" lon="2.65262">
        <ele>20</ele>
        <time>2018-10-16T10:43:10.378Z</time>
      </trkpt>
      <trkpt lat="50.86173" lon="2.65267">
        <ele>20</ele>
        <time>2018-10-16T10:43:11.378Z</time>
      </trkpt>
      <trkpt lat="50.86143" lon="2.65266">
        <ele>19</ele>
        <time>2018-10-16T10:43:12.378Z</time>
      </trkpt>
      <trkpt lat="50.86087" lon="2.65256">
        <ele>20</ele>
        <time>2018-10-16T10:43:13.378Z</time>
      </trkpt>
      <trkpt lat="50.86087" lon="2.65257">
        <ele>20</ele>
        <time>2018-10-16T10:43:14.378Z</time>
      </trkpt>
      <trkpt lat="50.86015" lon="2.65245">
        <ele>21</ele>
        <time>2018-10-16T10:43:15.378Z</time>
      </trkpt>
      <trkpt lat="50.85912" lon="2.65257">
        <ele>19</ele>
        <time>2018-10-16T10:43:16.378Z</time>
      </trkpt>
      <trkpt lat="50.8587" lon="2.65268">
        <ele>19</ele>
        <time>2018-10-16T10:43:17.378Z</time>
      </trkpt>
      <trkpt lat="50.85834" lon="2.65283">
        <ele>19</ele>
        <time>2018-10-16T10:43:18.378Z</time>
      </trkpt>
      <trkpt lat="50.85695" lon="2.65342">
        <ele>24</ele>
        <time>2018-10-16T10:43:19.378Z</time>
      </trkpt>
      <trkpt lat="50.85642" lon="2.65354">
        <ele>26</ele>
        <time>2018-10-16T10:43:20.378Z</time>
      </trkpt>
      <trkpt lat="50.85628" lon="2.6536">
        <ele>26</ele>
        <time>2018-10-16T10:43:21.378Z</time>
      </trkpt>
      <trkpt lat="50.8557" lon="2.65399">
        <ele>28</ele>
        <time>2018-10-16T10:43:22.378Z</time>
      </trkpt>
      <trkpt lat="50.85547" lon="2.65409">
        <ele>28</ele>
        <time>2018-10-16T10:43:23.378Z</time>
      </trkpt>
      <trkpt lat="50.85475" lon="2.65428">
        <ele>30</ele>
        <time>2018-10-16T10:43:24.378Z</time>
      </trkpt>
      <trkpt lat="50.85421" lon="2.65466">
        <ele>31</ele>
        <time>2018-10-16T10:43:25.378Z</time>
      </trkpt>
      <trkpt lat="50.85394" lon="2.65491">
        <ele>31</ele>
        <time>2018-10-16T10:43:26.378Z</time>
      </trkpt>
      <trkpt lat="50.85364" lon="2.65523">
        <ele>31</ele>
        <time>2018-10-16T10:43:27.378Z</time>
      </trkpt>
      <trkpt lat="50.85269" lon="2.65635">
        <ele>35</ele>
        <time>2018-10-16T10:43:28.378Z</time>
      </trkpt>
      <trkpt lat="50.85257" lon="2.65636">
        <ele>35</ele>
        <time>2018-10-16T10:43:29.378Z</time>
      </trkpt>
      <trkpt lat="50.85072" lon="2.65701">
        <ele>35</ele>
        <time>2018-10-16T10:43:30.378Z</time>
      </trkpt>
      <trkpt lat="50.85025" lon="2.65721">
        <ele>35</ele>
        <time>2018-10-16T10:43:31.378Z</time>
      </trkpt>
      <trkpt lat="50.84982" lon="2.65749">
        <ele>34</ele>
        <time>2018-10-16T10:43:32.378Z</time>
      </trkpt>
      <trkpt lat="50.84927" lon="2.65792">
        <ele>32</ele>
        <time>2018-10-16T10:43:33.378Z</time>
      </trkpt>
      <trkpt lat="50.84899" lon="2.6581">
        <ele>31</ele>
        <time>2018-10-16T10:43:34.378Z</time>
      </trkpt>
      <trkpt lat="50.84872" lon="2.65822">
        <ele>30</ele>
        <time>2018-10-16T10:43:35.378Z</time>
      </trkpt>
      <trkpt lat="50.84857" lon="2.65821">
        <ele>29</ele>
        <time>2018-10-16T10:43:36.378Z</time>
      </trkpt>
      <trkpt lat="50.84808" lon="2.65807">
        <ele>28</ele>
        <time>2018-10-16T10:43:37.378Z</time>
      </trkpt>
      <trkpt lat="50.848" lon="2.65807">
        <ele>28</ele>
        <time>2018-10-16T10:43:38.378Z</time>
      </trkpt>
      <trkpt lat="50.8479" lon="2.65811">
        <ele>28</ele>
        <time>2018-10-16T10:43:39.378Z</time>
      </trkpt>
      <trkpt lat="50.84659" lon="2.65946">
        <ele>30</ele>
        <time>2018-10-16T10:43:40.378Z</time>
      </trkpt>
      <trkpt lat="50.8466" lon="2.65947">
        <ele>30</ele>
        <time>2018-10-16T10:43:41.378Z</time>
      </trkpt>
      <trkpt lat="50.84642" lon="2.65964">
        <ele>31</ele>
        <time>2018-10-16T10:43:42.378Z</time>
      </trkpt>
      <trkpt lat="50.84616" lon="2.65997">
        <ele>31</ele>
        <time>2018-10-16T10:43:43.378Z</time>
      </trkpt>
      <trkpt lat="50.84565" lon="2.66078">
        <ele>33</ele>
        <time>2018-10-16T10:43:44.378Z</time>
      </trkpt>
      <trkpt lat="50.8452" lon="2.66158">
        <ele>34</ele>
        <time>2018-10-16T10:43:45.378Z</time>
      </trkpt>
      <trkpt lat="50.84508" lon="2.66175">
        <ele>34</ele>
        <time>2018-10-16T10:43:46.378Z</time>
      </trkpt>
      <trkpt lat="50.84501" lon="2.66179">
        <ele>34</ele>
        <time>2018-10-16T10:43:47.378Z</time>
      </trkpt>
      <trkpt lat="50.84392" lon="2.66201">
        <ele>35</ele>
        <time>2018-10-16T10:43:48.378Z</time>
      </trkpt>
      <trkpt lat="50.84373" lon="2.66206">
        <ele>36</ele>
        <time>2018-10-16T10:43:49.378Z</time>
      </trkpt>
      <trkpt lat="50.84363" lon="2.66211">
        <ele>37</ele>
        <time>2018-10-16T10:43:50.378Z</time>
      </trkpt>
      <trkpt lat="50.8435" lon="2.66222">
        <ele>38</ele>
        <time>2018-10-16T10:43:51.378Z</time>
      </trkpt>
      <trkpt lat="50.84249" lon="2.66353">
        <ele>42</ele>
        <time>2018-10-16T10:43:52.378Z</time>
      </trkpt>
      <trkpt lat="50.84179" lon="2.66451">
        <ele>46</ele>
        <time>2018-10-16T10:43:53.378Z</time>
      </trkpt>
      <trkpt lat="50.84123" lon="2.66541">
        <ele>47</ele>
        <time>2018-10-16T10:43:54.378Z</time>
      </trkpt>
      <trkpt lat="50.84115" lon="2.66551">
        <ele>47</ele>
        <time>2018-10-16T10:43:55.378Z</time>
      </trkpt>
      <trkpt lat="50.84104" lon="2.66561">
        <ele>48</ele>
        <time>2018-10-16T10:43:56.378Z</time>
      </trkpt>
      <trkpt lat="50.84088" lon="2.66566">
        <ele>48</ele>
        <time>2018-10-16T10:43:57.378Z</time>
      </trkpt>
      <trkpt lat="50.84078" lon="2.66565">
        <ele>48</ele>
        <time>2018-10-16T10:43:58.378Z</time>
      </trkpt>
      <trkpt lat="50.84074" lon="2.66562">
        <ele>48</ele>
        <time>2018-10-16T10:43:59.378Z</time>
      </trkpt>
      <trkpt lat="50.84016" lon="2.66486">
        <ele>51</ele>
        <time>2018-10-16T10:44:00.378Z</time>
      </trkpt>
      <trkpt lat="50.84007" lon="2.66479">
        <ele>51</ele>
        <time>2018-10-16T10:44:01.378Z</time>
      </trkpt>
      <trkpt lat="50.84003" lon="2.66479">
        <ele>52</ele>
        <time>2018-10-16T10:44:02.378Z</time>
      </trkpt>
      <trkpt lat="50.83956" lon="2.6651">
        <ele>52</ele>
        <time>2018-10-16T10:44:03.378Z</time>
      </trkpt>
      <trkpt lat="50.83747" lon="2.66681">
        <ele>55</ele>
        <time>2018-10-16T10:44:04.378Z</time>
      </trkpt>
      <trkpt lat="50.83713" lon="2.66557">
        <ele>55</ele>
        <time>2018-10-16T10:44:05.378Z</time>
      </trkpt>
      <trkpt lat="50.83691" lon="2.66564">
        <ele>54</ele>
        <time>2018-10-16T10:44:06.378Z</time>
      </trkpt>
      <trkpt lat="50.83631" lon="2.66571">
        <ele>54</ele>
        <time>2018-10-16T10:44:07.378Z</time>
      </trkpt>
      <trkpt lat="50.83539" lon="2.66562">
        <ele>59</ele>
        <time>2018-10-16T10:44:08.378Z</time>
      </trkpt>
      <trkpt lat="50.83455" lon="2.66534">
        <ele>64</ele>
        <time>2018-10-16T10:44:09.378Z</time>
      </trkpt>
      <trkpt lat="50.83417" lon="2.66529">
        <ele>65</ele>
        <time>2018-10-16T10:44:10.378Z</time>
      </trkpt>
      <trkpt lat="50.83417" lon="2.66529">
        <ele>65</ele>
        <time>2018-10-16T10:44:11.378Z</time>
      </trkpt>
      <trkpt lat="50.83417" lon="2.66532">
        <ele>65</ele>
        <time>2018-10-16T10:44:12.378Z</time>
      </trkpt>
      <trkpt lat="50.83284" lon="2.66534">
        <ele>67</ele>
        <time>2018-10-16T10:44:13.378Z</time>
      </trkpt>
      <trkpt lat="50.83249" lon="2.66543">
        <ele>68</ele>
        <time>2018-10-16T10:44:14.378Z</time>
      </trkpt>
      <trkpt lat="50.83197" lon="2.66568">
        <ele>68</ele>
        <time>2018-10-16T10:44:15.378Z</time>
      </trkpt>
      <trkpt lat="50.83076" lon="2.66636">
        <ele>60</ele>
        <time>2018-10-16T10:44:16.378Z</time>
      </trkpt>
      <trkpt lat="50.83032" lon="2.66671">
        <ele>56</ele>
        <time>2018-10-16T10:44:17.378Z</time>
      </trkpt>
      <trkpt lat="50.83021" lon="2.66672">
        <ele>55</ele>
        <time>2018-10-16T10:44:18.378Z</time>
      </trkpt>
      <trkpt lat="50.83012" lon="2.66667">
        <ele>54</ele>
        <time>2018-10-16T10:44:19.378Z</time>
      </trkpt>
      <trkpt lat="50.83008" lon="2.66662">
        <ele>54</ele>
        <time>2018-10-16T10:44:20.378Z</time>
      </trkpt>
      <trkpt lat="50.82942" lon="2.66534">
        <ele>52</ele>
        <time>2018-10-16T10:44:21.378Z</time>
      </trkpt>
      <trkpt lat="50.82929" lon="2.66493">
        <ele>52</ele>
        <time>2018-10-16T10:44:22.378Z</time>
      </trkpt>
      <trkpt lat="50.82922" lon="2.66431">
        <ele>51</ele>
        <time>2018-10-16T10:44:23.378Z</time>
      </trkpt>
      <trkpt lat="50.82919" lon="2.66407">
        <ele>51</ele>
        <time>2018-10-16T10:44:24.378Z</time>
      </trkpt>
      <trkpt lat="50.82915" lon="2.66391">
        <ele>50</ele>
        <time>2018-10-16T10:44:25.378Z</time>
      </trkpt>
      <trkpt lat="50.82902" lon="2.66363">
        <ele>51</ele>
        <time>2018-10-16T10:44:26.378Z</time>
      </trkpt>
      <trkpt lat="50.82854" lon="2.6628">
        <ele>54</ele>
        <time>2018-10-16T10:44:27.378Z</time>
      </trkpt>
      <trkpt lat="50.82803" lon="2.6622">
        <ele>54</ele>
        <time>2018-10-16T10:44:28.378Z</time>
      </trkpt>
      <trkpt lat="50.82779" lon="2.6619">
        <ele>53</ele>
        <time>2018-10-16T10:44:29.378Z</time>
      </trkpt>
      <trkpt lat="50.82736" lon="2.66111">
        <ele>53</ele>
        <time>2018-10-16T10:44:30.378Z</time>
      </trkpt>
      <trkpt lat="50.8264" lon="2.65952">
        <ele>48</ele>
        <time>2018-10-16T10:44:31.378Z</time>
      </trkpt>
      <trkpt lat="50.82754" lon="2.6566">
        <ele>48</ele>
        <time>2018-10-16T10:44:32.378Z</time>
      </trkpt>
      <trkpt lat="50.8274" lon="2.65635">
        <ele>47</ele>
        <time>2018-10-16T10:44:33.378Z</time>
      </trkpt>
      <trkpt lat="50.82714" lon="2.65556">
        <ele>45</ele>
        <time>2018-10-16T10:44:34.378Z</time>
      </trkpt>
      <trkpt lat="50.82662" lon="2.65364">
        <ele>41</ele>
        <time>2018-10-16T10:44:35.378Z</time>
      </trkpt>
      <trkpt lat="50.82602" lon="2.65378">
        <ele>40</ele>
        <time>2018-10-16T10:44:36.378Z</time>
      </trkpt>
      <trkpt lat="50.82519" lon="2.65391">
        <ele>39</ele>
        <time>2018-10-16T10:44:37.378Z</time>
      </trkpt>
      <trkpt lat="50.82479" lon="2.65392">
        <ele>38</ele>
        <time>2018-10-16T10:44:38.378Z</time>
      </trkpt>
      <trkpt lat="50.82461" lon="2.6539">
        <ele>38</ele>
        <time>2018-10-16T10:44:39.378Z</time>
      </trkpt>
      <trkpt lat="50.82416" lon="2.65372">
        <ele>37</ele>
        <time>2018-10-16T10:44:40.378Z</time>
      </trkpt>
      <trkpt lat="50.82306" lon="2.65296">
        <ele>36</ele>
        <time>2018-10-16T10:44:41.378Z</time>
      </trkpt>
      <trkpt lat="50.82293" lon="2.65293">
        <ele>36</ele>
        <time>2018-10-16T10:44:42.378Z</time>
      </trkpt>
      <trkpt lat="50.82273" lon="2.65293">
        <ele>36</ele>
        <time>2018-10-16T10:44:43.378Z</time>
      </trkpt>
      <trkpt lat="50.82232" lon="2.65302">
        <ele>36</ele>
        <time>2018-10-16T10:44:44.378Z</time>
      </trkpt>
      <trkpt lat="50.82219" lon="2.65307">
        <ele>36</ele>
        <time>2018-10-16T10:44:45.378Z</time>
      </trkpt>
      <trkpt lat="50.82205" lon="2.65316">
        <ele>37</ele>
        <time>2018-10-16T10:44:46.378Z</time>
      </trkpt>
      <trkpt lat="50.82165" lon="2.6535">
        <ele>37</ele>
        <time>2018-10-16T10:44:47.378Z</time>
      </trkpt>
      <trkpt lat="50.82098" lon="2.65419">
        <ele>36</ele>
        <time>2018-10-16T10:44:48.378Z</time>
      </trkpt>
      <trkpt lat="50.82075" lon="2.65436">
        <ele>35</ele>
        <time>2018-10-16T10:44:49.378Z</time>
      </trkpt>
      <trkpt lat="50.82056" lon="2.65444">
        <ele>34</ele>
        <time>2018-10-16T10:44:50.378Z</time>
      </trkpt>
      <trkpt lat="50.81938" lon="2.65476">
        <ele>32</ele>
        <time>2018-10-16T10:44:51.378Z</time>
      </trkpt>
      <trkpt lat="50.81817" lon="2.65525">
        <ele>33</ele>
        <time>2018-10-16T10:44:52.378Z</time>
      </trkpt>
      <trkpt lat="50.81804" lon="2.65528">
        <ele>33</ele>
        <time>2018-10-16T10:44:53.378Z</time>
      </trkpt>
      <trkpt lat="50.8172" lon="2.65524">
        <ele>35</ele>
        <time>2018-10-16T10:44:54.378Z</time>
      </trkpt>
      <trkpt lat="50.81652" lon="2.65538">
        <ele>38</ele>
        <time>2018-10-16T10:44:55.378Z</time>
      </trkpt>
      <trkpt lat="50.81484" lon="2.65577">
        <ele>40</ele>
        <time>2018-10-16T10:44:56.378Z</time>
      </trkpt>
      <trkpt lat="50.81449" lon="2.65588">
        <ele>40</ele>
        <time>2018-10-16T10:44:57.378Z</time>
      </trkpt>
      <trkpt lat="50.81363" lon="2.65605">
        <ele>41</ele>
        <time>2018-10-16T10:44:58.378Z</time>
      </trkpt>
      <trkpt lat="50.8136" lon="2.6561">
        <ele>41</ele>
        <time>2018-10-16T10:44:59.378Z</time>
      </trkpt>
      <trkpt lat="50.81347" lon="2.65535">
        <ele>41</ele>
        <time>2018-10-16T10:45:00.378Z</time>
      </trkpt>
      <trkpt lat="50.8134" lon="2.65429">
        <ele>41</ele>
        <time>2018-10-16T10:45:01.378Z</time>
      </trkpt>
      <trkpt lat="50.81338" lon="2.65207">
        <ele>44</ele>
        <time>2018-10-16T10:45:02.378Z</time>
      </trkpt>
      <trkpt lat="50.81337" lon="2.64748">
        <ele>46</ele>
        <time>2018-10-16T10:45:03.378Z</time>
      </trkpt>
      <trkpt lat="50.81332" lon="2.64591">
        <ele>46</ele>
        <time>2018-10-16T10:45:04.378Z</time>
      </trkpt>
      <trkpt lat="50.81317" lon="2.64588">
        <ele>46</ele>
        <time>2018-10-16T10:45:05.378Z</time>
      </trkpt>
      <trkpt lat="50.81259" lon="2.64533">
        <ele>47</ele>
        <time>2018-10-16T10:45:06.378Z</time>
      </trkpt>
      <trkpt lat="50.81159" lon="2.64451">
        <ele>48</ele>
        <time>2018-10-16T10:45:07.378Z</time>
      </trkpt>
      <trkpt lat="50.81122" lon="2.64437">
        <ele>49</ele>
        <time>2018-10-16T10:45:08.378Z</time>
      </trkpt>
      <trkpt lat="50.8109" lon="2.64417">
        <ele>50</ele>
        <time>2018-10-16T10:45:09.378Z</time>
      </trkpt>
      <trkpt lat="50.81054" lon="2.64387">
        <ele>50</ele>
        <time>2018-10-16T10:45:10.378Z</time>
      </trkpt>
      <trkpt lat="50.81036" lon="2.64369">
        <ele>51</ele>
        <time>2018-10-16T10:45:11.378Z</time>
      </trkpt>
      <trkpt lat="50.81021" lon="2.64348">
        <ele>51</ele>
        <time>2018-10-16T10:45:12.378Z</time>
      </trkpt>
      <trkpt lat="50.80996" lon="2.64308">
        <ele>52</ele>
        <time>2018-10-16T10:45:13.378Z</time>
      </trkpt>
      <trkpt lat="50.80966" lon="2.64275">
        <ele>53</ele>
        <time>2018-10-16T10:45:14.378Z</time>
      </trkpt>
      <trkpt lat="50.80925" lon="2.64239">
        <ele>56</ele>
        <time>2018-10-16T10:45:15.378Z</time>
      </trkpt>
      <trkpt lat="50.8083" lon="2.6416">
        <ele>62</ele>
        <time>2018-10-16T10:45:16.378Z</time>
      </trkpt>
      <trkpt lat="50.80811" lon="2.64151">
        <ele>63</ele>
        <time>2018-10-16T10:45:17.378Z</time>
      </trkpt>
      <trkpt lat="50.80694" lon="2.64129">
        <ele>65</ele>
        <time>2018-10-16T10:45:18.378Z</time>
      </trkpt>
      <trkpt lat="50.80636" lon="2.64123">
        <ele>65</ele>
        <time>2018-10-16T10:45:19.378Z</time>
      </trkpt>
      <trkpt lat="50.80522" lon="2.64118">
        <ele>63</ele>
        <time>2018-10-16T10:45:20.378Z</time>
      </trkpt>
      <trkpt lat="50.80501" lon="2.6412">
        <ele>62</ele>
        <time>2018-10-16T10:45:21.378Z</time>
      </trkpt>
      <trkpt lat="50.80464" lon="2.64126">
        <ele>61</ele>
        <time>2018-10-16T10:45:22.378Z</time>
      </trkpt>
      <trkpt lat="50.80326" lon="2.64165">
        <ele>60</ele>
        <time>2018-10-16T10:45:23.378Z</time>
      </trkpt>
      <trkpt lat="50.80169" lon="2.64173">
        <ele>54</ele>
        <time>2018-10-16T10:45:24.378Z</time>
      </trkpt>
      <trkpt lat="50.8017" lon="2.64173">
        <ele>54</ele>
        <time>2018-10-16T10:45:25.378Z</time>
      </trkpt>
      <trkpt lat="50.79846" lon="2.64235">
        <ele>44</ele>
        <time>2018-10-16T10:45:26.378Z</time>
      </trkpt>
      <trkpt lat="50.7973" lon="2.64249">
        <ele>42</ele>
        <time>2018-10-16T10:45:27.378Z</time>
      </trkpt>
      <trkpt lat="50.79698" lon="2.6426">
        <ele>42</ele>
        <time>2018-10-16T10:45:28.378Z</time>
      </trkpt>
      <trkpt lat="50.79698" lon="2.6426">
        <ele>42</ele>
        <time>2018-10-16T10:45:29.378Z</time>
      </trkpt>
      <trkpt lat="50.7962" lon="2.64283">
        <ele>44</ele>
        <time>2018-10-16T10:45:30.378Z</time>
      </trkpt>
      <trkpt lat="50.7956" lon="2.64293">
        <ele>46</ele>
        <time>2018-10-16T10:45:31.378Z</time>
      </trkpt>
      <trkpt lat="50.7955" lon="2.643">
        <ele>46</ele>
        <time>2018-10-16T10:45:32.378Z</time>
      </trkpt>
      <trkpt lat="50.79459" lon="2.64322">
        <ele>46</ele>
        <time>2018-10-16T10:45:33.378Z</time>
      </trkpt>
      <trkpt lat="50.79405" lon="2.64355">
        <ele>47</ele>
        <time>2018-10-16T10:45:34.378Z</time>
      </trkpt>
      <trkpt lat="50.79373" lon="2.64298">
        <ele>46</ele>
        <time>2018-10-16T10:45:35.378Z</time>
      </trkpt>
      <trkpt lat="50.79365" lon="2.64291">
        <ele>46</ele>
        <time>2018-10-16T10:45:36.378Z</time>
      </trkpt>
      <trkpt lat="50.79336" lon="2.64395">
        <ele>45</ele>
        <time>2018-10-16T10:45:37.378Z</time>
      </trkpt>
      <trkpt lat="50.79276" lon="2.64471">
        <ele>43</ele>
        <time>2018-10-16T10:45:38.378Z</time>
      </trkpt>
      <trkpt lat="50.79241" lon="2.64532">
        <ele>44</ele>
        <time>2018-10-16T10:45:39.378Z</time>
      </trkpt>
      <trkpt lat="50.79359" lon="2.64684">
        <ele>45</ele>
        <time>2018-10-16T10:45:40.378Z</time>
      </trkpt>
      <trkpt lat="50.79459" lon="2.64769">
        <ele>44</ele>
        <time>2018-10-16T10:45:41.378Z</time>
      </trkpt>
      <trkpt lat="50.79476" lon="2.64761">
        <ele>43</ele>
        <time>2018-10-16T10:45:42.378Z</time>
      </trkpt>
      <trkpt lat="50.7949" lon="2.64781">
        <ele>43</ele>
        <time>2018-10-16T10:45:43.378Z</time>
      </trkpt>
      <trkpt lat="50.79468" lon="2.64754">
        <ele>43</ele>
        <time>2018-10-16T10:45:44.378Z</time>
      </trkpt>
      <trkpt lat="50.79473" lon="2.64747">
        <ele>43</ele>
        <time>2018-10-16T10:45:45.378Z</time>
      </trkpt>
      <trkpt lat="50.79492" lon="2.6476">
        <ele>43</ele>
        <time>2018-10-16T10:45:46.378Z</time>
      </trkpt>
      <trkpt lat="50.79549" lon="2.64849">
        <ele>43</ele>
        <time>2018-10-16T10:45:47.378Z</time>
      </trkpt>
      <trkpt lat="50.79627" lon="2.64911">
        <ele>41</ele>
        <time>2018-10-16T10:45:48.378Z</time>
      </trkpt>
      <trkpt lat="50.79683" lon="2.64987">
        <ele>42</ele>
        <time>2018-10-16T10:45:49.378Z</time>
      </trkpt>
      <trkpt lat="50.79734" lon="2.6504">
        <ele>40</ele>
        <time>2018-10-16T10:45:50.378Z</time>
      </trkpt>
      <trkpt lat="50.79737" lon="2.65052">
        <ele>40</ele>
        <time>2018-10-16T10:45:51.378Z</time>
      </trkpt>
      <trkpt lat="50.79591" lon="2.65285">
        <ele>48</ele>
        <time>2018-10-16T10:45:52.378Z</time>
      </trkpt>
      <trkpt lat="50.79578" lon="2.65289">
        <ele>48</ele>
        <time>2018-10-16T10:45:53.378Z</time>
      </trkpt>
      <trkpt lat="50.79577" lon="2.65289">
        <ele>48</ele>
        <time>2018-10-16T10:45:54.378Z</time>
      </trkpt>
      <trkpt lat="50.79559" lon="2.65284">
        <ele>47</ele>
        <time>2018-10-16T10:45:55.378Z</time>
      </trkpt>
      <trkpt lat="50.79555" lon="2.65277">
        <ele>47</ele>
        <time>2018-10-16T10:45:56.378Z</time>
      </trkpt>
      <trkpt lat="50.79536" lon="2.65241">
        <ele>46</ele>
        <time>2018-10-16T10:45:57.378Z</time>
      </trkpt>
      <trkpt lat="50.79536" lon="2.6524">
        <ele>46</ele>
        <time>2018-10-16T10:45:58.378Z</time>
      </trkpt>
      <trkpt lat="50.79528" lon="2.65237">
        <ele>45</ele>
        <time>2018-10-16T10:45:59.378Z</time>
      </trkpt>
      <trkpt lat="50.79517" lon="2.65241">
        <ele>45</ele>
        <time>2018-10-16T10:46:00.378Z</time>
      </trkpt>
      <trkpt lat="50.79474" lon="2.65296">
        <ele>46</ele>
        <time>2018-10-16T10:46:01.378Z</time>
      </trkpt>
      <trkpt lat="50.79447" lon="2.65355">
        <ele>47</ele>
        <time>2018-10-16T10:46:02.378Z</time>
      </trkpt>
      <trkpt lat="50.79424" lon="2.65387">
        <ele>48</ele>
        <time>2018-10-16T10:46:03.378Z</time>
      </trkpt>
      <trkpt lat="50.79156" lon="2.65545">
        <ele>65</ele>
        <time>2018-10-16T10:46:04.378Z</time>
      </trkpt>
      <trkpt lat="50.78957" lon="2.65699">
        <ele>86</ele>
        <time>2018-10-16T10:46:05.378Z</time>
      </trkpt>
      <trkpt lat="50.78826" lon="2.65741">
        <ele>101</ele>
        <time>2018-10-16T10:46:06.378Z</time>
      </trkpt>
      <trkpt lat="50.7881" lon="2.65728">
        <ele>102</ele>
        <time>2018-10-16T10:46:07.378Z</time>
      </trkpt>
      <trkpt lat="50.78793" lon="2.65692">
        <ele>104</ele>
        <time>2018-10-16T10:46:08.378Z</time>
      </trkpt>
      <trkpt lat="50.78737" lon="2.6573">
        <ele>107</ele>
        <time>2018-10-16T10:46:09.378Z</time>
      </trkpt>
      <trkpt lat="50.78709" lon="2.65849">
        <ele>113</ele>
        <time>2018-10-16T10:46:10.378Z</time>
      </trkpt>
      <trkpt lat="50.78654" lon="2.65974">
        <ele>123</ele>
        <time>2018-10-16T10:46:11.378Z</time>
      </trkpt>
      <trkpt lat="50.78653" lon="2.65975">
        <ele>123</ele>
        <time>2018-10-16T10:46:12.378Z</time>
      </trkpt>
      <trkpt lat="50.78651" lon="2.65971">
        <ele>123</ele>
        <time>2018-10-16T10:46:13.378Z</time>
      </trkpt>
      <trkpt lat="50.78634" lon="2.66027">
        <ele>123</ele>
        <time>2018-10-16T10:46:14.378Z</time>
      </trkpt>
      <trkpt lat="50.78617" lon="2.66146">
        <ele>131</ele>
        <time>2018-10-16T10:46:15.378Z</time>
      </trkpt>
      <trkpt lat="50.78636" lon="2.66252">
        <ele>136</ele>
        <time>2018-10-16T10:46:16.378Z</time>
      </trkpt>
      <trkpt lat="50.7865" lon="2.6658">
        <ele>148</ele>
        <time>2018-10-16T10:46:17.378Z</time>
      </trkpt>
      <trkpt lat="50.7863" lon="2.66611">
        <ele>151</ele>
        <time>2018-10-16T10:46:18.378Z</time>
      </trkpt>
      <trkpt lat="50.7861" lon="2.6662">
        <ele>153</ele>
        <time>2018-10-16T10:46:19.378Z</time>
      </trkpt>
      <trkpt lat="50.78549" lon="2.66603">
        <ele>160</ele>
        <time>2018-10-16T10:46:20.378Z</time>
      </trkpt>
      <trkpt lat="50.78474" lon="2.66612">
        <ele>164</ele>
        <time>2018-10-16T10:46:21.378Z</time>
      </trkpt>
      <trkpt lat="50.78459" lon="2.66626">
        <ele>164</ele>
        <time>2018-10-16T10:46:22.378Z</time>
      </trkpt>
      <trkpt lat="50.78421" lon="2.66737">
        <ele>164</ele>
        <time>2018-10-16T10:46:23.378Z</time>
      </trkpt>
      <trkpt lat="50.78406" lon="2.66804">
        <ele>164</ele>
        <time>2018-10-16T10:46:24.378Z</time>
      </trkpt>
      <trkpt lat="50.78395" lon="2.66944">
        <ele>159</ele>
        <time>2018-10-16T10:46:25.378Z</time>
      </trkpt>
      <trkpt lat="50.784" lon="2.66974">
        <ele>158</ele>
        <time>2018-10-16T10:46:26.378Z</time>
      </trkpt>
      <trkpt lat="50.78387" lon="2.67035">
        <ele>154</ele>
        <time>2018-10-16T10:46:27.378Z</time>
      </trkpt>
      <trkpt lat="50.78387" lon="2.6708">
        <ele>151</ele>
        <time>2018-10-16T10:46:28.378Z</time>
      </trkpt>
      <trkpt lat="50.78409" lon="2.6712">
        <ele>145</ele>
        <time>2018-10-16T10:46:29.378Z</time>
      </trkpt>
      <trkpt lat="50.78389" lon="2.67185">
        <ele>143</ele>
        <time>2018-10-16T10:46:30.378Z</time>
      </trkpt>
      <trkpt lat="50.78395" lon="2.6721">
        <ele>142</ele>
        <time>2018-10-16T10:46:31.378Z</time>
      </trkpt>
      <trkpt lat="50.78348" lon="2.6714">
        <ele>150</ele>
        <time>2018-10-16T10:46:32.378Z</time>
      </trkpt>
      <trkpt lat="50.78262" lon="2.67088">
        <ele>153</ele>
        <time>2018-10-16T10:46:33.378Z</time>
      </trkpt>
      <trkpt lat="50.78254" lon="2.67101">
        <ele>154</ele>
        <time>2018-10-16T10:46:34.378Z</time>
      </trkpt>
      <trkpt lat="50.78242" lon="2.67193">
        <ele>153</ele>
        <time>2018-10-16T10:46:35.378Z</time>
      </trkpt>
      <trkpt lat="50.78222" lon="2.67246">
        <ele>148</ele>
        <time>2018-10-16T10:46:36.378Z</time>
      </trkpt>
      <trkpt lat="50.78191" lon="2.67258">
        <ele>142</ele>
        <time>2018-10-16T10:46:37.378Z</time>
      </trkpt>
      <trkpt lat="50.78182" lon="2.67272">
        <ele>140</ele>
        <time>2018-10-16T10:46:38.378Z</time>
      </trkpt>
      <trkpt lat="50.78117" lon="2.673">
        <ele>126</ele>
        <time>2018-10-16T10:46:39.378Z</time>
      </trkpt>
      <trkpt lat="50.78109" lon="2.67323">
        <ele>124</ele>
        <time>2018-10-16T10:46:40.378Z</time>
      </trkpt>
      <trkpt lat="50.78114" lon="2.67424">
        <ele>118</ele>
        <time>2018-10-16T10:46:41.378Z</time>
      </trkpt>
      <trkpt lat="50.78134" lon="2.67478">
        <ele>113</ele>
        <time>2018-10-16T10:46:42.378Z</time>
      </trkpt>
      <trkpt lat="50.78171" lon="2.67538">
        <ele>109</ele>
        <time>2018-10-16T10:46:43.378Z</time>
      </trkpt>
      <trkpt lat="50.78189" lon="2.67605">
        <ele>104</ele>
        <time>2018-10-16T10:46:44.378Z</time>
      </trkpt>
      <trkpt lat="50.78192" lon="2.67709">
        <ele>98</ele>
        <time>2018-10-16T10:46:45.378Z</time>
      </trkpt>
      <trkpt lat="50.78177" lon="2.67749">
        <ele>96</ele>
        <time>2018-10-16T10:46:46.378Z</time>
      </trkpt>
      <trkpt lat="50.78111" lon="2.67838">
        <ele>92</ele>
        <time>2018-10-16T10:46:47.378Z</time>
      </trkpt>
      <trkpt lat="50.78026" lon="2.67915">
        <ele>90</ele>
        <time>2018-10-16T10:46:48.378Z</time>
      </trkpt>
      <trkpt lat="50.78021" lon="2.67933">
        <ele>89</ele>
        <time>2018-10-16T10:46:49.378Z</time>
      </trkpt>
      <trkpt lat="50.78054" lon="2.68237">
        <ele>75</ele>
        <time>2018-10-16T10:46:50.378Z</time>
      </trkpt>
      <trkpt lat="50.78058" lon="2.68348">
        <ele>72</ele>
        <time>2018-10-16T10:46:51.378Z</time>
      </trkpt>
      <trkpt lat="50.78082" lon="2.68622">
        <ele>64</ele>
        <time>2018-10-16T10:46:52.378Z</time>
      </trkpt>
      <trkpt lat="50.78079" lon="2.68817">
        <ele>61</ele>
        <time>2018-10-16T10:46:53.378Z</time>
      </trkpt>
      <trkpt lat="50.78056" lon="2.69028">
        <ele>56</ele>
        <time>2018-10-16T10:46:54.378Z</time>
      </trkpt>
      <trkpt lat="50.78078" lon="2.69068">
        <ele>56</ele>
        <time>2018-10-16T10:46:55.378Z</time>
      </trkpt>
      <trkpt lat="50.78128" lon="2.69246">
        <ele>62</ele>
        <time>2018-10-16T10:46:56.378Z</time>
      </trkpt>
      <trkpt lat="50.78255" lon="2.69525">
        <ele>57</ele>
        <time>2018-10-16T10:46:57.378Z</time>
      </trkpt>
      <trkpt lat="50.77752" lon="2.70129">
        <ele>41</ele>
        <time>2018-10-16T10:46:58.378Z</time>
      </trkpt>
      <trkpt lat="50.77617" lon="2.70233">
        <ele>43</ele>
        <time>2018-10-16T10:46:59.378Z</time>
      </trkpt>
      <trkpt lat="50.77675" lon="2.70534">
        <ele>38</ele>
        <time>2018-10-16T10:47:00.378Z</time>
      </trkpt>
      <trkpt lat="50.77699" lon="2.7055">
        <ele>37</ele>
        <time>2018-10-16T10:47:01.378Z</time>
      </trkpt>
      <trkpt lat="50.77728" lon="2.70679">
        <ele>37</ele>
        <time>2018-10-16T10:47:02.378Z</time>
      </trkpt>
      <trkpt lat="50.77737" lon="2.70802">
        <ele>40</ele>
        <time>2018-10-16T10:47:03.378Z</time>
      </trkpt>
      <trkpt lat="50.77757" lon="2.70895">
        <ele>46</ele>
        <time>2018-10-16T10:47:04.378Z</time>
      </trkpt>
      <trkpt lat="50.77799" lon="2.7119">
        <ele>66</ele>
        <time>2018-10-16T10:47:05.378Z</time>
      </trkpt>
      <trkpt lat="50.77905" lon="2.7149">
        <ele>71</ele>
        <time>2018-10-16T10:47:06.378Z</time>
      </trkpt>
      <trkpt lat="50.77971" lon="2.71817">
        <ele>82</ele>
        <time>2018-10-16T10:47:07.378Z</time>
      </trkpt>
      <trkpt lat="50.77982" lon="2.71963">
        <ele>89</ele>
        <time>2018-10-16T10:47:08.378Z</time>
      </trkpt>
      <trkpt lat="50.77997" lon="2.71999">
        <ele>92</ele>
        <time>2018-10-16T10:47:09.378Z</time>
      </trkpt>
      <trkpt lat="50.78003" lon="2.72054">
        <ele>96</ele>
        <time>2018-10-16T10:47:10.378Z</time>
      </trkpt>
      <trkpt lat="50.77999" lon="2.72153">
        <ele>99</ele>
        <time>2018-10-16T10:47:11.378Z</time>
      </trkpt>
      <trkpt lat="50.78025" lon="2.72264">
        <ele>107</ele>
        <time>2018-10-16T10:47:12.378Z</time>
      </trkpt>
      <trkpt lat="50.77991" lon="2.72265">
        <ele>102</ele>
        <time>2018-10-16T10:47:13.378Z</time>
      </trkpt>
      <trkpt lat="50.77981" lon="2.72275">
        <ele>102</ele>
        <time>2018-10-16T10:47:14.378Z</time>
      </trkpt>
      <trkpt lat="50.77833" lon="2.72276">
        <ele>89</ele>
        <time>2018-10-16T10:47:15.378Z</time>
      </trkpt>
      <trkpt lat="50.77753" lon="2.72214">
        <ele>78</ele>
        <time>2018-10-16T10:47:16.378Z</time>
      </trkpt>
      <trkpt lat="50.77724" lon="2.72181">
        <ele>71</ele>
        <time>2018-10-16T10:47:17.378Z</time>
      </trkpt>
      <trkpt lat="50.77661" lon="2.72145">
        <ele>61</ele>
        <time>2018-10-16T10:47:18.378Z</time>
      </trkpt>
      <trkpt lat="50.77546" lon="2.72138">
        <ele>50</ele>
        <time>2018-10-16T10:47:19.378Z</time>
      </trkpt>
      <trkpt lat="50.77442" lon="2.72148">
        <ele>43</ele>
        <time>2018-10-16T10:47:20.378Z</time>
      </trkpt>
      <trkpt lat="50.77435" lon="2.72129">
        <ele>42</ele>
        <time>2018-10-16T10:47:21.378Z</time>
      </trkpt>
      <trkpt lat="50.77432" lon="2.72041">
        <ele>43</ele>
        <time>2018-10-16T10:47:22.378Z</time>
      </trkpt>
      <trkpt lat="50.77421" lon="2.72035">
        <ele>42</ele>
        <time>2018-10-16T10:47:23.378Z</time>
      </trkpt>
      <trkpt lat="50.77307" lon="2.72075">
        <ele>39</ele>
        <time>2018-10-16T10:47:24.378Z</time>
      </trkpt>
      <trkpt lat="50.77302" lon="2.72088">
        <ele>39</ele>
        <time>2018-10-16T10:47:25.378Z</time>
      </trkpt>
      <trkpt lat="50.773" lon="2.72212">
        <ele>38</ele>
        <time>2018-10-16T10:47:26.378Z</time>
      </trkpt>
      <trkpt lat="50.77337" lon="2.72289">
        <ele>40</ele>
        <time>2018-10-16T10:47:27.378Z</time>
      </trkpt>
      <trkpt lat="50.77349" lon="2.72351">
        <ele>41</ele>
        <time>2018-10-16T10:47:28.378Z</time>
      </trkpt>
      <trkpt lat="50.77361" lon="2.72545">
        <ele>47</ele>
        <time>2018-10-16T10:47:29.378Z</time>
      </trkpt>
      <trkpt lat="50.77396" lon="2.72655">
        <ele>53</ele>
        <time>2018-10-16T10:47:30.378Z</time>
      </trkpt>
      <trkpt lat="50.77363" lon="2.72745">
        <ele>63</ele>
        <time>2018-10-16T10:47:31.378Z</time>
      </trkpt>
      <trkpt lat="50.77336" lon="2.72789">
        <ele>69</ele>
        <time>2018-10-16T10:47:32.378Z</time>
      </trkpt>
      <trkpt lat="50.77345" lon="2.72853">
        <ele>76</ele>
        <time>2018-10-16T10:47:33.378Z</time>
      </trkpt>
      <trkpt lat="50.77338" lon="2.7291">
        <ele>82</ele>
        <time>2018-10-16T10:47:34.378Z</time>
      </trkpt>
      <trkpt lat="50.77321" lon="2.72955">
        <ele>83</ele>
        <time>2018-10-16T10:47:35.378Z</time>
      </trkpt>
      <trkpt lat="50.77314" lon="2.73048">
        <ele>82</ele>
        <time>2018-10-16T10:47:36.378Z</time>
      </trkpt>
      <trkpt lat="50.77311" lon="2.7302">
        <ele>83</ele>
        <time>2018-10-16T10:47:37.378Z</time>
      </trkpt>
      <trkpt lat="50.77326" lon="2.73359">
        <ele>87</ele>
        <time>2018-10-16T10:47:38.378Z</time>
      </trkpt>
      <trkpt lat="50.77307" lon="2.73393">
        <ele>86</ele>
        <time>2018-10-16T10:47:39.378Z</time>
      </trkpt>
      <trkpt lat="50.77294" lon="2.73456">
        <ele>87</ele>
        <time>2018-10-16T10:47:40.378Z</time>
      </trkpt>
      <trkpt lat="50.77241" lon="2.73602">
        <ele>88</ele>
        <time>2018-10-16T10:47:41.378Z</time>
      </trkpt>
      <trkpt lat="50.77191" lon="2.73852">
        <ele>88</ele>
        <time>2018-10-16T10:47:42.378Z</time>
      </trkpt>
      <trkpt lat="50.77189" lon="2.73852">
        <ele>88</ele>
        <time>2018-10-16T10:47:43.378Z</time>
      </trkpt>
      <trkpt lat="50.77196" lon="2.73968">
        <ele>89</ele>
        <time>2018-10-16T10:47:44.378Z</time>
      </trkpt>
      <trkpt lat="50.77218" lon="2.73957">
        <ele>90</ele>
        <time>2018-10-16T10:47:45.378Z</time>
      </trkpt>
      <trkpt lat="50.77219" lon="2.73958">
        <ele>90</ele>
        <time>2018-10-16T10:47:46.378Z</time>
      </trkpt>
      <trkpt lat="50.77316" lon="2.73912">
        <ele>93</ele>
        <time>2018-10-16T10:47:47.378Z</time>
      </trkpt>
      <trkpt lat="50.77502" lon="2.73858">
        <ele>102</ele>
        <time>2018-10-16T10:47:48.378Z</time>
      </trkpt>
      <trkpt lat="50.776" lon="2.7384">
        <ele>106</ele>
        <time>2018-10-16T10:47:49.378Z</time>
      </trkpt>
      <trkpt lat="50.77631" lon="2.73881">
        <ele>103</ele>
        <time>2018-10-16T10:47:50.378Z</time>
      </trkpt>
      <trkpt lat="50.77663" lon="2.73931">
        <ele>100</ele>
        <time>2018-10-16T10:47:51.378Z</time>
      </trkpt>
      <trkpt lat="50.77663" lon="2.7393">
        <ele>100</ele>
        <time>2018-10-16T10:47:52.378Z</time>
      </trkpt>
      <trkpt lat="50.77675" lon="2.73951">
        <ele>99</ele>
        <time>2018-10-16T10:47:53.378Z</time>
      </trkpt>
      <trkpt lat="50.77717" lon="2.74054">
        <ele>96</ele>
        <time>2018-10-16T10:47:54.378Z</time>
      </trkpt>
      <trkpt lat="50.77739" lon="2.74089">
        <ele>95</ele>
        <time>2018-10-16T10:47:55.378Z</time>
      </trkpt>
      <trkpt lat="50.77779" lon="2.74122">
        <ele>98</ele>
        <time>2018-10-16T10:47:56.378Z</time>
      </trkpt>
      <trkpt lat="50.77896" lon="2.74182">
        <ele>108</ele>
        <time>2018-10-16T10:47:57.378Z</time>
      </trkpt>
      <trkpt lat="50.77975" lon="2.74249">
        <ele>116</ele>
        <time>2018-10-16T10:47:58.378Z</time>
      </trkpt>
      <trkpt lat="50.78046" lon="2.74284">
        <ele>115</ele>
        <time>2018-10-16T10:47:59.378Z</time>
      </trkpt>
      <trkpt lat="50.78095" lon="2.74201">
        <ele>121</ele>
        <time>2018-10-16T10:48:00.378Z</time>
      </trkpt>
      <trkpt lat="50.78163" lon="2.74127">
        <ele>120</ele>
        <time>2018-10-16T10:48:01.378Z</time>
      </trkpt>
      <trkpt lat="50.78164" lon="2.74127">
        <ele>120</ele>
        <time>2018-10-16T10:48:02.378Z</time>
      </trkpt>
      <trkpt lat="50.78174" lon="2.74116">
        <ele>119</ele>
        <time>2018-10-16T10:48:03.378Z</time>
      </trkpt>
      <trkpt lat="50.78308" lon="2.74465">
        <ele>124</ele>
        <time>2018-10-16T10:48:04.378Z</time>
      </trkpt>
      <trkpt lat="50.78317" lon="2.74499">
        <ele>124</ele>
        <time>2018-10-16T10:48:05.378Z</time>
      </trkpt>
      <trkpt lat="50.78321" lon="2.747">
        <ele>125</ele>
        <time>2018-10-16T10:48:06.378Z</time>
      </trkpt>
      <trkpt lat="50.78325" lon="2.74739">
        <ele>125</ele>
        <time>2018-10-16T10:48:07.378Z</time>
      </trkpt>
      <trkpt lat="50.7834" lon="2.74833">
        <ele>123</ele>
        <time>2018-10-16T10:48:08.378Z</time>
      </trkpt>
      <trkpt lat="50.78352" lon="2.74877">
        <ele>122</ele>
        <time>2018-10-16T10:48:09.378Z</time>
      </trkpt>
      <trkpt lat="50.78365" lon="2.74914">
        <ele>120</ele>
        <time>2018-10-16T10:48:10.378Z</time>
      </trkpt>
      <trkpt lat="50.78436" lon="2.75085">
        <ele>110</ele>
        <time>2018-10-16T10:48:11.378Z</time>
      </trkpt>
      <trkpt lat="50.78446" lon="2.7512">
        <ele>108</ele>
        <time>2018-10-16T10:48:12.378Z</time>
      </trkpt>
      <trkpt lat="50.78455" lon="2.75235">
        <ele>108</ele>
        <time>2018-10-16T10:48:13.378Z</time>
      </trkpt>
      <trkpt lat="50.78454" lon="2.75261">
        <ele>109</ele>
        <time>2018-10-16T10:48:14.378Z</time>
      </trkpt>
      <trkpt lat="50.7845" lon="2.75292">
        <ele>110</ele>
        <time>2018-10-16T10:48:15.378Z</time>
      </trkpt>
      <trkpt lat="50.7844" lon="2.7536">
        <ele>113</ele>
        <time>2018-10-16T10:48:16.378Z</time>
      </trkpt>
      <trkpt lat="50.78438" lon="2.75392">
        <ele>114</ele>
        <time>2018-10-16T10:48:17.378Z</time>
      </trkpt>
      <trkpt lat="50.7844" lon="2.75434">
        <ele>116</ele>
        <time>2018-10-16T10:48:18.378Z</time>
      </trkpt>
      <trkpt lat="50.7846" lon="2.75536">
        <ele>123</ele>
        <time>2018-10-16T10:48:19.378Z</time>
      </trkpt>
      <trkpt lat="50.78453" lon="2.75539">
        <ele>124</ele>
        <time>2018-10-16T10:48:20.378Z</time>
      </trkpt>
      <trkpt lat="50.78445" lon="2.75536">
        <ele>125</ele>
        <time>2018-10-16T10:48:21.378Z</time>
      </trkpt>
      <trkpt lat="50.78424" lon="2.7551">
        <ele>125</ele>
        <time>2018-10-16T10:48:22.378Z</time>
      </trkpt>
      <trkpt lat="50.78409" lon="2.75503">
        <ele>125</ele>
        <time>2018-10-16T10:48:23.378Z</time>
      </trkpt>
      <trkpt lat="50.78391" lon="2.75505">
        <ele>123</ele>
        <time>2018-10-16T10:48:24.378Z</time>
      </trkpt>
      <trkpt lat="50.78392" lon="2.75505">
        <ele>124</ele>
        <time>2018-10-16T10:48:25.378Z</time>
      </trkpt>
      <trkpt lat="50.78381" lon="2.75511">
        <ele>123</ele>
        <time>2018-10-16T10:48:26.378Z</time>
      </trkpt>
      <trkpt lat="50.78371" lon="2.75525">
        <ele>124</ele>
        <time>2018-10-16T10:48:27.378Z</time>
      </trkpt>
      <trkpt lat="50.78368" lon="2.75538">
        <ele>126</ele>
        <time>2018-10-16T10:48:28.378Z</time>
      </trkpt>
      <trkpt lat="50.78351" lon="2.75592">
        <ele>132</ele>
        <time>2018-10-16T10:48:29.378Z</time>
      </trkpt>
      <trkpt lat="50.78352" lon="2.75645">
        <ele>139</ele>
        <time>2018-10-16T10:48:30.378Z</time>
      </trkpt>
      <trkpt lat="50.78377" lon="2.75693">
        <ele>139</ele>
        <time>2018-10-16T10:48:31.378Z</time>
      </trkpt>
      <trkpt lat="50.7838" lon="2.75691">
        <ele>139</ele>
        <time>2018-10-16T10:48:32.378Z</time>
      </trkpt>
      <trkpt lat="50.78409" lon="2.75786">
        <ele>134</ele>
        <time>2018-10-16T10:48:33.378Z</time>
      </trkpt>
      <trkpt lat="50.78424" lon="2.75816">
        <ele>133</ele>
        <time>2018-10-16T10:48:34.378Z</time>
      </trkpt>
      <trkpt lat="50.78442" lon="2.75846">
        <ele>133</ele>
        <time>2018-10-16T10:48:35.378Z</time>
      </trkpt>
      <trkpt lat="50.78454" lon="2.75858">
        <ele>133</ele>
        <time>2018-10-16T10:48:36.378Z</time>
      </trkpt>
      <trkpt lat="50.78413" lon="2.75877">
        <ele>132</ele>
        <time>2018-10-16T10:48:37.378Z</time>
      </trkpt>
      <trkpt lat="50.78402" lon="2.7589">
        <ele>131</ele>
        <time>2018-10-16T10:48:38.378Z</time>
      </trkpt>
      <trkpt lat="50.78395" lon="2.75903">
        <ele>130</ele>
        <time>2018-10-16T10:48:39.378Z</time>
      </trkpt>
      <trkpt lat="50.78395" lon="2.75903">
        <ele>130</ele>
        <time>2018-10-16T10:48:40.378Z</time>
      </trkpt>
      <trkpt lat="50.7838" lon="2.75927">
        <ele>128</ele>
        <time>2018-10-16T10:48:41.378Z</time>
      </trkpt>
      <trkpt lat="50.78369" lon="2.7595">
        <ele>127</ele>
        <time>2018-10-16T10:48:42.378Z</time>
      </trkpt>
      <trkpt lat="50.78364" lon="2.75965">
        <ele>126</ele>
        <time>2018-10-16T10:48:43.378Z</time>
      </trkpt>
      <trkpt lat="50.78359" lon="2.76012">
        <ele>125</ele>
        <time>2018-10-16T10:48:44.378Z</time>
      </trkpt>
      <trkpt lat="50.78362" lon="2.76174">
        <ele>117</ele>
        <time>2018-10-16T10:48:45.378Z</time>
      </trkpt>
      <trkpt lat="50.78395" lon="2.76311">
        <ele>111</ele>
        <time>2018-10-16T10:48:46.378Z</time>
      </trkpt>
      <trkpt lat="50.78386" lon="2.76388">
        <ele>106</ele>
        <time>2018-10-16T10:48:47.378Z</time>
      </trkpt>
      <trkpt lat="50.78377" lon="2.76435">
        <ele>104</ele>
        <time>2018-10-16T10:48:48.378Z</time>
      </trkpt>
      <trkpt lat="50.78373" lon="2.76465">
        <ele>103</ele>
        <time>2018-10-16T10:48:49.378Z</time>
      </trkpt>
      <trkpt lat="50.78371" lon="2.76558">
        <ele>100</ele>
        <time>2018-10-16T10:48:50.378Z</time>
      </trkpt>
      <trkpt lat="50.78366" lon="2.76635">
        <ele>97</ele>
        <time>2018-10-16T10:48:51.378Z</time>
      </trkpt>
      <trkpt lat="50.78371" lon="2.76664">
        <ele>97</ele>
        <time>2018-10-16T10:48:52.378Z</time>
      </trkpt>
      <trkpt lat="50.78382" lon="2.76704">
        <ele>96</ele>
        <time>2018-10-16T10:48:53.378Z</time>
      </trkpt>
      <trkpt lat="50.78369" lon="2.76723">
        <ele>95</ele>
        <time>2018-10-16T10:48:54.378Z</time>
      </trkpt>
      <trkpt lat="50.78323" lon="2.76775">
        <ele>94</ele>
        <time>2018-10-16T10:48:55.378Z</time>
      </trkpt>
      <trkpt lat="50.78258" lon="2.76817">
        <ele>91</ele>
        <time>2018-10-16T10:48:56.378Z</time>
      </trkpt>
      <trkpt lat="50.78258" lon="2.76817">
        <ele>91</ele>
        <time>2018-10-16T10:48:57.378Z</time>
      </trkpt>
      <trkpt lat="50.78158" lon="2.76882">
        <ele>83</ele>
        <time>2018-10-16T10:48:58.378Z</time>
      </trkpt>
      <trkpt lat="50.78129" lon="2.76905">
        <ele>81</ele>
        <time>2018-10-16T10:48:59.378Z</time>
      </trkpt>
      <trkpt lat="50.78069" lon="2.76969">
        <ele>79</ele>
        <time>2018-10-16T10:49:00.378Z</time>
      </trkpt>
      <trkpt lat="50.78061" lon="2.76981">
        <ele>79</ele>
        <time>2018-10-16T10:49:01.378Z</time>
      </trkpt>
      <trkpt lat="50.78049" lon="2.77005">
        <ele>78</ele>
        <time>2018-10-16T10:49:02.378Z</time>
      </trkpt>
      <trkpt lat="50.7804" lon="2.77035">
        <ele>79</ele>
        <time>2018-10-16T10:49:03.378Z</time>
      </trkpt>
      <trkpt lat="50.78031" lon="2.77085">
        <ele>80</ele>
        <time>2018-10-16T10:49:04.378Z</time>
      </trkpt>
      <trkpt lat="50.78017" lon="2.77123">
        <ele>80</ele>
        <time>2018-10-16T10:49:05.378Z</time>
      </trkpt>
      <trkpt lat="50.78006" lon="2.77141">
        <ele>80</ele>
        <time>2018-10-16T10:49:06.378Z</time>
      </trkpt>
      <trkpt lat="50.78003" lon="2.77137">
        <ele>79</ele>
        <time>2018-10-16T10:49:07.378Z</time>
      </trkpt>
      <trkpt lat="50.77959" lon="2.77205">
        <ele>78</ele>
        <time>2018-10-16T10:49:08.378Z</time>
      </trkpt>
      <trkpt lat="50.77959" lon="2.77206">
        <ele>78</ele>
        <time>2018-10-16T10:49:09.378Z</time>
      </trkpt>
      <trkpt lat="50.77925" lon="2.77255">
        <ele>77</ele>
        <time>2018-10-16T10:49:10.378Z</time>
      </trkpt>
      <trkpt lat="50.77847" lon="2.77339">
        <ele>76</ele>
        <time>2018-10-16T10:49:11.378Z</time>
      </trkpt>
      <trkpt lat="50.778" lon="2.77367">
        <ele>75</ele>
        <time>2018-10-16T10:49:12.378Z</time>
      </trkpt>
      <trkpt lat="50.77784" lon="2.77374">
        <ele>74</ele>
        <time>2018-10-16T10:49:13.378Z</time>
      </trkpt>
      <trkpt lat="50.77686" lon="2.77395">
        <ele>72</ele>
        <time>2018-10-16T10:49:14.378Z</time>
      </trkpt>
      <trkpt lat="50.77641" lon="2.774">
        <ele>71</ele>
        <time>2018-10-16T10:49:15.378Z</time>
      </trkpt>
      <trkpt lat="50.77621" lon="2.77404">
        <ele>70</ele>
        <time>2018-10-16T10:49:16.378Z</time>
      </trkpt>
      <trkpt lat="50.77558" lon="2.77442">
        <ele>70</ele>
        <time>2018-10-16T10:49:17.378Z</time>
      </trkpt>
      <trkpt lat="50.7754" lon="2.77456">
        <ele>71</ele>
        <time>2018-10-16T10:49:18.378Z</time>
      </trkpt>
      <trkpt lat="50.77498" lon="2.77501">
        <ele>73</ele>
        <time>2018-10-16T10:49:19.378Z</time>
      </trkpt>
      <trkpt lat="50.77462" lon="2.77547">
        <ele>74</ele>
        <time>2018-10-16T10:49:20.378Z</time>
      </trkpt>
      <trkpt lat="50.77452" lon="2.77567">
        <ele>74</ele>
        <time>2018-10-16T10:49:21.378Z</time>
      </trkpt>
      <trkpt lat="50.77456" lon="2.77583">
        <ele>75</ele>
        <time>2018-10-16T10:49:22.378Z</time>
      </trkpt>
      <trkpt lat="50.77511" lon="2.77652">
        <ele>73</ele>
        <time>2018-10-16T10:49:23.378Z</time>
      </trkpt>
      <trkpt lat="50.77511" lon="2.77652">
        <ele>73</ele>
        <time>2018-10-16T10:49:24.378Z</time>
      </trkpt>
      <trkpt lat="50.7754" lon="2.77692">
        <ele>72</ele>
        <time>2018-10-16T10:49:25.378Z</time>
      </trkpt>
      <trkpt lat="50.77547" lon="2.77709">
        <ele>71</ele>
        <time>2018-10-16T10:49:26.378Z</time>
      </trkpt>
      <trkpt lat="50.7758" lon="2.77861">
        <ele>67</ele>
        <time>2018-10-16T10:49:27.378Z</time>
      </trkpt>
      <trkpt lat="50.77599" lon="2.77936">
        <ele>65</ele>
        <time>2018-10-16T10:49:28.378Z</time>
      </trkpt>
      <trkpt lat="50.7761" lon="2.78009">
        <ele>63</ele>
        <time>2018-10-16T10:49:29.378Z</time>
      </trkpt>
      <trkpt lat="50.7762" lon="2.78057">
        <ele>62</ele>
        <time>2018-10-16T10:49:30.378Z</time>
      </trkpt>
      <trkpt lat="50.77652" lon="2.78143">
        <ele>60</ele>
        <time>2018-10-16T10:49:31.378Z</time>
      </trkpt>
      <trkpt lat="50.77672" lon="2.78207">
        <ele>58</ele>
        <time>2018-10-16T10:49:32.378Z</time>
      </trkpt>
      <trkpt lat="50.77686" lon="2.78274">
        <ele>57</ele>
        <time>2018-10-16T10:49:33.378Z</time>
      </trkpt>
      <trkpt lat="50.77735" lon="2.78553">
        <ele>50</ele>
        <time>2018-10-16T10:49:34.378Z</time>
      </trkpt>
      <trkpt lat="50.77739" lon="2.78618">
        <ele>51</ele>
        <time>2018-10-16T10:49:35.378Z</time>
      </trkpt>
      <trkpt lat="50.77741" lon="2.78628">
        <ele>51</ele>
        <time>2018-10-16T10:49:36.378Z</time>
      </trkpt>
      <trkpt lat="50.77745" lon="2.78635">
        <ele>51</ele>
        <time>2018-10-16T10:49:37.378Z</time>
      </trkpt>
      <trkpt lat="50.77744" lon="2.78636">
        <ele>51</ele>
        <time>2018-10-16T10:49:38.378Z</time>
      </trkpt>
      <trkpt lat="50.77749" lon="2.78644">
        <ele>51</ele>
        <time>2018-10-16T10:49:39.378Z</time>
      </trkpt>
      <trkpt lat="50.77756" lon="2.78651">
        <ele>52</ele>
        <time>2018-10-16T10:49:40.378Z</time>
      </trkpt>
      <trkpt lat="50.77811" lon="2.78677">
        <ele>55</ele>
        <time>2018-10-16T10:49:41.378Z</time>
      </trkpt>
      <trkpt lat="50.77822" lon="2.78687">
        <ele>56</ele>
        <time>2018-10-16T10:49:42.378Z</time>
      </trkpt>
      <trkpt lat="50.77862" lon="2.78733">
        <ele>59</ele>
        <time>2018-10-16T10:49:43.378Z</time>
      </trkpt>
      <trkpt lat="50.77896" lon="2.78765">
        <ele>61</ele>
        <time>2018-10-16T10:49:44.378Z</time>
      </trkpt>
      <trkpt lat="50.77892" lon="2.78959">
        <ele>67</ele>
        <time>2018-10-16T10:49:45.378Z</time>
      </trkpt>
      <trkpt lat="50.77894" lon="2.7899">
        <ele>68</ele>
        <time>2018-10-16T10:49:46.378Z</time>
      </trkpt>
      <trkpt lat="50.77903" lon="2.79054">
        <ele>69</ele>
        <time>2018-10-16T10:49:47.378Z</time>
      </trkpt>
      <trkpt lat="50.77929" lon="2.7918">
        <ele>68</ele>
        <time>2018-10-16T10:49:48.378Z</time>
      </trkpt>
      <trkpt lat="50.77933" lon="2.79239">
        <ele>68</ele>
        <time>2018-10-16T10:49:49.378Z</time>
      </trkpt>
      <trkpt lat="50.77947" lon="2.79342">
        <ele>69</ele>
        <time>2018-10-16T10:49:50.378Z</time>
      </trkpt>
      <trkpt lat="50.77948" lon="2.79454">
        <ele>69</ele>
        <time>2018-10-16T10:49:51.378Z</time>
      </trkpt>
      <trkpt lat="50.77946" lon="2.79548">
        <ele>69</ele>
        <time>2018-10-16T10:49:52.378Z</time>
      </trkpt>
      <trkpt lat="50.77945" lon="2.79571">
        <ele>69</ele>
        <time>2018-10-16T10:49:53.378Z</time>
      </trkpt>
      <trkpt lat="50.77923" lon="2.79679">
        <ele>69</ele>
        <time>2018-10-16T10:49:54.378Z</time>
      </trkpt>
      <trkpt lat="50.77921" lon="2.79705">
        <ele>70</ele>
        <time>2018-10-16T10:49:55.378Z</time>
      </trkpt>
      <trkpt lat="50.77925" lon="2.7976">
        <ele>71</ele>
        <time>2018-10-16T10:49:56.378Z</time>
      </trkpt>
      <trkpt lat="50.77939" lon="2.79851">
        <ele>73</ele>
        <time>2018-10-16T10:49:57.378Z</time>
      </trkpt>
      <trkpt lat="50.77984" lon="2.80084">
        <ele>79</ele>
        <time>2018-10-16T10:49:58.378Z</time>
      </trkpt>
      <trkpt lat="50.77992" lon="2.8011">
        <ele>80</ele>
        <time>2018-10-16T10:49:59.378Z</time>
      </trkpt>
      <trkpt lat="50.77878" lon="2.80205">
        <ele>82</ele>
        <time>2018-10-16T10:50:00.378Z</time>
      </trkpt>
      <trkpt lat="50.7788" lon="2.80285">
        <ele>85</ele>
        <time>2018-10-16T10:50:01.378Z</time>
      </trkpt>
      <trkpt lat="50.7788" lon="2.80286">
        <ele>85</ele>
        <time>2018-10-16T10:50:02.378Z</time>
      </trkpt>
      <trkpt lat="50.7788" lon="2.80327">
        <ele>87</ele>
        <time>2018-10-16T10:50:03.378Z</time>
      </trkpt>
      <trkpt lat="50.77872" lon="2.80411">
        <ele>90</ele>
        <time>2018-10-16T10:50:04.378Z</time>
      </trkpt>
      <trkpt lat="50.77871" lon="2.80435">
        <ele>91</ele>
        <time>2018-10-16T10:50:05.378Z</time>
      </trkpt>
      <trkpt lat="50.77872" lon="2.80476">
        <ele>92</ele>
        <time>2018-10-16T10:50:06.378Z</time>
      </trkpt>
      <trkpt lat="50.77885" lon="2.80553">
        <ele>97</ele>
        <time>2018-10-16T10:50:07.378Z</time>
      </trkpt>
      <trkpt lat="50.77889" lon="2.80599">
        <ele>101</ele>
        <time>2018-10-16T10:50:08.378Z</time>
      </trkpt>
      <trkpt lat="50.77878" lon="2.8073">
        <ele>112</ele>
        <time>2018-10-16T10:50:09.378Z</time>
      </trkpt>
      <trkpt lat="50.77881" lon="2.80789">
        <ele>119</ele>
        <time>2018-10-16T10:50:10.378Z</time>
      </trkpt>
      <trkpt lat="50.77887" lon="2.80822">
        <ele>122</ele>
        <time>2018-10-16T10:50:11.378Z</time>
      </trkpt>
      <trkpt lat="50.77863" lon="2.80885">
        <ele>135</ele>
        <time>2018-10-16T10:50:12.378Z</time>
      </trkpt>
      <trkpt lat="50.77864" lon="2.80885">
        <ele>135</ele>
        <time>2018-10-16T10:50:13.378Z</time>
      </trkpt>
      <trkpt lat="50.77824" lon="2.80995">
        <ele>153</ele>
        <time>2018-10-16T10:50:14.378Z</time>
      </trkpt>
      <trkpt lat="50.77819" lon="2.81018">
        <ele>153</ele>
        <time>2018-10-16T10:50:15.378Z</time>
      </trkpt>
      <trkpt lat="50.77817" lon="2.81034">
        <ele>153</ele>
        <time>2018-10-16T10:50:16.378Z</time>
      </trkpt>
      <trkpt lat="50.7782" lon="2.81056">
        <ele>153</ele>
        <time>2018-10-16T10:50:17.378Z</time>
      </trkpt>
      <trkpt lat="50.77871" lon="2.81207">
        <ele>156</ele>
        <time>2018-10-16T10:50:18.378Z</time>
      </trkpt>
      <trkpt lat="50.77871" lon="2.81207">
        <ele>156</ele>
        <time>2018-10-16T10:50:19.378Z</time>
      </trkpt>
      <trkpt lat="50.77883" lon="2.81244">
        <ele>156</ele>
        <time>2018-10-16T10:50:20.378Z</time>
      </trkpt>
      <trkpt lat="50.77888" lon="2.81293">
        <ele>157</ele>
        <time>2018-10-16T10:50:21.378Z</time>
      </trkpt>
      <trkpt lat="50.77891" lon="2.81313">
        <ele>157</ele>
        <time>2018-10-16T10:50:22.378Z</time>
      </trkpt>
      <trkpt lat="50.77917" lon="2.81419">
        <ele>160</ele>
        <time>2018-10-16T10:50:23.378Z</time>
      </trkpt>
      <trkpt lat="50.77955" lon="2.81606">
        <ele>145</ele>
        <time>2018-10-16T10:50:24.378Z</time>
      </trkpt>
      <trkpt lat="50.77955" lon="2.81635">
        <ele>142</ele>
        <time>2018-10-16T10:50:25.378Z</time>
      </trkpt>
      <trkpt lat="50.77952" lon="2.81652">
        <ele>140</ele>
        <time>2018-10-16T10:50:26.378Z</time>
      </trkpt>
      <trkpt lat="50.77945" lon="2.81675">
        <ele>138</ele>
        <time>2018-10-16T10:50:27.378Z</time>
      </trkpt>
      <trkpt lat="50.77934" lon="2.81696">
        <ele>137</ele>
        <time>2018-10-16T10:50:28.378Z</time>
      </trkpt>
      <trkpt lat="50.77919" lon="2.81715">
        <ele>137</ele>
        <time>2018-10-16T10:50:29.378Z</time>
      </trkpt>
      <trkpt lat="50.77907" lon="2.81724">
        <ele>136</ele>
        <time>2018-10-16T10:50:30.378Z</time>
      </trkpt>
      <trkpt lat="50.77892" lon="2.8173">
        <ele>135</ele>
        <time>2018-10-16T10:50:31.378Z</time>
      </trkpt>
      <trkpt lat="50.77817" lon="2.81744">
        <ele>130</ele>
        <time>2018-10-16T10:50:32.378Z</time>
      </trkpt>
      <trkpt lat="50.77817" lon="2.81744">
        <ele>130</ele>
        <time>2018-10-16T10:50:33.378Z</time>
      </trkpt>
      <trkpt lat="50.77783" lon="2.81749">
        <ele>124</ele>
        <time>2018-10-16T10:50:34.378Z</time>
      </trkpt>
      <trkpt lat="50.77765" lon="2.81757">
        <ele>120</ele>
        <time>2018-10-16T10:50:35.378Z</time>
      </trkpt>
      <trkpt lat="50.77732" lon="2.81792">
        <ele>112</ele>
        <time>2018-10-16T10:50:36.378Z</time>
      </trkpt>
      <trkpt lat="50.77695" lon="2.8184">
        <ele>103</ele>
        <time>2018-10-16T10:50:37.378Z</time>
      </trkpt>
      <trkpt lat="50.77682" lon="2.81816">
        <ele>103</ele>
        <time>2018-10-16T10:50:38.378Z</time>
      </trkpt>
      <trkpt lat="50.77678" lon="2.81831">
        <ele>101</ele>
        <time>2018-10-16T10:50:39.378Z</time>
      </trkpt>
      <trkpt lat="50.77676" lon="2.8184">
        <ele>100</ele>
        <time>2018-10-16T10:50:40.378Z</time>
      </trkpt>
      <trkpt lat="50.77676" lon="2.8185">
        <ele>99</ele>
        <time>2018-10-16T10:50:41.378Z</time>
      </trkpt>
      <trkpt lat="50.7768" lon="2.8187">
        <ele>98</ele>
        <time>2018-10-16T10:50:42.378Z</time>
      </trkpt>
      <trkpt lat="50.77679" lon="2.8187">
        <ele>98</ele>
        <time>2018-10-16T10:50:43.378Z</time>
      </trkpt>
      <trkpt lat="50.77701" lon="2.81912">
        <ele>98</ele>
        <time>2018-10-16T10:50:44.378Z</time>
      </trkpt>
      <trkpt lat="50.77704" lon="2.81923">
        <ele>97</ele>
        <time>2018-10-16T10:50:45.378Z</time>
      </trkpt>
      <trkpt lat="50.77707" lon="2.81945">
        <ele>96</ele>
        <time>2018-10-16T10:50:46.378Z</time>
      </trkpt>
      <trkpt lat="50.7771" lon="2.82">
        <ele>92</ele>
        <time>2018-10-16T10:50:47.378Z</time>
      </trkpt>
      <trkpt lat="50.77708" lon="2.82017">
        <ele>91</ele>
        <time>2018-10-16T10:50:48.378Z</time>
      </trkpt>
      <trkpt lat="50.77684" lon="2.82099">
        <ele>87</ele>
        <time>2018-10-16T10:50:49.378Z</time>
      </trkpt>
      <trkpt lat="50.77662" lon="2.82192">
        <ele>83</ele>
        <time>2018-10-16T10:50:50.378Z</time>
      </trkpt>
      <trkpt lat="50.77656" lon="2.8223">
        <ele>83</ele>
        <time>2018-10-16T10:50:51.378Z</time>
      </trkpt>
      <trkpt lat="50.77648" lon="2.82302">
        <ele>81</ele>
        <time>2018-10-16T10:50:52.378Z</time>
      </trkpt>
      <trkpt lat="50.77612" lon="2.82535">
        <ele>78</ele>
        <time>2018-10-16T10:50:53.378Z</time>
      </trkpt>
      <trkpt lat="50.7759" lon="2.82644">
        <ele>76</ele>
        <time>2018-10-16T10:50:54.378Z</time>
      </trkpt>
      <trkpt lat="50.77588" lon="2.82666">
        <ele>76</ele>
        <time>2018-10-16T10:50:55.378Z</time>
      </trkpt>
      <trkpt lat="50.77586" lon="2.82763">
        <ele>76</ele>
        <time>2018-10-16T10:50:56.378Z</time>
      </trkpt>
      <trkpt lat="50.77574" lon="2.82768">
        <ele>76</ele>
        <time>2018-10-16T10:50:57.378Z</time>
      </trkpt>
      <trkpt lat="50.77546" lon="2.82769">
        <ele>75</ele>
        <time>2018-10-16T10:50:58.378Z</time>
      </trkpt>
      <trkpt lat="50.77546" lon="2.8277">
        <ele>75</ele>
        <time>2018-10-16T10:50:59.378Z</time>
      </trkpt>
      <trkpt lat="50.77357" lon="2.82782">
        <ele>67</ele>
        <time>2018-10-16T10:51:00.378Z</time>
      </trkpt>
      <trkpt lat="50.77339" lon="2.82744">
        <ele>65</ele>
        <time>2018-10-16T10:51:01.378Z</time>
      </trkpt>
      <trkpt lat="50.77278" lon="2.82635">
        <ele>61</ele>
        <time>2018-10-16T10:51:02.378Z</time>
      </trkpt>
      <trkpt lat="50.77267" lon="2.82621">
        <ele>60</ele>
        <time>2018-10-16T10:51:03.378Z</time>
      </trkpt>
      <trkpt lat="50.77206" lon="2.82553">
        <ele>57</ele>
        <time>2018-10-16T10:51:04.378Z</time>
      </trkpt>
      <trkpt lat="50.77164" lon="2.82487">
        <ele>54</ele>
        <time>2018-10-16T10:51:05.378Z</time>
      </trkpt>
      <trkpt lat="50.77139" lon="2.82443">
        <ele>52</ele>
        <time>2018-10-16T10:51:06.378Z</time>
      </trkpt>
      <trkpt lat="50.77116" lon="2.82395">
        <ele>50</ele>
        <time>2018-10-16T10:51:07.378Z</time>
      </trkpt>
      <trkpt lat="50.77079" lon="2.82303">
        <ele>47</ele>
        <time>2018-10-16T10:51:08.378Z</time>
      </trkpt>
      <trkpt lat="50.77068" lon="2.82288">
        <ele>47</ele>
        <time>2018-10-16T10:51:09.378Z</time>
      </trkpt>
      <trkpt lat="50.7707" lon="2.82266">
        <ele>47</ele>
        <time>2018-10-16T10:51:10.378Z</time>
      </trkpt>
      <trkpt lat="50.7707" lon="2.82267">
        <ele>47</ele>
        <time>2018-10-16T10:51:11.378Z</time>
      </trkpt>
      <trkpt lat="50.7707" lon="2.82217">
        <ele>47</ele>
        <time>2018-10-16T10:51:12.378Z</time>
      </trkpt>
      <trkpt lat="50.77066" lon="2.82153">
        <ele>48</ele>
        <time>2018-10-16T10:51:13.378Z</time>
      </trkpt>
      <trkpt lat="50.77062" lon="2.82126">
        <ele>48</ele>
        <time>2018-10-16T10:51:14.378Z</time>
      </trkpt>
      <trkpt lat="50.77052" lon="2.82074">
        <ele>48</ele>
        <time>2018-10-16T10:51:15.378Z</time>
      </trkpt>
      <trkpt lat="50.77037" lon="2.82027">
        <ele>49</ele>
        <time>2018-10-16T10:51:16.378Z</time>
      </trkpt>
      <trkpt lat="50.7701" lon="2.8196">
        <ele>51</ele>
        <time>2018-10-16T10:51:17.378Z</time>
      </trkpt>
      <trkpt lat="50.76874" lon="2.81696">
        <ele>50</ele>
        <time>2018-10-16T10:51:18.378Z</time>
      </trkpt>
      <trkpt lat="50.76847" lon="2.81631">
        <ele>48</ele>
        <time>2018-10-16T10:51:19.378Z</time>
      </trkpt>
      <trkpt lat="50.7682" lon="2.81554">
        <ele>46</ele>
        <time>2018-10-16T10:51:20.378Z</time>
      </trkpt>
      <trkpt lat="50.76809" lon="2.81512">
        <ele>44</ele>
        <time>2018-10-16T10:51:21.378Z</time>
      </trkpt>
      <trkpt lat="50.76775" lon="2.81535">
        <ele>44</ele>
        <time>2018-10-16T10:51:22.378Z</time>
      </trkpt>
      <trkpt lat="50.76736" lon="2.81566">
        <ele>43</ele>
        <time>2018-10-16T10:51:23.378Z</time>
      </trkpt>
      <trkpt lat="50.76736" lon="2.81567">
        <ele>43</ele>
        <time>2018-10-16T10:51:24.378Z</time>
      </trkpt>
      <trkpt lat="50.76703" lon="2.81594">
        <ele>42</ele>
        <time>2018-10-16T10:51:25.378Z</time>
      </trkpt>
      <trkpt lat="50.76504" lon="2.8172">
        <ele>34</ele>
        <time>2018-10-16T10:51:26.378Z</time>
      </trkpt>
      <trkpt lat="50.7649" lon="2.81739">
        <ele>34</ele>
        <time>2018-10-16T10:51:27.378Z</time>
      </trkpt>
      <trkpt lat="50.76463" lon="2.81778">
        <ele>35</ele>
        <time>2018-10-16T10:51:28.378Z</time>
      </trkpt>
      <trkpt lat="50.76443" lon="2.81811">
        <ele>35</ele>
        <time>2018-10-16T10:51:29.378Z</time>
      </trkpt>
      <trkpt lat="50.76351" lon="2.81917">
        <ele>33</ele>
        <time>2018-10-16T10:51:30.378Z</time>
      </trkpt>
      <trkpt lat="50.76318" lon="2.81961">
        <ele>32</ele>
        <time>2018-10-16T10:51:31.378Z</time>
      </trkpt>
      <trkpt lat="50.76203" lon="2.82041">
        <ele>30</ele>
        <time>2018-10-16T10:51:32.378Z</time>
      </trkpt>
      <trkpt lat="50.76082" lon="2.82133">
        <ele>29</ele>
        <time>2018-10-16T10:51:33.378Z</time>
      </trkpt>
      <trkpt lat="50.76048" lon="2.82141">
        <ele>30</ele>
        <time>2018-10-16T10:51:34.378Z</time>
      </trkpt>
      <trkpt lat="50.76048" lon="2.82142">
        <ele>30</ele>
        <time>2018-10-16T10:51:35.378Z</time>
      </trkpt>
      <trkpt lat="50.76049" lon="2.82143">
        <ele>30</ele>
        <time>2018-10-16T10:51:36.378Z</time>
      </trkpt>
      <trkpt lat="50.76047" lon="2.8212">
        <ele>30</ele>
        <time>2018-10-16T10:51:37.378Z</time>
      </trkpt>
      <trkpt lat="50.76047" lon="2.82079">
        <ele>30</ele>
        <time>2018-10-16T10:51:38.378Z</time>
      </trkpt>
      <trkpt lat="50.76057" lon="2.81982">
        <ele>30</ele>
        <time>2018-10-16T10:51:39.378Z</time>
      </trkpt>
      <trkpt lat="50.76061" lon="2.81876">
        <ele>29</ele>
        <time>2018-10-16T10:51:40.378Z</time>
      </trkpt>
      <trkpt lat="50.76048" lon="2.81709">
        <ele>28</ele>
        <time>2018-10-16T10:51:41.378Z</time>
      </trkpt>
      <trkpt lat="50.76045" lon="2.81685">
        <ele>28</ele>
        <time>2018-10-16T10:51:42.378Z</time>
      </trkpt>
      <trkpt lat="50.76039" lon="2.81662">
        <ele>28</ele>
        <time>2018-10-16T10:51:43.378Z</time>
      </trkpt>
      <trkpt lat="50.76029" lon="2.81645">
        <ele>28</ele>
        <time>2018-10-16T10:51:44.378Z</time>
      </trkpt>
      <trkpt lat="50.76009" lon="2.81631">
        <ele>28</ele>
        <time>2018-10-16T10:51:45.378Z</time>
      </trkpt>
      <trkpt lat="50.76004" lon="2.81624">
        <ele>28</ele>
        <time>2018-10-16T10:51:46.378Z</time>
      </trkpt>
      <trkpt lat="50.75962" lon="2.81526">
        <ele>31</ele>
        <time>2018-10-16T10:51:47.378Z</time>
      </trkpt>
      <trkpt lat="50.7594" lon="2.81491">
        <ele>31</ele>
        <time>2018-10-16T10:51:48.378Z</time>
      </trkpt>
      <trkpt lat="50.75916" lon="2.81447">
        <ele>31</ele>
        <time>2018-10-16T10:51:49.378Z</time>
      </trkpt>
      <trkpt lat="50.75894" lon="2.81398">
        <ele>32</ele>
        <time>2018-10-16T10:51:50.378Z</time>
      </trkpt>
      <trkpt lat="50.75847" lon="2.81299">
        <ele>33</ele>
        <time>2018-10-16T10:51:51.378Z</time>
      </trkpt>
      <trkpt lat="50.7575" lon="2.81133">
        <ele>34</ele>
        <time>2018-10-16T10:51:52.378Z</time>
      </trkpt>
      <trkpt lat="50.75703" lon="2.81034">
        <ele>35</ele>
        <time>2018-10-16T10:51:53.378Z</time>
      </trkpt>
      <trkpt lat="50.75656" lon="2.80942">
        <ele>37</ele>
        <time>2018-10-16T10:51:54.378Z</time>
      </trkpt>
      <trkpt lat="50.7561" lon="2.80857">
        <ele>39</ele>
        <time>2018-10-16T10:51:55.378Z</time>
      </trkpt>
      <trkpt lat="50.75603" lon="2.80863">
        <ele>40</ele>
        <time>2018-10-16T10:51:56.378Z</time>
      </trkpt>
      <trkpt lat="50.75576" lon="2.80896">
        <ele>41</ele>
        <time>2018-10-16T10:51:57.378Z</time>
      </trkpt>
      <trkpt lat="50.75576" lon="2.80898">
        <ele>41</ele>
        <time>2018-10-16T10:51:58.378Z</time>
      </trkpt>
      <trkpt lat="50.75557" lon="2.80921">
        <ele>41</ele>
        <time>2018-10-16T10:51:59.378Z</time>
      </trkpt>
      <trkpt lat="50.75519" lon="2.80975">
        <ele>43</ele>
        <time>2018-10-16T10:52:00.378Z</time>
      </trkpt>
      <trkpt lat="50.75409" lon="2.81154">
        <ele>43</ele>
        <time>2018-10-16T10:52:01.378Z</time>
      </trkpt>
      <trkpt lat="50.75394" lon="2.81173">
        <ele>43</ele>
        <time>2018-10-16T10:52:02.378Z</time>
      </trkpt>
      <trkpt lat="50.75381" lon="2.81184">
        <ele>43</ele>
        <time>2018-10-16T10:52:03.378Z</time>
      </trkpt>
      <trkpt lat="50.75344" lon="2.81199">
        <ele>42</ele>
        <time>2018-10-16T10:52:04.378Z</time>
      </trkpt>
      <trkpt lat="50.75317" lon="2.8122">
        <ele>41</ele>
        <time>2018-10-16T10:52:05.378Z</time>
      </trkpt>
      <trkpt lat="50.75309" lon="2.81225">
        <ele>41</ele>
        <time>2018-10-16T10:52:06.378Z</time>
      </trkpt>
      <trkpt lat="50.75301" lon="2.81223">
        <ele>41</ele>
        <time>2018-10-16T10:52:07.378Z</time>
      </trkpt>
      <trkpt lat="50.75244" lon="2.81147">
        <ele>41</ele>
        <time>2018-10-16T10:52:08.378Z</time>
      </trkpt>
      <trkpt lat="50.75191" lon="2.8108">
        <ele>40</ele>
        <time>2018-10-16T10:52:09.378Z</time>
      </trkpt>
      <trkpt lat="50.7518" lon="2.81073">
        <ele>40</ele>
        <time>2018-10-16T10:52:10.378Z</time>
      </trkpt>
      <trkpt lat="50.75171" lon="2.81074">
        <ele>40</ele>
        <time>2018-10-16T10:52:11.378Z</time>
      </trkpt>
      <trkpt lat="50.75156" lon="2.8108">
        <ele>40</ele>
        <time>2018-10-16T10:52:12.378Z</time>
      </trkpt>
      <trkpt lat="50.75155" lon="2.81098">
        <ele>40</ele>
        <time>2018-10-16T10:52:13.378Z</time>
      </trkpt>
      <trkpt lat="50.7515" lon="2.81116">
        <ele>40</ele>
        <time>2018-10-16T10:52:14.378Z</time>
      </trkpt>
      <trkpt lat="50.75131" lon="2.8116">
        <ele>39</ele>
        <time>2018-10-16T10:52:15.378Z</time>
      </trkpt>
      <trkpt lat="50.75131" lon="2.8116">
        <ele>39</ele>
        <time>2018-10-16T10:52:16.378Z</time>
      </trkpt>
      <trkpt lat="50.75084" lon="2.81261">
        <ele>36</ele>
        <time>2018-10-16T10:52:17.378Z</time>
      </trkpt>
      <trkpt lat="50.75031" lon="2.81399">
        <ele>44</ele>
        <time>2018-10-16T10:52:18.378Z</time>
      </trkpt>
      <trkpt lat="50.75001" lon="2.81511">
        <ele>50</ele>
        <time>2018-10-16T10:52:19.378Z</time>
      </trkpt>
      <trkpt lat="50.74995" lon="2.81555">
        <ele>52</ele>
        <time>2018-10-16T10:52:20.378Z</time>
      </trkpt>
      <trkpt lat="50.74974" lon="2.81643">
        <ele>55</ele>
        <time>2018-10-16T10:52:21.378Z</time>
      </trkpt>
      <trkpt lat="50.74974" lon="2.81663">
        <ele>56</ele>
        <time>2018-10-16T10:52:22.378Z</time>
      </trkpt>
      <trkpt lat="50.74987" lon="2.81701">
        <ele>56</ele>
        <time>2018-10-16T10:52:23.378Z</time>
      </trkpt>
      <trkpt lat="50.74984" lon="2.81731">
        <ele>56</ele>
        <time>2018-10-16T10:52:24.378Z</time>
      </trkpt>
      <trkpt lat="50.74956" lon="2.81871">
        <ele>60</ele>
        <time>2018-10-16T10:52:25.378Z</time>
      </trkpt>
      <trkpt lat="50.74958" lon="2.81923">
        <ele>61</ele>
        <time>2018-10-16T10:52:26.378Z</time>
      </trkpt>
      <trkpt lat="50.74954" lon="2.82154">
        <ele>61</ele>
        <time>2018-10-16T10:52:27.378Z</time>
      </trkpt>
      <trkpt lat="50.74953" lon="2.82172">
        <ele>61</ele>
        <time>2018-10-16T10:52:28.378Z</time>
      </trkpt>
      <trkpt lat="50.74954" lon="2.82173">
        <ele>61</ele>
        <time>2018-10-16T10:52:29.378Z</time>
      </trkpt>
      <trkpt lat="50.74947" lon="2.82195">
        <ele>60</ele>
        <time>2018-10-16T10:52:30.378Z</time>
      </trkpt>
      <trkpt lat="50.74896" lon="2.82193">
        <ele>62</ele>
        <time>2018-10-16T10:52:31.378Z</time>
      </trkpt>
      <trkpt lat="50.74853" lon="2.82187">
        <ele>64</ele>
        <time>2018-10-16T10:52:32.378Z</time>
      </trkpt>
      <trkpt lat="50.74821" lon="2.82188">
        <ele>65</ele>
        <time>2018-10-16T10:52:33.378Z</time>
      </trkpt>
      <trkpt lat="50.7472" lon="2.82201">
        <ele>66</ele>
        <time>2018-10-16T10:52:34.378Z</time>
      </trkpt>
      <trkpt lat="50.7472" lon="2.82201">
        <ele>66</ele>
        <time>2018-10-16T10:52:35.378Z</time>
      </trkpt>
      <trkpt lat="50.74717" lon="2.82206">
        <ele>66</ele>
        <time>2018-10-16T10:52:36.378Z</time>
      </trkpt>
      <trkpt lat="50.74697" lon="2.82215">
        <ele>67</ele>
        <time>2018-10-16T10:52:37.378Z</time>
      </trkpt>
      <trkpt lat="50.74603" lon="2.82255">
        <ele>64</ele>
        <time>2018-10-16T10:52:38.378Z</time>
      </trkpt>
      <trkpt lat="50.7452" lon="2.82305">
        <ele>63</ele>
        <time>2018-10-16T10:52:39.378Z</time>
      </trkpt>
      <trkpt lat="50.74512" lon="2.82294">
        <ele>63</ele>
        <time>2018-10-16T10:52:40.378Z</time>
      </trkpt>
      <trkpt lat="50.74514" lon="2.82285">
        <ele>63</ele>
        <time>2018-10-16T10:52:41.378Z</time>
      </trkpt>
      <trkpt lat="50.74512" lon="2.82274">
        <ele>63</ele>
        <time>2018-10-16T10:52:42.378Z</time>
      </trkpt>
      <trkpt lat="50.74485" lon="2.8218">
        <ele>66</ele>
        <time>2018-10-16T10:52:43.378Z</time>
      </trkpt>
      <trkpt lat="50.74403" lon="2.81966">
        <ele>70</ele>
        <time>2018-10-16T10:52:44.378Z</time>
      </trkpt>
      <trkpt lat="50.74403" lon="2.81965">
        <ele>70</ele>
        <time>2018-10-16T10:52:45.378Z</time>
      </trkpt>
      <trkpt lat="50.74356" lon="2.81853">
        <ele>71</ele>
        <time>2018-10-16T10:52:46.378Z</time>
      </trkpt>
      <trkpt lat="50.74311" lon="2.8172">
        <ele>74</ele>
        <time>2018-10-16T10:52:47.378Z</time>
      </trkpt>
      <trkpt lat="50.74277" lon="2.8163">
        <ele>74</ele>
        <time>2018-10-16T10:52:48.378Z</time>
      </trkpt>
      <trkpt lat="50.74253" lon="2.81578">
        <ele>74</ele>
        <time>2018-10-16T10:52:49.378Z</time>
      </trkpt>
      <trkpt lat="50.74228" lon="2.8153">
        <ele>72</ele>
        <time>2018-10-16T10:52:50.378Z</time>
      </trkpt>
      <trkpt lat="50.74214" lon="2.81489">
        <ele>72</ele>
        <time>2018-10-16T10:52:51.378Z</time>
      </trkpt>
      <trkpt lat="50.7419" lon="2.81379">
        <ele>72</ele>
        <time>2018-10-16T10:52:52.378Z</time>
      </trkpt>
      <trkpt lat="50.74152" lon="2.81171">
        <ele>70</ele>
        <time>2018-10-16T10:52:53.378Z</time>
      </trkpt>
      <trkpt lat="50.74127" lon="2.81181">
        <ele>70</ele>
        <time>2018-10-16T10:52:54.378Z</time>
      </trkpt>
      <trkpt lat="50.74098" lon="2.81198">
        <ele>69</ele>
        <time>2018-10-16T10:52:55.378Z</time>
      </trkpt>
      <trkpt lat="50.74052" lon="2.8124">
        <ele>65</ele>
        <time>2018-10-16T10:52:56.378Z</time>
      </trkpt>
      <trkpt lat="50.74028" lon="2.81258">
        <ele>63</ele>
        <time>2018-10-16T10:52:57.378Z</time>
      </trkpt>
      <trkpt lat="50.74003" lon="2.8127">
        <ele>61</ele>
        <time>2018-10-16T10:52:58.378Z</time>
      </trkpt>
      <trkpt lat="50.73979" lon="2.81272">
        <ele>60</ele>
        <time>2018-10-16T10:52:59.378Z</time>
      </trkpt>
      <trkpt lat="50.73947" lon="2.8128">
        <ele>58</ele>
        <time>2018-10-16T10:53:00.378Z</time>
      </trkpt>
      <trkpt lat="50.73917" lon="2.81278">
        <ele>56</ele>
        <time>2018-10-16T10:53:01.378Z</time>
      </trkpt>
      <trkpt lat="50.73891" lon="2.81272">
        <ele>55</ele>
        <time>2018-10-16T10:53:02.378Z</time>
      </trkpt>
      <trkpt lat="50.7387" lon="2.8127">
        <ele>53</ele>
        <time>2018-10-16T10:53:03.378Z</time>
      </trkpt>
      <trkpt lat="50.73825" lon="2.8127">
        <ele>51</ele>
        <time>2018-10-16T10:53:04.378Z</time>
      </trkpt>
      <trkpt lat="50.7377" lon="2.81276">
        <ele>48</ele>
        <time>2018-10-16T10:53:05.378Z</time>
      </trkpt>
      <trkpt lat="50.7377" lon="2.81276">
        <ele>48</ele>
        <time>2018-10-16T10:53:06.378Z</time>
      </trkpt>
      <trkpt lat="50.73719" lon="2.81286">
        <ele>46</ele>
        <time>2018-10-16T10:53:07.378Z</time>
      </trkpt>
      <trkpt lat="50.73661" lon="2.8132">
        <ele>45</ele>
        <time>2018-10-16T10:53:08.378Z</time>
      </trkpt>
      <trkpt lat="50.73641" lon="2.81339">
        <ele>44</ele>
        <time>2018-10-16T10:53:09.378Z</time>
      </trkpt>
      <trkpt lat="50.73594" lon="2.81356">
        <ele>42</ele>
        <time>2018-10-16T10:53:10.378Z</time>
      </trkpt>
      <trkpt lat="50.7355" lon="2.81059">
        <ele>40</ele>
        <time>2018-10-16T10:53:11.378Z</time>
      </trkpt>
      <trkpt lat="50.73453" lon="2.81077">
        <ele>38</ele>
        <time>2018-10-16T10:53:12.378Z</time>
      </trkpt>
      <trkpt lat="50.73427" lon="2.81077">
        <ele>38</ele>
        <time>2018-10-16T10:53:13.378Z</time>
      </trkpt>
      <trkpt lat="50.73404" lon="2.81066">
        <ele>37</ele>
        <time>2018-10-16T10:53:14.378Z</time>
      </trkpt>
      <trkpt lat="50.7337" lon="2.81045">
        <ele>36</ele>
        <time>2018-10-16T10:53:15.378Z</time>
      </trkpt>
      <trkpt lat="50.73361" lon="2.81036">
        <ele>36</ele>
        <time>2018-10-16T10:53:16.378Z</time>
      </trkpt>
      <trkpt lat="50.73361" lon="2.81036">
        <ele>36</ele>
        <time>2018-10-16T10:53:17.378Z</time>
      </trkpt>
      <trkpt lat="50.73339" lon="2.81017">
        <ele>35</ele>
        <time>2018-10-16T10:53:18.378Z</time>
      </trkpt>
      <trkpt lat="50.7331" lon="2.80977">
        <ele>33</ele>
        <time>2018-10-16T10:53:19.378Z</time>
      </trkpt>
      <trkpt lat="50.73276" lon="2.80944">
        <ele>30</ele>
        <time>2018-10-16T10:53:20.378Z</time>
      </trkpt>
      <trkpt lat="50.73181" lon="2.80872">
        <ele>21</ele>
        <time>2018-10-16T10:53:21.378Z</time>
      </trkpt>
      <trkpt lat="50.73116" lon="2.8083">
        <ele>20</ele>
        <time>2018-10-16T10:53:22.378Z</time>
      </trkpt>
      <trkpt lat="50.73091" lon="2.80808">
        <ele>20</ele>
        <time>2018-10-16T10:53:23.378Z</time>
      </trkpt>
      <trkpt lat="50.73078" lon="2.80763">
        <ele>19</ele>
        <time>2018-10-16T10:53:24.378Z</time>
      </trkpt>
      <trkpt lat="50.73038" lon="2.80729">
        <ele>18</ele>
        <time>2018-10-16T10:53:25.378Z</time>
      </trkpt>
      <trkpt lat="50.72961" lon="2.80651">
        <ele>16</ele>
        <time>2018-10-16T10:53:26.378Z</time>
      </trkpt>
      <trkpt lat="50.72891" lon="2.8059">
        <ele>17</ele>
        <time>2018-10-16T10:53:27.378Z</time>
      </trkpt>
      <trkpt lat="50.72861" lon="2.80572">
        <ele>18</ele>
        <time>2018-10-16T10:53:28.378Z</time>
      </trkpt>
      <trkpt lat="50.72801" lon="2.80517">
        <ele>18</ele>
        <time>2018-10-16T10:53:29.378Z</time>
      </trkpt>
      <trkpt lat="50.72782" lon="2.80503">
        <ele>18</ele>
        <time>2018-10-16T10:53:30.378Z</time>
      </trkpt>
      <trkpt lat="50.72759" lon="2.80494">
        <ele>18</ele>
        <time>2018-10-16T10:53:31.378Z</time>
      </trkpt>
      <trkpt lat="50.72704" lon="2.80481">
        <ele>17</ele>
        <time>2018-10-16T10:53:32.378Z</time>
      </trkpt>
      <trkpt lat="50.72711" lon="2.80412">
        <ele>17</ele>
        <time>2018-10-16T10:53:33.378Z</time>
      </trkpt>
      <trkpt lat="50.72712" lon="2.80412">
        <ele>17</ele>
        <time>2018-10-16T10:53:34.378Z</time>
      </trkpt>
      <trkpt lat="50.72726" lon="2.80281">
        <ele>17</ele>
        <time>2018-10-16T10:53:35.378Z</time>
      </trkpt>
      <trkpt lat="50.72746" lon="2.8015">
        <ele>19</ele>
        <time>2018-10-16T10:53:36.378Z</time>
      </trkpt>
      <trkpt lat="50.72764" lon="2.80044">
        <ele>18</ele>
        <time>2018-10-16T10:53:37.378Z</time>
      </trkpt>
      <trkpt lat="50.72694" lon="2.8003">
        <ele>19</ele>
        <time>2018-10-16T10:53:38.378Z</time>
      </trkpt>
      <trkpt lat="50.72666" lon="2.80022">
        <ele>20</ele>
        <time>2018-10-16T10:53:39.378Z</time>
      </trkpt>
      <trkpt lat="50.72613" lon="2.79986">
        <ele>19</ele>
        <time>2018-10-16T10:53:40.378Z</time>
      </trkpt>
      <trkpt lat="50.72582" lon="2.79962">
        <ele>19</ele>
        <time>2018-10-16T10:53:41.378Z</time>
      </trkpt>
      <trkpt lat="50.72521" lon="2.79901">
        <ele>19</ele>
        <time>2018-10-16T10:53:42.378Z</time>
      </trkpt>
      <trkpt lat="50.72503" lon="2.79889">
        <ele>19</ele>
        <time>2018-10-16T10:53:43.378Z</time>
      </trkpt>
      <trkpt lat="50.7247" lon="2.79877">
        <ele>19</ele>
        <time>2018-10-16T10:53:44.378Z</time>
      </trkpt>
      <trkpt lat="50.72457" lon="2.79867">
        <ele>19</ele>
        <time>2018-10-16T10:53:45.378Z</time>
      </trkpt>
      <trkpt lat="50.72429" lon="2.79835">
        <ele>19</ele>
        <time>2018-10-16T10:53:46.378Z</time>
      </trkpt>
      <trkpt lat="50.72386" lon="2.79796">
        <ele>19</ele>
        <time>2018-10-16T10:53:47.378Z</time>
      </trkpt>
      <trkpt lat="50.7231" lon="2.79737">
        <ele>19</ele>
        <time>2018-10-16T10:53:48.378Z</time>
      </trkpt>
      <trkpt lat="50.72274" lon="2.79713">
        <ele>18</ele>
        <time>2018-10-16T10:53:49.378Z</time>
      </trkpt>
      <trkpt lat="50.72333" lon="2.79556">
        <ele>17</ele>
        <time>2018-10-16T10:53:50.378Z</time>
      </trkpt>
      <trkpt lat="50.72319" lon="2.79546">
        <ele>17</ele>
        <time>2018-10-16T10:53:51.378Z</time>
      </trkpt>
      <trkpt lat="50.72163" lon="2.79644">
        <ele>17</ele>
        <time>2018-10-16T10:53:52.378Z</time>
      </trkpt>
      <trkpt lat="50.72156" lon="2.79646">
        <ele>17</ele>
        <time>2018-10-16T10:53:53.378Z</time>
      </trkpt>
      <trkpt lat="50.72156" lon="2.79646">
        <ele>17</ele>
        <time>2018-10-16T10:53:54.378Z</time>
      </trkpt>
      <trkpt lat="50.7194" lon="2.7971">
        <ele>17</ele>
        <time>2018-10-16T10:53:55.378Z</time>
      </trkpt>
      <trkpt lat="50.71846" lon="2.79726">
        <ele>18</ele>
        <time>2018-10-16T10:53:56.378Z</time>
      </trkpt>
      <trkpt lat="50.71789" lon="2.79741">
        <ele>17</ele>
        <time>2018-10-16T10:53:57.378Z</time>
      </trkpt>
      <trkpt lat="50.71739" lon="2.79783">
        <ele>17</ele>
        <time>2018-10-16T10:53:58.378Z</time>
      </trkpt>
      <trkpt lat="50.71671" lon="2.79818">
        <ele>17</ele>
        <time>2018-10-16T10:53:59.378Z</time>
      </trkpt>
      <trkpt lat="50.71638" lon="2.79922">
        <ele>16</ele>
        <time>2018-10-16T10:54:00.378Z</time>
      </trkpt>
      <trkpt lat="50.7158" lon="2.79887">
        <ele>17</ele>
        <time>2018-10-16T10:54:01.378Z</time>
      </trkpt>
      <trkpt lat="50.71557" lon="2.79856">
        <ele>17</ele>
        <time>2018-10-16T10:54:02.378Z</time>
      </trkpt>
      <trkpt lat="50.7155" lon="2.7984">
        <ele>17</ele>
        <time>2018-10-16T10:54:03.378Z</time>
      </trkpt>
      <trkpt lat="50.71551" lon="2.79839">
        <ele>17</ele>
        <time>2018-10-16T10:54:04.378Z</time>
      </trkpt>
      <trkpt lat="50.71541" lon="2.79815">
        <ele>18</ele>
        <time>2018-10-16T10:54:05.378Z</time>
      </trkpt>
      <trkpt lat="50.71509" lon="2.79692">
        <ele>17</ele>
        <time>2018-10-16T10:54:06.378Z</time>
      </trkpt>
      <trkpt lat="50.71427" lon="2.79475">
        <ele>16</ele>
        <time>2018-10-16T10:54:07.378Z</time>
      </trkpt>
      <trkpt lat="50.71413" lon="2.79432">
        <ele>17</ele>
        <time>2018-10-16T10:54:08.378Z</time>
      </trkpt>
      <trkpt lat="50.714" lon="2.7937">
        <ele>16</ele>
        <time>2018-10-16T10:54:09.378Z</time>
      </trkpt>
      <trkpt lat="50.71293" lon="2.78849">
        <ele>16</ele>
        <time>2018-10-16T10:54:10.378Z</time>
      </trkpt>
      <trkpt lat="50.71293" lon="2.78799">
        <ele>16</ele>
        <time>2018-10-16T10:54:11.378Z</time>
      </trkpt>
      <trkpt lat="50.7127" lon="2.78803">
        <ele>17</ele>
        <time>2018-10-16T10:54:12.378Z</time>
      </trkpt>
      <trkpt lat="50.71266" lon="2.78807">
        <ele>17</ele>
        <time>2018-10-16T10:54:13.378Z</time>
      </trkpt>
      <trkpt lat="50.71118" lon="2.79185">
        <ele>16</ele>
        <time>2018-10-16T10:54:14.378Z</time>
      </trkpt>
      <trkpt lat="50.71119" lon="2.79186">
        <ele>16</ele>
        <time>2018-10-16T10:54:15.378Z</time>
      </trkpt>
      <trkpt lat="50.70828" lon="2.79934">
        <ele>16</ele>
        <time>2018-10-16T10:54:16.378Z</time>
      </trkpt>
      <trkpt lat="50.7059" lon="2.80551">
        <ele>18</ele>
        <time>2018-10-16T10:54:17.378Z</time>
      </trkpt>
      <trkpt lat="50.7055" lon="2.8051">
        <ele>17</ele>
        <time>2018-10-16T10:54:18.378Z</time>
      </trkpt>
      <trkpt lat="50.70526" lon="2.80481">
        <ele>16</ele>
        <time>2018-10-16T10:54:19.378Z</time>
      </trkpt>
      <trkpt lat="50.70522" lon="2.8051">
        <ele>16</ele>
        <time>2018-10-16T10:54:20.378Z</time>
      </trkpt>
      <trkpt lat="50.70519" lon="2.80646">
        <ele>16</ele>
        <time>2018-10-16T10:54:21.378Z</time>
      </trkpt>
      <trkpt lat="50.70517" lon="2.80659">
        <ele>16</ele>
        <time>2018-10-16T10:54:22.378Z</time>
      </trkpt>
      <trkpt lat="50.70514" lon="2.80672">
        <ele>16</ele>
        <time>2018-10-16T10:54:23.378Z</time>
      </trkpt>
      <trkpt lat="50.70483" lon="2.8075">
        <ele>16</ele>
        <time>2018-10-16T10:54:24.378Z</time>
      </trkpt>
      <trkpt lat="50.70469" lon="2.80766">
        <ele>16</ele>
        <time>2018-10-16T10:54:25.378Z</time>
      </trkpt>
      <trkpt lat="50.70429" lon="2.80793">
        <ele>16</ele>
        <time>2018-10-16T10:54:26.378Z</time>
      </trkpt>
      <trkpt lat="50.70401" lon="2.80803">
        <ele>16</ele>
        <time>2018-10-16T10:54:27.378Z</time>
      </trkpt>
      <trkpt lat="50.70346" lon="2.80842">
        <ele>16</ele>
        <time>2018-10-16T10:54:28.378Z</time>
      </trkpt>
      <trkpt lat="50.70319" lon="2.80863">
        <ele>16</ele>
        <time>2018-10-16T10:54:29.378Z</time>
      </trkpt>
      <trkpt lat="50.70229" lon="2.80891">
        <ele>17</ele>
        <time>2018-10-16T10:54:30.378Z</time>
      </trkpt>
      <trkpt lat="50.70185" lon="2.80909">
        <ele>16</ele>
        <time>2018-10-16T10:54:31.378Z</time>
      </trkpt>
      <trkpt lat="50.7003" lon="2.8097">
        <ele>16</ele>
        <time>2018-10-16T10:54:32.378Z</time>
      </trkpt>
      <trkpt lat="50.69954" lon="2.81011">
        <ele>17</ele>
        <time>2018-10-16T10:54:33.378Z</time>
      </trkpt>
      <trkpt lat="50.69946" lon="2.8102">
        <ele>17</ele>
        <time>2018-10-16T10:54:34.378Z</time>
      </trkpt>
      <trkpt lat="50.69954" lon="2.81029">
        <ele>17</ele>
        <time>2018-10-16T10:54:35.378Z</time>
      </trkpt>
      <trkpt lat="50.70026" lon="2.8107">
        <ele>17</ele>
        <time>2018-10-16T10:54:36.378Z</time>
      </trkpt>
      <trkpt lat="50.70038" lon="2.81089">
        <ele>17</ele>
        <time>2018-10-16T10:54:37.378Z</time>
      </trkpt>
      <trkpt lat="50.70046" lon="2.81108">
        <ele>17</ele>
        <time>2018-10-16T10:54:38.378Z</time>
      </trkpt>
      <trkpt lat="50.70053" lon="2.81144">
        <ele>17</ele>
        <time>2018-10-16T10:54:39.378Z</time>
      </trkpt>
      <trkpt lat="50.70053" lon="2.81143">
        <ele>17</ele>
        <time>2018-10-16T10:54:40.378Z</time>
      </trkpt>
      <trkpt lat="50.7008" lon="2.8128">
        <ele>16</ele>
        <time>2018-10-16T10:54:41.378Z</time>
      </trkpt>
      <trkpt lat="50.70092" lon="2.81407">
        <ele>17</ele>
        <time>2018-10-16T10:54:42.378Z</time>
      </trkpt>
      <trkpt lat="50.70131" lon="2.81644">
        <ele>16</ele>
        <time>2018-10-16T10:54:43.378Z</time>
      </trkpt>
      <trkpt lat="50.70133" lon="2.81649">
        <ele>16</ele>
        <time>2018-10-16T10:54:44.378Z</time>
      </trkpt>
      <trkpt lat="50.70164" lon="2.81684">
        <ele>16</ele>
        <time>2018-10-16T10:54:45.378Z</time>
      </trkpt>
      <trkpt lat="50.7017" lon="2.81689">
        <ele>16</ele>
        <time>2018-10-16T10:54:46.378Z</time>
      </trkpt>
      <trkpt lat="50.70144" lon="2.8172">
        <ele>17</ele>
        <time>2018-10-16T10:54:47.378Z</time>
      </trkpt>
      <trkpt lat="50.70132" lon="2.81742">
        <ele>17</ele>
        <time>2018-10-16T10:54:48.378Z</time>
      </trkpt>
      <trkpt lat="50.7009" lon="2.81847">
        <ele>16</ele>
        <time>2018-10-16T10:54:49.378Z</time>
      </trkpt>
      <trkpt lat="50.7009" lon="2.81848">
        <ele>16</ele>
        <time>2018-10-16T10:54:50.378Z</time>
      </trkpt>
      <trkpt lat="50.69694" lon="2.8287">
        <ele>16</ele>
        <time>2018-10-16T10:54:51.378Z</time>
      </trkpt>
      <trkpt lat="50.69679" lon="2.82829">
        <ele>15</ele>
        <time>2018-10-16T10:54:52.378Z</time>
      </trkpt>
      <trkpt lat="50.69672" lon="2.82847">
        <ele>15</ele>
        <time>2018-10-16T10:54:53.378Z</time>
      </trkpt>
      <trkpt lat="50.69549" lon="2.83169">
        <ele>16</ele>
        <time>2018-10-16T10:54:54.378Z</time>
      </trkpt>
      <trkpt lat="50.69549" lon="2.8317">
        <ele>16</ele>
        <time>2018-10-16T10:54:55.378Z</time>
      </trkpt>
      <trkpt lat="50.69469" lon="2.8338">
        <ele>16</ele>
        <time>2018-10-16T10:54:56.378Z</time>
      </trkpt>
      <trkpt lat="50.69394" lon="2.83569">
        <ele>15</ele>
        <time>2018-10-16T10:54:57.378Z</time>
      </trkpt>
      <trkpt lat="50.69326" lon="2.83754">
        <ele>16</ele>
        <time>2018-10-16T10:54:58.378Z</time>
      </trkpt>
      <trkpt lat="50.69285" lon="2.83823">
        <ele>16</ele>
        <time>2018-10-16T10:54:59.378Z</time>
      </trkpt>
      <trkpt lat="50.69272" lon="2.83842">
        <ele>16</ele>
        <time>2018-10-16T10:55:00.378Z</time>
      </trkpt>
      <trkpt lat="50.69264" lon="2.83847">
        <ele>16</ele>
        <time>2018-10-16T10:55:01.378Z</time>
      </trkpt>
      <trkpt lat="50.69247" lon="2.83853">
        <ele>16</ele>
        <time>2018-10-16T10:55:02.378Z</time>
      </trkpt>
      <trkpt lat="50.6924" lon="2.83861">
        <ele>16</ele>
        <time>2018-10-16T10:55:03.378Z</time>
      </trkpt>
      <trkpt lat="50.69155" lon="2.83976">
        <ele>16</ele>
        <time>2018-10-16T10:55:04.378Z</time>
      </trkpt>
      <trkpt lat="50.6914" lon="2.83987">
        <ele>16</ele>
        <time>2018-10-16T10:55:05.378Z</time>
      </trkpt>
      <trkpt lat="50.69124" lon="2.8399">
        <ele>15</ele>
        <time>2018-10-16T10:55:06.378Z</time>
      </trkpt>
      <trkpt lat="50.69096" lon="2.83981">
        <ele>15</ele>
        <time>2018-10-16T10:55:07.378Z</time>
      </trkpt>
      <trkpt lat="50.69021" lon="2.83948">
        <ele>15</ele>
        <time>2018-10-16T10:55:08.378Z</time>
      </trkpt>
      <trkpt lat="50.69003" lon="2.83948">
        <ele>15</ele>
        <time>2018-10-16T10:55:09.378Z</time>
      </trkpt>
      <trkpt lat="50.68994" lon="2.83952">
        <ele>15</ele>
        <time>2018-10-16T10:55:10.378Z</time>
      </trkpt>
      <trkpt lat="50.68901" lon="2.84072">
        <ele>17</ele>
        <time>2018-10-16T10:55:11.378Z</time>
      </trkpt>
      <trkpt lat="50.68897" lon="2.84061">
        <ele>17</ele>
        <time>2018-10-16T10:55:12.378Z</time>
      </trkpt>
      <trkpt lat="50.68897" lon="2.84061">
        <ele>17</ele>
        <time>2018-10-16T10:55:13.378Z</time>
      </trkpt>
      <trkpt lat="50.6886" lon="2.83955">
        <ele>16</ele>
        <time>2018-10-16T10:55:14.378Z</time>
      </trkpt>
      <trkpt lat="50.6882" lon="2.83834">
        <ele>15</ele>
        <time>2018-10-16T10:55:15.378Z</time>
      </trkpt>
      <trkpt lat="50.68798" lon="2.83755">
        <ele>16</ele>
        <time>2018-10-16T10:55:16.378Z</time>
      </trkpt>
      <trkpt lat="50.68757" lon="2.83545">
        <ele>16</ele>
        <time>2018-10-16T10:55:17.378Z</time>
      </trkpt>
      <trkpt lat="50.68734" lon="2.83446">
        <ele>16</ele>
        <time>2018-10-16T10:55:18.378Z</time>
      </trkpt>
      <trkpt lat="50.68694" lon="2.83317">
        <ele>17</ele>
        <time>2018-10-16T10:55:19.378Z</time>
      </trkpt>
      <trkpt lat="50.68692" lon="2.83288">
        <ele>17</ele>
        <time>2018-10-16T10:55:20.378Z</time>
      </trkpt>
      <trkpt lat="50.68696" lon="2.83266">
        <ele>17</ele>
        <time>2018-10-16T10:55:21.378Z</time>
      </trkpt>
      <trkpt lat="50.68718" lon="2.83232">
        <ele>18</ele>
        <time>2018-10-16T10:55:22.378Z</time>
      </trkpt>
      <trkpt lat="50.68732" lon="2.83195">
        <ele>18</ele>
        <time>2018-10-16T10:55:23.378Z</time>
      </trkpt>
      <trkpt lat="50.68648" lon="2.83177">
        <ele>18</ele>
        <time>2018-10-16T10:55:24.378Z</time>
      </trkpt>
      <trkpt lat="50.68613" lon="2.8315">
        <ele>16</ele>
        <time>2018-10-16T10:55:25.378Z</time>
      </trkpt>
      <trkpt lat="50.68602" lon="2.83211">
        <ele>16</ele>
        <time>2018-10-16T10:55:26.378Z</time>
      </trkpt>
      <trkpt lat="50.68577" lon="2.83264">
        <ele>16</ele>
        <time>2018-10-16T10:55:27.378Z</time>
      </trkpt>
      <trkpt lat="50.68542" lon="2.83312">
        <ele>17</ele>
        <time>2018-10-16T10:55:28.378Z</time>
      </trkpt>
      <trkpt lat="50.68496" lon="2.83336">
        <ele>17</ele>
        <time>2018-10-16T10:55:29.378Z</time>
      </trkpt>
      <trkpt lat="50.68496" lon="2.83337">
        <ele>17</ele>
        <time>2018-10-16T10:55:30.378Z</time>
      </trkpt>
      <trkpt lat="50.68378" lon="2.83413">
        <ele>16</ele>
        <time>2018-10-16T10:55:31.378Z</time>
      </trkpt>
      <trkpt lat="50.68279" lon="2.83498">
        <ele>16</ele>
        <time>2018-10-16T10:55:32.378Z</time>
      </trkpt>
      <trkpt lat="50.68195" lon="2.83556">
        <ele>15</ele>
        <time>2018-10-16T10:55:33.378Z</time>
      </trkpt>
      <trkpt lat="50.68011" lon="2.83648">
        <ele>13</ele>
        <time>2018-10-16T10:55:34.378Z</time>
      </trkpt>
      <trkpt lat="50.67967" lon="2.83671">
        <ele>13</ele>
        <time>2018-10-16T10:55:35.378Z</time>
      </trkpt>
      <trkpt lat="50.67945" lon="2.83675">
        <ele>12</ele>
        <time>2018-10-16T10:55:36.378Z</time>
      </trkpt>
      <trkpt lat="50.67922" lon="2.83668">
        <ele>12</ele>
        <time>2018-10-16T10:55:37.378Z</time>
      </trkpt>
      <trkpt lat="50.67895" lon="2.83685">
        <ele>12</ele>
        <time>2018-10-16T10:55:38.378Z</time>
      </trkpt>
      <trkpt lat="50.67781" lon="2.83551">
        <ele>12</ele>
        <time>2018-10-16T10:55:39.378Z</time>
      </trkpt>
      <trkpt lat="50.67763" lon="2.83537">
        <ele>13</ele>
        <time>2018-10-16T10:55:40.378Z</time>
      </trkpt>
      <trkpt lat="50.67663" lon="2.83477">
        <ele>15</ele>
        <time>2018-10-16T10:55:41.378Z</time>
      </trkpt>
      <trkpt lat="50.67559" lon="2.83407">
        <ele>17</ele>
        <time>2018-10-16T10:55:42.378Z</time>
      </trkpt>
      <trkpt lat="50.67544" lon="2.83392">
        <ele>17</ele>
        <time>2018-10-16T10:55:43.378Z</time>
      </trkpt>
      <trkpt lat="50.67547" lon="2.83382">
        <ele>17</ele>
        <time>2018-10-16T10:55:44.378Z</time>
      </trkpt>
      <trkpt lat="50.67548" lon="2.83374">
        <ele>17</ele>
        <time>2018-10-16T10:55:45.378Z</time>
      </trkpt>
      <trkpt lat="50.67547" lon="2.83363">
        <ele>17</ele>
        <time>2018-10-16T10:55:46.378Z</time>
      </trkpt>
      <trkpt lat="50.67542" lon="2.83351">
        <ele>17</ele>
        <time>2018-10-16T10:55:47.378Z</time>
      </trkpt>
      <trkpt lat="50.67536" lon="2.83345">
        <ele>17</ele>
        <time>2018-10-16T10:55:48.378Z</time>
      </trkpt>
      <trkpt lat="50.6753" lon="2.83343">
        <ele>16</ele>
        <time>2018-10-16T10:55:49.378Z</time>
      </trkpt>
      <trkpt lat="50.6752" lon="2.83346">
        <ele>16</ele>
        <time>2018-10-16T10:55:50.378Z</time>
      </trkpt>
      <trkpt lat="50.67515" lon="2.83352">
        <ele>17</ele>
        <time>2018-10-16T10:55:51.378Z</time>
      </trkpt>
      <trkpt lat="50.6751" lon="2.83367">
        <ele>17</ele>
        <time>2018-10-16T10:55:52.378Z</time>
      </trkpt>
      <trkpt lat="50.67509" lon="2.83378">
        <ele>17</ele>
        <time>2018-10-16T10:55:53.378Z</time>
      </trkpt>
      <trkpt lat="50.67444" lon="2.83417">
        <ele>17</ele>
        <time>2018-10-16T10:55:54.378Z</time>
      </trkpt>
      <trkpt lat="50.67444" lon="2.83419">
        <ele>17</ele>
        <time>2018-10-16T10:55:55.378Z</time>
      </trkpt>
      <trkpt lat="50.67346" lon="2.83477">
        <ele>16</ele>
        <time>2018-10-16T10:55:56.378Z</time>
      </trkpt>
      <trkpt lat="50.67189" lon="2.83581">
        <ele>16</ele>
        <time>2018-10-16T10:55:57.378Z</time>
      </trkpt>
      <trkpt lat="50.67109" lon="2.83642">
        <ele>17</ele>
        <time>2018-10-16T10:55:58.378Z</time>
      </trkpt>
      <trkpt lat="50.6707" lon="2.83671">
        <ele>18</ele>
        <time>2018-10-16T10:55:59.378Z</time>
      </trkpt>
      <trkpt lat="50.67051" lon="2.83686">
        <ele>18</ele>
        <time>2018-10-16T10:56:00.378Z</time>
      </trkpt>
      <trkpt lat="50.67041" lon="2.83698">
        <ele>18</ele>
        <time>2018-10-16T10:56:01.378Z</time>
      </trkpt>
      <trkpt lat="50.67012" lon="2.83739">
        <ele>17</ele>
        <time>2018-10-16T10:56:02.378Z</time>
      </trkpt>
      <trkpt lat="50.6699" lon="2.83784">
        <ele>16</ele>
        <time>2018-10-16T10:56:03.378Z</time>
      </trkpt>
      <trkpt lat="50.66965" lon="2.83852">
        <ele>15</ele>
        <time>2018-10-16T10:56:04.378Z</time>
      </trkpt>
      <trkpt lat="50.6723" lon="2.8456">
        <ele>16</ele>
        <time>2018-10-16T10:56:05.378Z</time>
      </trkpt>
      <trkpt lat="50.67407" lon="2.85054">
        <ele>15</ele>
        <time>2018-10-16T10:56:06.378Z</time>
      </trkpt>
      <trkpt lat="50.67407" lon="2.85055">
        <ele>15</ele>
        <time>2018-10-16T10:56:07.378Z</time>
      </trkpt>
      <trkpt lat="50.67318" lon="2.85103">
        <ele>14</ele>
        <time>2018-10-16T10:56:08.378Z</time>
      </trkpt>
      <trkpt lat="50.67282" lon="2.85152">
        <ele>13</ele>
        <time>2018-10-16T10:56:09.378Z</time>
      </trkpt>
      <trkpt lat="50.67139" lon="2.85371">
        <ele>15</ele>
        <time>2018-10-16T10:56:10.378Z</time>
      </trkpt>
      <trkpt lat="50.67093" lon="2.85454">
        <ele>15</ele>
        <time>2018-10-16T10:56:11.378Z</time>
      </trkpt>
      <trkpt lat="50.66993" lon="2.85535">
        <ele>16</ele>
        <time>2018-10-16T10:56:12.378Z</time>
      </trkpt>
      <trkpt lat="50.66934" lon="2.85631">
        <ele>15</ele>
        <time>2018-10-16T10:56:13.378Z</time>
      </trkpt>
      <trkpt lat="50.6682" lon="2.85726">
        <ele>16</ele>
        <time>2018-10-16T10:56:14.378Z</time>
      </trkpt>
      <trkpt lat="50.66677" lon="2.85787">
        <ele>17</ele>
        <time>2018-10-16T10:56:15.378Z</time>
      </trkpt>
      <trkpt lat="50.66677" lon="2.85787">
        <ele>17</ele>
        <time>2018-10-16T10:56:16.378Z</time>
      </trkpt>
      <trkpt lat="50.66587" lon="2.85833">
        <ele>16</ele>
        <time>2018-10-16T10:56:17.378Z</time>
      </trkpt>
      <trkpt lat="50.66498" lon="2.85906">
        <ele>16</ele>
        <time>2018-10-16T10:56:18.378Z</time>
      </trkpt>
      <trkpt lat="50.66451" lon="2.8594">
        <ele>17</ele>
        <time>2018-10-16T10:56:19.378Z</time>
      </trkpt>
      <trkpt lat="50.66385" lon="2.85956">
        <ele>16</ele>
        <time>2018-10-16T10:56:20.378Z</time>
      </trkpt>
      <trkpt lat="50.6628" lon="2.85957">
        <ele>16</ele>
        <time>2018-10-16T10:56:21.378Z</time>
      </trkpt>
      <trkpt lat="50.66065" lon="2.86084">
        <ele>16</ele>
        <time>2018-10-16T10:56:22.378Z</time>
      </trkpt>
      <trkpt lat="50.66038" lon="2.85989">
        <ele>17</ele>
        <time>2018-10-16T10:56:23.378Z</time>
      </trkpt>
      <trkpt lat="50.65964" lon="2.85847">
        <ele>17</ele>
        <time>2018-10-16T10:56:24.378Z</time>
      </trkpt>
      <trkpt lat="50.65961" lon="2.85868">
        <ele>17</ele>
        <time>2018-10-16T10:56:25.378Z</time>
      </trkpt>
      <trkpt lat="50.65965" lon="2.8593">
        <ele>17</ele>
        <time>2018-10-16T10:56:26.378Z</time>
      </trkpt>
      <trkpt lat="50.65981" lon="2.85999">
        <ele>17</ele>
        <time>2018-10-16T10:56:27.378Z</time>
      </trkpt>
      <trkpt lat="50.65965" lon="2.86064">
        <ele>17</ele>
        <time>2018-10-16T10:56:28.378Z</time>
      </trkpt>
      <trkpt lat="50.6594" lon="2.86087">
        <ele>16</ele>
        <time>2018-10-16T10:56:29.378Z</time>
      </trkpt>
      <trkpt lat="50.65941" lon="2.86087">
        <ele>16</ele>
        <time>2018-10-16T10:56:30.378Z</time>
      </trkpt>
      <trkpt lat="50.6548" lon="2.86517">
        <ele>17</ele>
        <time>2018-10-16T10:56:31.378Z</time>
      </trkpt>
      <trkpt lat="50.65454" lon="2.86536">
        <ele>17</ele>
        <time>2018-10-16T10:56:32.378Z</time>
      </trkpt>
      <trkpt lat="50.65175" lon="2.86802">
        <ele>18</ele>
        <time>2018-10-16T10:56:33.378Z</time>
      </trkpt>
      <trkpt lat="50.65038" lon="2.86919">
        <ele>17</ele>
        <time>2018-10-16T10:56:34.378Z</time>
      </trkpt>
      <trkpt lat="50.6487" lon="2.87037">
        <ele>19</ele>
        <time>2018-10-16T10:56:35.378Z</time>
      </trkpt>
      <trkpt lat="50.64849" lon="2.87049">
        <ele>19</ele>
        <time>2018-10-16T10:56:36.378Z</time>
      </trkpt>
      <trkpt lat="50.64827" lon="2.87039">
        <ele>18</ele>
        <time>2018-10-16T10:56:37.378Z</time>
      </trkpt>
      <trkpt lat="50.64734" lon="2.87122">
        <ele>18</ele>
        <time>2018-10-16T10:56:38.378Z</time>
      </trkpt>
      <trkpt lat="50.64728" lon="2.87149">
        <ele>19</ele>
        <time>2018-10-16T10:56:39.378Z</time>
      </trkpt>
      <trkpt lat="50.64671" lon="2.87197">
        <ele>19</ele>
        <time>2018-10-16T10:56:40.378Z</time>
      </trkpt>
      <trkpt lat="50.64645" lon="2.87222">
        <ele>19</ele>
        <time>2018-10-16T10:56:41.378Z</time>
      </trkpt>
      <trkpt lat="50.64645" lon="2.87222">
        <ele>19</ele>
        <time>2018-10-16T10:56:42.378Z</time>
      </trkpt>
      <trkpt lat="50.64626" lon="2.87241">
        <ele>18</ele>
        <time>2018-10-16T10:56:43.378Z</time>
      </trkpt>
      <trkpt lat="50.64583" lon="2.87427">
        <ele>18</ele>
        <time>2018-10-16T10:56:44.378Z</time>
      </trkpt>
      <trkpt lat="50.64622" lon="2.87528">
        <ele>19</ele>
        <time>2018-10-16T10:56:45.378Z</time>
      </trkpt>
      <trkpt lat="50.64667" lon="2.87649">
        <ele>18</ele>
        <time>2018-10-16T10:56:46.378Z</time>
      </trkpt>
      <trkpt lat="50.64613" lon="2.87701">
        <ele>18</ele>
        <time>2018-10-16T10:56:47.378Z</time>
      </trkpt>
      <trkpt lat="50.64614" lon="2.87702">
        <ele>18</ele>
        <time>2018-10-16T10:56:48.378Z</time>
      </trkpt>
      <trkpt lat="50.64572" lon="2.87752">
        <ele>18</ele>
        <time>2018-10-16T10:56:49.378Z</time>
      </trkpt>
      <trkpt lat="50.6453" lon="2.87778">
        <ele>18</ele>
        <time>2018-10-16T10:56:50.378Z</time>
      </trkpt>
      <trkpt lat="50.64418" lon="2.8788">
        <ele>17</ele>
        <time>2018-10-16T10:56:51.378Z</time>
      </trkpt>
      <trkpt lat="50.64135" lon="2.88049">
        <ele>20</ele>
        <time>2018-10-16T10:56:52.378Z</time>
      </trkpt>
      <trkpt lat="50.64027" lon="2.8811">
        <ele>19</ele>
        <time>2018-10-16T10:56:53.378Z</time>
      </trkpt>
      <trkpt lat="50.64011" lon="2.88124">
        <ele>18</ele>
        <time>2018-10-16T10:56:54.378Z</time>
      </trkpt>
      <trkpt lat="50.64" lon="2.88148">
        <ele>18</ele>
        <time>2018-10-16T10:56:55.378Z</time>
      </trkpt>
      <trkpt lat="50.6397" lon="2.88318">
        <ele>17</ele>
        <time>2018-10-16T10:56:56.378Z</time>
      </trkpt>
      <trkpt lat="50.63946" lon="2.884">
        <ele>17</ele>
        <time>2018-10-16T10:56:57.378Z</time>
      </trkpt>
      <trkpt lat="50.63946" lon="2.88401">
        <ele>17</ele>
        <time>2018-10-16T10:56:58.378Z</time>
      </trkpt>
      <trkpt lat="50.6392" lon="2.8849">
        <ele>18</ele>
        <time>2018-10-16T10:56:59.378Z</time>
      </trkpt>
      <trkpt lat="50.63813" lon="2.88671">
        <ele>18</ele>
        <time>2018-10-16T10:57:00.378Z</time>
      </trkpt>
      <trkpt lat="50.63565" lon="2.8905">
        <ele>19</ele>
        <time>2018-10-16T10:57:01.378Z</time>
      </trkpt>
      <trkpt lat="50.63493" lon="2.89169">
        <ele>19</ele>
        <time>2018-10-16T10:57:02.378Z</time>
      </trkpt>
      <trkpt lat="50.63411" lon="2.89298">
        <ele>20</ele>
        <time>2018-10-16T10:57:03.378Z</time>
      </trkpt>
      <trkpt lat="50.63338" lon="2.89363">
        <ele>19</ele>
        <time>2018-10-16T10:57:04.378Z</time>
      </trkpt>
      <trkpt lat="50.63193" lon="2.89511">
        <ele>17</ele>
        <time>2018-10-16T10:57:05.378Z</time>
      </trkpt>
      <trkpt lat="50.63124" lon="2.89574">
        <ele>19</ele>
        <time>2018-10-16T10:57:06.378Z</time>
      </trkpt>
      <trkpt lat="50.63079" lon="2.8963">
        <ele>20</ele>
        <time>2018-10-16T10:57:07.378Z</time>
      </trkpt>
      <trkpt lat="50.62943" lon="2.89809">
        <ele>21</ele>
        <time>2018-10-16T10:57:08.378Z</time>
      </trkpt>
      <trkpt lat="50.62877" lon="2.89912">
        <ele>20</ele>
        <time>2018-10-16T10:57:09.378Z</time>
      </trkpt>
      <trkpt lat="50.62845" lon="2.89966">
        <ele>18</ele>
        <time>2018-10-16T10:57:10.378Z</time>
      </trkpt>
      <trkpt lat="50.62689" lon="2.9022">
        <ele>19</ele>
        <time>2018-10-16T10:57:11.378Z</time>
      </trkpt>
      <trkpt lat="50.62505" lon="2.90428">
        <ele>21</ele>
        <time>2018-10-16T10:57:12.378Z</time>
      </trkpt>
      <trkpt lat="50.62396" lon="2.90517">
        <ele>22</ele>
        <time>2018-10-16T10:57:13.378Z</time>
      </trkpt>
      <trkpt lat="50.623" lon="2.90553">
        <ele>22</ele>
        <time>2018-10-16T10:57:14.378Z</time>
      </trkpt>
      <trkpt lat="50.62264" lon="2.90574">
        <ele>23</ele>
        <time>2018-10-16T10:57:15.378Z</time>
      </trkpt>
      <trkpt lat="50.62218" lon="2.90604">
        <ele>23</ele>
        <time>2018-10-16T10:57:16.378Z</time>
      </trkpt>
      <trkpt lat="50.62201" lon="2.9063">
        <ele>23</ele>
        <time>2018-10-16T10:57:17.378Z</time>
      </trkpt>
      <trkpt lat="50.62181" lon="2.90646">
        <ele>23</ele>
        <time>2018-10-16T10:57:18.378Z</time>
      </trkpt>
      <trkpt lat="50.62145" lon="2.90662">
        <ele>24</ele>
        <time>2018-10-16T10:57:19.378Z</time>
      </trkpt>
      <trkpt lat="50.62146" lon="2.90673">
        <ele>24</ele>
        <time>2018-10-16T10:57:20.378Z</time>
      </trkpt>
      <trkpt lat="50.62144" lon="2.90743">
        <ele>24</ele>
        <time>2018-10-16T10:57:21.378Z</time>
      </trkpt>
      <trkpt lat="50.62144" lon="2.90743">
        <ele>24</ele>
        <time>2018-10-16T10:57:22.378Z</time>
      </trkpt>
      <trkpt lat="50.62144" lon="2.90825">
        <ele>25</ele>
        <time>2018-10-16T10:57:23.378Z</time>
      </trkpt>
      <trkpt lat="50.62146" lon="2.9084">
        <ele>25</ele>
        <time>2018-10-16T10:57:24.378Z</time>
      </trkpt>
      <trkpt lat="50.62222" lon="2.9112">
        <ele>22</ele>
        <time>2018-10-16T10:57:25.378Z</time>
      </trkpt>
      <trkpt lat="50.62243" lon="2.91167">
        <ele>21</ele>
        <time>2018-10-16T10:57:26.378Z</time>
      </trkpt>
      <trkpt lat="50.62265" lon="2.91205">
        <ele>21</ele>
        <time>2018-10-16T10:57:27.378Z</time>
      </trkpt>
      <trkpt lat="50.62235" lon="2.9125">
        <ele>24</ele>
        <time>2018-10-16T10:57:28.378Z</time>
      </trkpt>
      <trkpt lat="50.62222" lon="2.91261">
        <ele>24</ele>
        <time>2018-10-16T10:57:29.378Z</time>
      </trkpt>
      <trkpt lat="50.62223" lon="2.91261">
        <ele>24</ele>
        <time>2018-10-16T10:57:30.378Z</time>
      </trkpt>
      <trkpt lat="50.62188" lon="2.91293">
        <ele>26</ele>
        <time>2018-10-16T10:57:31.378Z</time>
      </trkpt>
      <trkpt lat="50.62097" lon="2.91351">
        <ele>28</ele>
        <time>2018-10-16T10:57:32.378Z</time>
      </trkpt>
      <trkpt lat="50.62008" lon="2.91383">
        <ele>28</ele>
        <time>2018-10-16T10:57:33.378Z</time>
      </trkpt>
      <trkpt lat="50.61974" lon="2.914">
        <ele>29</ele>
        <time>2018-10-16T10:57:34.378Z</time>
      </trkpt>
      <trkpt lat="50.61863" lon="2.91465">
        <ele>31</ele>
        <time>2018-10-16T10:57:35.378Z</time>
      </trkpt>
      <trkpt lat="50.61725" lon="2.91566">
        <ele>32</ele>
        <time>2018-10-16T10:57:36.378Z</time>
      </trkpt>
      <trkpt lat="50.61739" lon="2.91665">
        <ele>31</ele>
        <time>2018-10-16T10:57:37.378Z</time>
      </trkpt>
      <trkpt lat="50.61735" lon="2.91666">
        <ele>31</ele>
        <time>2018-10-16T10:57:38.378Z</time>
      </trkpt>
      <trkpt lat="50.61752" lon="2.91961">
        <ele>35</ele>
        <time>2018-10-16T10:57:39.378Z</time>
      </trkpt>
      <trkpt lat="50.61762" lon="2.9229">
        <ele>36</ele>
        <time>2018-10-16T10:57:40.378Z</time>
      </trkpt>
      <trkpt lat="50.61766" lon="2.92354">
        <ele>37</ele>
        <time>2018-10-16T10:57:41.378Z</time>
      </trkpt>
      <trkpt lat="50.61775" lon="2.92418">
        <ele>36</ele>
        <time>2018-10-16T10:57:42.378Z</time>
      </trkpt>
      <trkpt lat="50.61784" lon="2.92455">
        <ele>37</ele>
        <time>2018-10-16T10:57:43.378Z</time>
      </trkpt>
      <trkpt lat="50.61796" lon="2.9249">
        <ele>37</ele>
        <time>2018-10-16T10:57:44.378Z</time>
      </trkpt>
      <trkpt lat="50.61819" lon="2.9254">
        <ele>38</ele>
        <time>2018-10-16T10:57:45.378Z</time>
      </trkpt>
      <trkpt lat="50.61847" lon="2.92591">
        <ele>37</ele>
        <time>2018-10-16T10:57:46.378Z</time>
      </trkpt>
      <trkpt lat="50.61774" lon="2.9265">
        <ele>39</ele>
        <time>2018-10-16T10:57:47.378Z</time>
      </trkpt>
      <trkpt lat="50.6155" lon="2.92796">
        <ele>39</ele>
        <time>2018-10-16T10:57:48.378Z</time>
      </trkpt>
      <trkpt lat="50.61448" lon="2.92905">
        <ele>39</ele>
        <time>2018-10-16T10:57:49.378Z</time>
      </trkpt>
      <trkpt lat="50.61458" lon="2.92921">
        <ele>38</ele>
        <time>2018-10-16T10:57:50.378Z</time>
      </trkpt>
      <trkpt lat="50.6145" lon="2.92927">
        <ele>39</ele>
        <time>2018-10-16T10:57:51.378Z</time>
      </trkpt>
      <trkpt lat="50.61312" lon="2.93002">
        <ele>37</ele>
        <time>2018-10-16T10:57:52.378Z</time>
      </trkpt>
      <trkpt lat="50.61278" lon="2.93023">
        <ele>37</ele>
        <time>2018-10-16T10:57:53.378Z</time>
      </trkpt>
      <trkpt lat="50.61266" lon="2.93037">
        <ele>37</ele>
        <time>2018-10-16T10:57:54.378Z</time>
      </trkpt>
      <trkpt lat="50.61231" lon="2.9306">
        <ele>36</ele>
        <time>2018-10-16T10:57:55.378Z</time>
      </trkpt>
      <trkpt lat="50.61126" lon="2.93119">
        <ele>34</ele>
        <time>2018-10-16T10:57:56.378Z</time>
      </trkpt>
      <trkpt lat="50.61126" lon="2.93119">
        <ele>34</ele>
        <time>2018-10-16T10:57:57.378Z</time>
      </trkpt>
      <trkpt lat="50.61012" lon="2.93185">
        <ele>31</ele>
        <time>2018-10-16T10:57:58.378Z</time>
      </trkpt>
      <trkpt lat="50.60995" lon="2.93192">
        <ele>31</ele>
        <time>2018-10-16T10:57:59.378Z</time>
      </trkpt>
      <trkpt lat="50.60962" lon="2.93215">
        <ele>30</ele>
        <time>2018-10-16T10:58:00.378Z</time>
      </trkpt>
      <trkpt lat="50.60938" lon="2.93223">
        <ele>30</ele>
        <time>2018-10-16T10:58:01.378Z</time>
      </trkpt>
      <trkpt lat="50.60892" lon="2.93256">
        <ele>30</ele>
        <time>2018-10-16T10:58:02.378Z</time>
      </trkpt>
      <trkpt lat="50.60851" lon="2.93272">
        <ele>29</ele>
        <time>2018-10-16T10:58:03.378Z</time>
      </trkpt>
      <trkpt lat="50.60797" lon="2.93306">
        <ele>29</ele>
        <time>2018-10-16T10:58:04.378Z</time>
      </trkpt>
      <trkpt lat="50.60773" lon="2.93315">
        <ele>29</ele>
        <time>2018-10-16T10:58:05.378Z</time>
      </trkpt>
      <trkpt lat="50.60746" lon="2.93334">
        <ele>29</ele>
        <time>2018-10-16T10:58:06.378Z</time>
      </trkpt>
      <trkpt lat="50.60708" lon="2.93354">
        <ele>28</ele>
        <time>2018-10-16T10:58:07.378Z</time>
      </trkpt>
      <trkpt lat="50.60682" lon="2.93371">
        <ele>28</ele>
        <time>2018-10-16T10:58:08.378Z</time>
      </trkpt>
      <trkpt lat="50.60661" lon="2.9338">
        <ele>28</ele>
        <time>2018-10-16T10:58:09.378Z</time>
      </trkpt>
      <trkpt lat="50.60636" lon="2.93393">
        <ele>28</ele>
        <time>2018-10-16T10:58:10.378Z</time>
      </trkpt>
      <trkpt lat="50.60605" lon="2.93416">
        <ele>27</ele>
        <time>2018-10-16T10:58:11.378Z</time>
      </trkpt>
      <trkpt lat="50.60522" lon="2.93461">
        <ele>27</ele>
        <time>2018-10-16T10:58:12.378Z</time>
      </trkpt>
      <trkpt lat="50.60505" lon="2.93475">
        <ele>26</ele>
        <time>2018-10-16T10:58:13.378Z</time>
      </trkpt>
      <trkpt lat="50.60445" lon="2.93503">
        <ele>26</ele>
        <time>2018-10-16T10:58:14.378Z</time>
      </trkpt>
      <trkpt lat="50.60438" lon="2.9351">
        <ele>26</ele>
        <time>2018-10-16T10:58:15.378Z</time>
      </trkpt>
      <trkpt lat="50.60412" lon="2.93523">
        <ele>26</ele>
        <time>2018-10-16T10:58:16.378Z</time>
      </trkpt>
      <trkpt lat="50.60393" lon="2.93537">
        <ele>26</ele>
        <time>2018-10-16T10:58:17.378Z</time>
      </trkpt>
      <trkpt lat="50.60374" lon="2.93546">
        <ele>26</ele>
        <time>2018-10-16T10:58:18.378Z</time>
      </trkpt>
      <trkpt lat="50.60351" lon="2.93562">
        <ele>26</ele>
        <time>2018-10-16T10:58:19.378Z</time>
      </trkpt>
      <trkpt lat="50.60331" lon="2.93573">
        <ele>26</ele>
        <time>2018-10-16T10:58:20.378Z</time>
      </trkpt>
      <trkpt lat="50.60322" lon="2.93573">
        <ele>26</ele>
        <time>2018-10-16T10:58:21.378Z</time>
      </trkpt>
      <trkpt lat="50.60318" lon="2.93575">
        <ele>26</ele>
        <time>2018-10-16T10:58:22.378Z</time>
      </trkpt>
      <trkpt lat="50.60296" lon="2.93592">
        <ele>26</ele>
        <time>2018-10-16T10:58:23.378Z</time>
      </trkpt>
      <trkpt lat="50.60001" lon="2.93757">
        <ele>23</ele>
        <time>2018-10-16T10:58:24.378Z</time>
      </trkpt>
      <trkpt lat="50.59966" lon="2.93723">
        <ele>23</ele>
        <time>2018-10-16T10:58:25.378Z</time>
      </trkpt>
      <trkpt lat="50.59963" lon="2.93685">
        <ele>23</ele>
        <time>2018-10-16T10:58:26.378Z</time>
      </trkpt>
      <trkpt lat="50.59963" lon="2.93684">
        <ele>23</ele>
        <time>2018-10-16T10:58:27.378Z</time>
      </trkpt>
      <trkpt lat="50.59925" lon="2.93174">
        <ele>24</ele>
        <time>2018-10-16T10:58:28.378Z</time>
      </trkpt>
      <trkpt lat="50.59921" lon="2.93139">
        <ele>24</ele>
        <time>2018-10-16T10:58:29.378Z</time>
      </trkpt>
      <trkpt lat="50.59909" lon="2.9311">
        <ele>24</ele>
        <time>2018-10-16T10:58:30.378Z</time>
      </trkpt>
      <trkpt lat="50.59576" lon="2.92552">
        <ele>29</ele>
        <time>2018-10-16T10:58:31.378Z</time>
      </trkpt>
      <trkpt lat="50.59573" lon="2.92555">
        <ele>29</ele>
        <time>2018-10-16T10:58:32.378Z</time>
      </trkpt>
      <trkpt lat="50.59574" lon="2.92555">
        <ele>29</ele>
        <time>2018-10-16T10:58:33.378Z</time>
      </trkpt>
      <trkpt lat="50.59551" lon="2.92578">
        <ele>29</ele>
        <time>2018-10-16T10:58:34.378Z</time>
      </trkpt>
      <trkpt lat="50.59469" lon="2.92617">
        <ele>30</ele>
        <time>2018-10-16T10:58:35.378Z</time>
      </trkpt>
      <trkpt lat="50.59378" lon="2.92656">
        <ele>31</ele>
        <time>2018-10-16T10:58:36.378Z</time>
      </trkpt>
      <trkpt lat="50.59304" lon="2.92683">
        <ele>31</ele>
        <time>2018-10-16T10:58:37.378Z</time>
      </trkpt>
      <trkpt lat="50.59227" lon="2.92703">
        <ele>31</ele>
        <time>2018-10-16T10:58:38.378Z</time>
      </trkpt>
      <trkpt lat="50.59134" lon="2.92704">
        <ele>30</ele>
        <time>2018-10-16T10:58:39.378Z</time>
      </trkpt>
      <trkpt lat="50.59133" lon="2.92693">
        <ele>30</ele>
        <time>2018-10-16T10:58:40.378Z</time>
      </trkpt>
      <trkpt lat="50.59088" lon="2.92698">
        <ele>30</ele>
        <time>2018-10-16T10:58:41.378Z</time>
      </trkpt>
      <trkpt lat="50.59083" lon="2.92694">
        <ele>30</ele>
        <time>2018-10-16T10:58:42.378Z</time>
      </trkpt>
      <trkpt lat="50.59082" lon="2.92694">
        <ele>30</ele>
        <time>2018-10-16T10:58:43.378Z</time>
      </trkpt>
      <trkpt lat="50.59064" lon="2.92679">
        <ele>30</ele>
        <time>2018-10-16T10:58:44.378Z</time>
      </trkpt>
      <trkpt lat="50.59045" lon="2.92683">
        <ele>30</ele>
        <time>2018-10-16T10:58:45.378Z</time>
      </trkpt>
      <trkpt lat="50.59045" lon="2.92682">
        <ele>30</ele>
        <time>2018-10-16T10:58:46.378Z</time>
      </trkpt>
      <trkpt lat="50.59034" lon="2.92685">
        <ele>30</ele>
        <time>2018-10-16T10:58:47.378Z</time>
      </trkpt>
      <trkpt lat="50.59032" lon="2.92694">
        <ele>30</ele>
        <time>2018-10-16T10:58:48.378Z</time>
      </trkpt>
      <trkpt lat="50.59033" lon="2.92702">
        <ele>30</ele>
        <time>2018-10-16T10:58:49.378Z</time>
      </trkpt>
      <trkpt lat="50.59031" lon="2.92708">
        <ele>30</ele>
        <time>2018-10-16T10:58:50.378Z</time>
      </trkpt>
      <trkpt lat="50.59031" lon="2.92708">
        <ele>30</ele>
        <time>2018-10-16T10:58:51.378Z</time>
      </trkpt>
      <trkpt lat="50.59026" lon="2.92734">
        <ele>29</ele>
        <time>2018-10-16T10:58:52.378Z</time>
      </trkpt>
      <trkpt lat="50.59008" lon="2.92755">
        <ele>29</ele>
        <time>2018-10-16T10:58:53.378Z</time>
      </trkpt>
      <trkpt lat="50.58978" lon="2.9278">
        <ele>29</ele>
        <time>2018-10-16T10:58:54.378Z</time>
      </trkpt>
      <trkpt lat="50.58958" lon="2.9279">
        <ele>28</ele>
        <time>2018-10-16T10:58:55.378Z</time>
      </trkpt>
      <trkpt lat="50.58945" lon="2.92787">
        <ele>28</ele>
        <time>2018-10-16T10:58:56.378Z</time>
      </trkpt>
      <trkpt lat="50.58933" lon="2.92775">
        <ele>28</ele>
        <time>2018-10-16T10:58:57.378Z</time>
      </trkpt>
      <trkpt lat="50.58932" lon="2.92775">
        <ele>28</ele>
        <time>2018-10-16T10:58:58.378Z</time>
      </trkpt>
      <trkpt lat="50.58928" lon="2.92774">
        <ele>28</ele>
        <time>2018-10-16T10:58:59.378Z</time>
      </trkpt>
      <trkpt lat="50.58921" lon="2.92779">
        <ele>28</ele>
        <time>2018-10-16T10:59:00.378Z</time>
      </trkpt>
      <trkpt lat="50.58906" lon="2.92801">
        <ele>28</ele>
        <time>2018-10-16T10:59:01.378Z</time>
      </trkpt>
      <trkpt lat="50.58897" lon="2.92833">
        <ele>28</ele>
        <time>2018-10-16T10:59:02.378Z</time>
      </trkpt>
      <trkpt lat="50.58873" lon="2.92857">
        <ele>27</ele>
        <time>2018-10-16T10:59:03.378Z</time>
      </trkpt>
      <trkpt lat="50.58873" lon="2.92869">
        <ele>27</ele>
        <time>2018-10-16T10:59:04.378Z</time>
      </trkpt>
      <trkpt lat="50.5881" lon="2.92914">
        <ele>28</ele>
        <time>2018-10-16T10:59:05.378Z</time>
      </trkpt>
      <trkpt lat="50.58788" lon="2.92924">
        <ele>28</ele>
        <time>2018-10-16T10:59:06.378Z</time>
      </trkpt>
      <trkpt lat="50.5877" lon="2.9293">
        <ele>28</ele>
        <time>2018-10-16T10:59:07.378Z</time>
      </trkpt>
      <trkpt lat="50.58751" lon="2.92931">
        <ele>29</ele>
        <time>2018-10-16T10:59:08.378Z</time>
      </trkpt>
      <trkpt lat="50.58754" lon="2.92996">
        <ele>27</ele>
        <time>2018-10-16T10:59:09.378Z</time>
      </trkpt>
    </trkseg>
  </trk>
</gpx>